Provisional Data: Portage Creek near Emporium, PA


Please select a monitoring station.
Please select start date.
Please select start date.

Toggle Unit: C/F Toggle Unit: C/F
Sample Time Temperature (C) Temperature (F) Specific Conductivity (mS/cm) pH   Turbidity (NTU+) DO (mg/L)
12/11/2021 12:00:00 AM 4.89 40.802 0.053 6.97 3.02 12.3
12/11/2021 12:15:00 AM 4.88 40.784 0.053 6.99 3.01 12.31
12/11/2021 12:30:00 AM 4.86 40.748 0.054 6.97 3.08 12.3
12/11/2021 12:45:00 AM 4.85 40.73 0.054 7 3.03 12.31
12/11/2021 1:00:00 AM 4.84 40.712 0.054 6.98 3 12.31
12/11/2021 1:15:00 AM 4.84 40.712 0.054 7 3.04 12.31
12/11/2021 1:30:00 AM 4.83 40.694 0.054 7 3.02 12.31
12/11/2021 1:45:00 AM 4.83 40.694 0.054 6.98 3.03 12.3
12/11/2021 2:00:00 AM 4.83 40.694 0.054 6.99 3.03 12.3
12/11/2021 2:15:00 AM 4.82 40.676 0.054 6.98 3.04 12.29
12/11/2021 2:30:00 AM 4.83 40.694 0.054 6.98 3.04 12.29
12/11/2021 2:45:00 AM 4.84 40.712 0.054 6.97 2.99 12.29
12/11/2021 3:00:00 AM 4.85 40.73 0.054 6.98 3.03 12.29
12/11/2021 3:15:00 AM 4.85 40.73 0.054 6.98 2.99 12.28
12/11/2021 3:30:00 AM 4.86 40.748 0.054 6.97 3.03 12.27
12/11/2021 3:45:00 AM 4.86 40.748 0.053 6.98 3.07 12.28
12/11/2021 4:00:00 AM 4.87 40.766 0.054 7.01 3.14 12.27
12/11/2021 4:15:00 AM 4.88 40.784 0.055 6.99 3.63 12.26
12/11/2021 4:30:00 AM 4.89 40.802 0.054 6.99 3.71 12.25
12/11/2021 4:45:00 AM 4.91 40.838 0.054 6.99 4.6 12.24
12/11/2021 5:00:00 AM 4.92 40.856 0.054 6.98 5.81 12.23
12/11/2021 5:15:00 AM 4.93 40.874 0.054 6.98 6.09 12.21
12/11/2021 5:30:00 AM 4.95 40.91 0.054 6.97 6.28 12.21
12/11/2021 5:45:00 AM 4.97 40.946 0.054 6.98 7.04 12.2
12/11/2021 6:00:00 AM 4.99 40.982 0.054 7.02 11.26 12.19
12/11/2021 6:15:00 AM 5.01 41.018 0.054 6.99 9.32 12.18
12/11/2021 6:30:00 AM 5.03 41.054 0.054 6.98 11.21 12.17
12/11/2021 6:45:00 AM 5.05 41.09 0.054 6.98 14.16 12.16
12/11/2021 7:00:00 AM 5.07 41.126 0.054 6.98 17.51 12.15
12/11/2021 7:15:00 AM 5.1 41.18 0.054 6.98 19.25 12.15
12/11/2021 7:30:00 AM 5.13 41.234 0.054 6.97 17.36 12.14
12/11/2021 7:45:00 AM 5.17 41.306 0.054 6.97 16.49 12.14
12/11/2021 8:00:00 AM 5.2 41.36 0.054 6.97 17.77 12.14
12/11/2021 8:15:00 AM 5.22 41.396 0.054 6.97 19.93 12.14
12/11/2021 8:30:00 AM 5.25 41.45 0.054 6.95 22.18 12.15
12/11/2021 8:45:00 AM 5.28 41.504 0.054 6.99 26.89 12.16
12/11/2021 9:00:00 AM 5.32 41.576 0.054 6.98 2926.17 12.16
12/11/2021 9:15:00 AM 5.36 41.648 0.053 7.01 34.67 12.16
12/11/2021 9:30:00 AM 5.41 41.738 0.053 7.05 34.36 12.17
12/11/2021 9:45:00 AM 5.46 41.828 0.054 7.01 35.41 12.16
12/11/2021 10:00:00 AM 5.5 41.9 0.054 6.99 38.9 12.15
12/11/2021 10:15:00 AM 5.55 41.99 0.054 7.03 40.93 12.14
12/11/2021 10:30:00 AM 5.61 42.098 0.055 7.01 42.5 12.13
12/11/2021 10:45:00 AM 5.64 42.152 0.055 7.01 42.92 12.1
12/11/2021 11:00:00 AM 5.7 42.26 0.055 7.01 41.74 12.09
12/11/2021 11:15:00 AM 5.76 42.368 0.055 7.01 41.17 12.09
12/11/2021 11:30:00 AM 5.82 42.476 0.055 7.07 37.93 12.09
12/11/2021 11:45:00 AM 5.88 42.584 0.055 7.01 35.61 12.08
12/11/2021 12:00:00 PM 5.93 42.674 0.055 7.03 33.44 12.06
12/11/2021 12:15:00 PM 6.01 42.818 0.055 7.05 31.75 12.05
12/11/2021 12:30:00 PM 6.09 42.962 0.056 7.03 29.18 12.06
12/11/2021 12:45:00 PM 6.18 43.124 0.056 7.05 27.19 12.05
12/11/2021 1:00:00 PM 6.25 43.25 0.056 7.06 25.65 12.02
12/11/2021 1:15:00 PM 6.31 43.358 0.056 7.07 26.8 11.98
12/11/2021 1:30:00 PM 6.36 43.448 0.056 7.07 23.46 11.96
12/11/2021 1:45:00 PM 6.43 43.574 0.056 7.05 22.51 11.93
12/11/2021 2:00:00 PM 6.49 43.682 0.056 7.09 21.93 11.9
12/11/2021 2:15:00 PM 6.55 43.79 0.056 7.05 20.94 11.86
12/11/2021 2:30:00 PM 6.6 43.88 0.056 7.05 20.04 11.82
12/11/2021 2:45:00 PM 6.64 43.952 0.056 7.05 19.53 11.78
12/11/2021 3:00:00 PM 6.7 44.06 0.056 7.04 19.07 11.75
12/11/2021 3:15:00 PM 6.75 44.15 0.056 7.05 18.62 11.72
12/11/2021 3:30:00 PM 6.79 44.222 0.056 7.07 18.42 11.71
12/11/2021 3:45:00 PM 6.83 44.294 0.056 7.03 17.99 11.68
12/11/2021 4:00:00 PM 6.9 44.42 0.056 7.04 17.28 11.65
12/11/2021 4:15:00 PM 6.98 44.564 0.055 7.03 16.64 11.61
12/11/2021 4:30:00 PM 7.12 44.816 0.055 7.05 16.03 11.56
12/11/2021 4:45:00 PM 7.2 44.96 0.055 7 16.29 11.52
12/11/2021 5:00:00 PM 7.25 45.05 0.055 7.04 16.58 11.48
12/11/2021 5:15:00 PM 7.28 45.104 0.055 7.03 17.5 11.45
12/11/2021 5:30:00 PM 7.27 45.086 0.055 7.03 16.36 11.44
12/11/2021 5:45:00 PM 7.27 45.086 0.055 7.01 16.52 11.43
12/11/2021 6:00:00 PM 7.26 45.068 0.055 7.01 16.35 11.43
12/11/2021 6:15:00 PM 7.22 44.996 0.055 7.04 16.72 11.43
12/11/2021 6:30:00 PM 7.19 44.942 0.055 6.99 16.9 11.44
12/11/2021 6:45:00 PM 7.18 44.924 0.055 6.99 17.1 11.44
12/11/2021 7:00:00 PM 7.12 44.816 0.055 6.99 17.71 11.46
12/11/2021 7:15:00 PM 7.06 44.708 0.055 7.02 17.42 11.48
12/11/2021 7:30:00 PM 7.02 44.636 0.055 6.97 15.66 11.5
12/11/2021 7:45:00 PM 6.97 44.546 0.055 6.98 14.93 11.52
12/11/2021 8:00:00 PM 6.92 44.456 0.055 6.98 15.17 11.53
12/11/2021 8:15:00 PM 6.88 44.384 0.055 6.97 16.01 11.56
12/11/2021 8:30:00 PM 6.84 44.312 0.055 6.98 18.23 11.58
12/11/2021 8:45:00 PM 6.8 44.24 0.055 6.97 18.8 11.6
12/11/2021 9:00:00 PM 6.75 44.15 0.055 6.98 18.84 11.62
12/11/2021 9:15:00 PM 6.7 44.06 0.055 7 18.18 11.64
12/11/2021 9:30:00 PM 6.65 43.97 0.055 6.98 17.53 11.66
12/11/2021 9:45:00 PM 6.6 43.88 0.055 6.98 15.96 11.68
12/11/2021 10:00:00 PM 6.56 43.808 0.055 7 14.89 11.7
12/11/2021 10:15:00 PM 6.51 43.718 0.055 6.97 13.94 11.72
12/11/2021 10:30:00 PM 6.46 43.628 0.055 6.98 13.59 11.74
12/11/2021 10:45:00 PM 6.41 43.538 0.055 7.02 12.48 11.75
12/11/2021 11:00:00 PM 6.36 43.448 0.055 6.96 12.25 11.78
12/11/2021 11:15:00 PM 6.3 43.34 0.054 6.98 12.07 11.79
12/11/2021 11:30:00 PM 6.26 43.268 0.054 6.96 11.51 11.82
12/11/2021 11:45:00 PM 6.21 43.178 0.054 6.96 11.17 11.84
12/12/2021 12:00:00 AM 6.16 43.088 0.054 6.97 11.07 11.86
12/12/2021 12:15:00 AM 6.12 43.016 0.054 7.02 10.47 11.88
12/12/2021 12:30:00 AM 6.08 42.944 0.054 6.98 10.29 11.89
12/12/2021 12:45:00 AM 6.05 42.89 0.054 7.02 9.79 11.91
12/12/2021 1:00:00 AM 6.01 42.818 0.054 6.98 10 11.93
12/12/2021 1:15:00 AM 5.98 42.764 0.054 6.97 9.73 11.94
12/12/2021 1:30:00 AM 5.95 42.71 0.054 6.97 9.81 11.95
12/12/2021 1:45:00 AM 5.92 42.656 0.053 6.96 9.74 11.97
12/12/2021 2:00:00 AM 5.88 42.584 0.053 6.97 9.48 11.98
12/12/2021 2:15:00 AM 5.85 42.53 0.053 6.97 9.6 11.99
12/12/2021 2:30:00 AM 5.81 42.458 0.053 6.96 9.5 12.01
12/12/2021 2:45:00 AM 5.78 42.404 0.053 6.96 9.38 12.01
12/12/2021 3:00:00 AM 5.73 42.314 0.053 6.95 9.5 12.03
12/12/2021 3:15:00 AM 5.69 42.242 0.053 6.95 9.35 12.05
12/12/2021 3:30:00 AM 5.65 42.17 0.053 6.95 9.02 12.07
12/12/2021 3:45:00 AM 5.62 42.116 0.053 6.95 9.29 12.08
12/12/2021 4:00:00 AM 5.57 42.026 0.053 6.95 9.08 12.1
12/12/2021 4:15:00 AM 5.51 41.918 0.053 6.95 9.21 12.12
12/12/2021 4:30:00 AM 5.46 41.828 0.052 6.95 9.3 12.14
12/12/2021 4:45:00 AM 5.43 41.774 0.052 6.94 8.89 12.15
12/12/2021 5:00:00 AM 5.39 41.702 0.052 6.95 8.86 12.17
12/12/2021 5:15:00 AM 5.38 41.684 0.052 6.93 9.08 12.18
12/12/2021 5:30:00 AM 5.37 41.666 0.052 6.94 8.82 12.19
12/12/2021 5:45:00 AM 5.35 41.63 0.052 6.93 8.76 12.2
12/12/2021 6:00:00 AM 5.33 41.594 0.052 6.95 8.71 12.21
12/12/2021 6:15:00 AM 5.3 41.54 0.052 6.92 8.62 12.22
12/12/2021 6:30:00 AM 5.28 41.504 0.052 6.96 8.57 12.23
12/12/2021 6:45:00 AM 5.26 41.468 0.052 6.94 8.69 12.24
12/12/2021 7:00:00 AM 5.24 41.432 0.052 6.93 8.63 12.25
12/12/2021 7:15:00 AM 5.22 41.396 0.052 6.95 8.49 12.26
12/12/2021 7:30:00 AM 5.2 41.36 0.052 6.94 8.5 12.27
12/12/2021 7:45:00 AM 5.19 41.342 0.051 6.94 8.32 12.28
12/12/2021 8:00:00 AM 5.18 41.324 0.051 7 8.27 12.3
12/12/2021 8:15:00 AM 5.17 41.306 0.051 6.97 8.15 12.33
12/12/2021 8:30:00 AM 5.17 41.306 0.051 7 7.89 12.36
12/12/2021 8:45:00 AM 5.16 41.288 0.051 6.96 7.95 12.41
12/12/2021 9:00:00 AM 5.16 41.288 0.051 6.98 7.72 12.46
12/12/2021 9:15:00 AM 5.16 41.288 0.051 6.99 7.49 12.5
12/12/2021 9:30:00 AM 5.18 41.324 0.051 7.01 7.64 12.55
12/12/2021 9:45:00 AM 5.19 41.342 0.051 7.02 7.4 12.59
12/12/2021 10:00:00 AM 5.2 41.36 0.051 7.04 7.31 12.61
12/12/2021 10:15:00 AM 5.21 41.378 0.05 7.04 7.12 12.63
12/12/2021 10:30:00 AM 5.25 41.45 0.05 7.07 7.2 12.66
12/12/2021 10:45:00 AM 5.31 41.558 0.05 7.06 7.28 12.67
12/12/2021 11:00:00 AM 5.33 41.594 0.05 7.08 7.08 12.67
12/12/2021 11:15:00 AM 5.37 41.666 0.05 7.09 6.97 12.68
12/12/2021 11:30:00 AM 5.43 41.774 0.05 7.11 7.01 12.68
12/12/2021 11:45:00 AM 5.47 41.846 0.05 7.09 6.82 12.68
12/12/2021 12:00:00 PM 5.52 41.936 0.05 7.11 6.67 12.68
12/12/2021 12:15:00 PM 5.58 42.044 0.05 7.11 6.48 12.67
12/12/2021 12:30:00 PM 5.64 42.152 0.05 7.12 6.58 12.66
12/12/2021 12:45:00 PM 5.69 42.242 0.05 7.11 6.4 12.65
12/12/2021 1:00:00 PM 5.74 42.332 0.05 7.12 6.37 12.63
12/12/2021 1:15:00 PM 5.79 42.422 0.05 7.14 6.4 12.62
12/12/2021 1:30:00 PM 5.84 42.512 0.05 7.17 6.08 12.61
12/12/2021 1:45:00 PM 5.89 42.602 0.05 7.12 6.28 12.59
12/12/2021 2:00:00 PM 5.94 42.692 0.05 7.12 6.78 12.57
12/12/2021 2:15:00 PM 5.95 42.71 0.05 7.13 6.53 12.55
12/12/2021 2:30:00 PM 5.97 42.746 0.05 7.15 6.14 12.53
12/12/2021 2:45:00 PM 5.98 42.764 0.05 7.11 6.25 12.5
12/12/2021 3:00:00 PM 5.97 42.746 0.05 7.11 6.27 12.48
12/12/2021 3:15:00 PM 5.95 42.71 0.05 7.11 6.1 12.44
12/12/2021 3:30:00 PM 5.93 42.674 0.05 7.08 6.06 12.41
12/12/2021 3:45:00 PM 5.9 42.62 0.05 7.07 6.29 12.39
12/12/2021 4:00:00 PM 5.87 42.566 0.05 7.05 6.2 12.35
12/12/2021 4:15:00 PM 5.82 42.476 0.05 7.05 6.04 12.33
12/12/2021 4:30:00 PM 5.77 42.386 0.05 7.03 6.14 12.31
12/12/2021 4:45:00 PM 5.72 42.296 0.05 7.05 6.19 12.28
12/12/2021 5:00:00 PM 5.67 42.206 0.05 6.99 5.96 12.25
12/12/2021 5:15:00 PM 5.62 42.116 0.05 6.98 5.98 12.23
12/12/2021 5:30:00 PM 5.57 42.026 0.05 6.98 5.92 12.22
12/12/2021 5:45:00 PM 5.54 41.972 0.05 6.98 6.05 12.22
12/12/2021 6:00:00 PM 5.49 41.882 0.05 6.97 6.13 12.21
12/12/2021 6:15:00 PM 5.45 41.81 0.05 6.96 6.01 12.22
12/12/2021 6:30:00 PM 5.41 41.738 0.05 6.95 6.06 12.23
12/12/2021 6:45:00 PM 5.37 41.666 0.05 6.94 6.15 12.24
12/12/2021 7:00:00 PM 5.33 41.594 0.05 6.92 6 12.25
12/12/2021 7:15:00 PM 5.29 41.522 0.05 6.95 5.93 12.26
12/12/2021 7:30:00 PM 5.25 41.45 0.05 6.92 6 12.27
12/12/2021 7:45:00 PM 5.21 41.378 0.05 6.93 5.93 12.28
12/12/2021 8:00:00 PM 5.17 41.306 0.05 6.95 5.86 12.3
12/12/2021 8:15:00 PM 5.13 41.234 0.05 6.91 5.91 12.31
12/12/2021 8:30:00 PM 5.09 41.162 0.05 6.94 5.82 12.32
12/12/2021 8:45:00 PM 5.05 41.09 0.05 6.89 5.81 12.33
12/12/2021 9:00:00 PM 5.01 41.018 0.05 6.89 5.71 12.34
12/12/2021 9:15:00 PM 4.97 40.946 0.05 6.93 5.66 12.36
12/12/2021 9:30:00 PM 4.94 40.892 0.05 6.9 5.75 12.37
12/12/2021 9:45:00 PM 4.9 40.82 0.05 6.91 5.65 12.39
12/12/2021 10:00:00 PM 4.86 40.748 0.05 6.92 5.62 12.4
12/12/2021 10:15:00 PM 4.82 40.676 0.05 6.92 5.6 12.41
12/12/2021 10:30:00 PM 4.78 40.604 0.05 6.89 5.63 12.43
12/12/2021 10:45:00 PM 4.74 40.532 0.05 6.89 5.49 12.44
12/12/2021 11:00:00 PM 4.71 40.478 0.05 6.89 5.43 12.45
12/12/2021 11:15:00 PM 4.67 40.406 0.05 6.88 5.49 12.47
12/12/2021 11:30:00 PM 4.64 40.352 0.05 6.92 5.45 12.48
12/12/2021 11:45:00 PM 4.6 40.28 0.05 6.9 5.34 12.49
12/13/2021 12:00:00 AM 4.57 40.226 0.05 6.93 5.37 12.5
12/13/2021 12:15:00 AM 4.54 40.172 0.05 6.92 5.29 12.51
12/13/2021 12:30:00 AM 4.51 40.118 0.05 6.88 5.32 12.52
12/13/2021 12:45:00 AM 4.49 40.082 0.05 6.9 5.17 12.52
12/13/2021 1:00:00 AM 4.46 40.028 0.049 6.92 5.27 12.53
12/13/2021 1:15:00 AM 4.43 39.974 0.049 6.9 5.09 12.54
12/13/2021 1:30:00 AM 4.4 39.92 0.049 6.9 5.21 12.55
12/13/2021 1:45:00 AM 4.37 39.866 0.049 6.89 5.32 12.56
12/13/2021 2:00:00 AM 4.35 39.83 0.049 6.93 5.17 12.58
12/13/2021 2:15:00 AM 4.33 39.794 0.049 6.93 5.06 12.59
12/13/2021 2:30:00 AM 4.31 39.758 0.049 6.87 4.94 12.59
12/13/2021 2:45:00 AM 4.29 39.722 0.049 6.89 5.1 12.61
12/13/2021 3:00:00 AM 4.28 39.704 0.049 6.88 4.95 12.61
12/13/2021 3:15:00 AM 4.27 39.686 0.049 6.89 4.93 12.62
12/13/2021 3:30:00 AM 4.26 39.668 0.049 6.91 4.93 12.62
12/13/2021 3:45:00 AM 4.25 39.65 0.049 6.88 5.2 12.62
12/13/2021 4:00:00 AM 4.24 39.632 0.049 6.92 5.01 12.63
12/13/2021 4:15:00 AM 4.23 39.614 0.049 6.91 5.12 12.63
12/13/2021 4:30:00 AM 4.21 39.578 0.049 6.87 4.95 12.64
12/13/2021 4:45:00 AM 4.2 39.56 0.049 6.91 9.09 12.65
12/13/2021 5:00:00 AM 4.18 39.524 0.049 6.91 11.18 12.66
12/13/2021 5:15:00 AM 4.16 39.488 0.049 6.93 2646.62 12.66
12/13/2021 5:30:00 AM 4.15 39.47 0.049 6.87 1274.64 12.66
12/13/2021 5:45:00 AM 4.14 39.452 0.049 6.88 3469.69 12.67
12/13/2021 6:00:00 AM 4.13 39.434 0.049 6.92 3090.54 12.67
12/13/2021 6:15:00 AM 4.12 39.416 0.049 6.9 2760.62 12.67
12/13/2021 6:30:00 AM 4.1 39.38 0.049 6.91 1033.19 12.68
12/13/2021 6:45:00 AM 4.09 39.362 0.049 6.88 530.74 12.68
12/13/2021 7:00:00 AM 4.07 39.326 0.049 6.9 4.65 12.69
12/13/2021 7:15:00 AM 4.06 39.308 0.049 6.93 4.6 12.69
12/13/2021 7:30:00 AM 4.05 39.29 0.049 6.91 4.63 12.7
12/13/2021 7:45:00 AM 4.04 39.272 0.049 6.9 4.63 12.71
12/13/2021 8:00:00 AM 4.03 39.254 0.049 6.78 4.66 12.74
12/13/2021 8:15:00 AM 4.02 39.236 0.049 6.78 4.56 12.77
12/13/2021 8:30:00 AM 4.02 39.236 0.049 6.82 4.5 12.8
12/13/2021 8:45:00 AM 4.01 39.218 0.049 6.86 4.34 12.83
12/13/2021 9:00:00 AM 4.01 39.218 0.049 6.91 4.47 12.87
12/13/2021 9:15:00 AM 4.03 39.254 0.049 6.9 4.33 12.9
12/13/2021 9:30:00 AM 4.04 39.272 0.049 6.94 4.28 12.94
12/13/2021 9:45:00 AM 4.06 39.308 0.049 6.95 4.24 12.97
12/13/2021 10:00:00 AM 4.09 39.362 0.049 6.98 4.21 12.99
12/13/2021 10:15:00 AM 4.12 39.416 0.049 6.98 4.09 13
12/13/2021 10:30:00 AM 4.17 39.506 0.049 7 4.09 13.02
12/13/2021 10:45:00 AM 4.23 39.614 0.049 7.01 3.99 13.03
12/13/2021 11:00:00 AM 4.31 39.758 0.049 7.04 4.08 13.03
12/13/2021 11:15:00 AM 4.39 39.902 0.049 7.02 3.94 13.02
12/13/2021 11:30:00 AM 4.48 40.064 0.049 7.05 3.88 13.01
12/13/2021 11:45:00 AM 4.58 40.244 0.049 7.06 3.89 13.01
12/13/2021 12:00:00 PM 4.68 40.424 0.049 7.07 3.92 13
12/13/2021 12:15:00 PM 4.79 40.622 0.049 7.08 3.87 12.98
12/13/2021 12:30:00 PM 4.9 40.82 0.049 7.09 3.84 12.95
12/13/2021 12:45:00 PM 5 41 0.049 7.09 3.74 12.91
12/13/2021 1:00:00 PM 5.11 41.198 0.049 7.1 3.82 12.89
12/13/2021 1:15:00 PM 5.21 41.378 0.049 7.13 3.91 12.87
12/13/2021 1:30:00 PM 5.29 41.522 0.049 7.11 3.82 12.84
12/13/2021 1:45:00 PM 5.36 41.648 0.049 7.1 3.87 12.81
12/13/2021 2:00:00 PM 5.43 41.774 0.049 7.11 3.8 12.78
12/13/2021 2:15:00 PM 5.49 41.882 0.049 7.12 3.79 12.75
12/13/2021 2:30:00 PM 5.53 41.954 0.049 7.12 3.8 12.71
12/13/2021 2:45:00 PM 5.57 42.026 0.049 7.12 3.84 12.68
12/13/2021 3:00:00 PM 5.59 42.062 0.049 7.11 3.79 12.64
12/13/2021 3:15:00 PM 5.6 42.08 0.049 7.11 3.8 12.61
12/13/2021 3:30:00 PM 5.59 42.062 0.049 7.08 3.94 12.57
12/13/2021 3:45:00 PM 5.57 42.026 0.049 7.08 3.97 12.54
12/13/2021 4:00:00 PM 5.55 41.99 0.049 7.06 3.85 12.5
12/13/2021 4:15:00 PM 5.53 41.954 0.049 7.05 3.96 12.47
12/13/2021 4:30:00 PM 5.5 41.9 0.049 7.05 3.93 12.44
12/13/2021 4:45:00 PM 5.47 41.846 0.049 7.02 3.96 12.41
12/13/2021 5:00:00 PM 5.43 41.774 0.049 7 4.51 12.38
12/13/2021 5:15:00 PM 5.39 41.702 0.049 6.99 4.23 12.35
12/13/2021 5:30:00 PM 5.35 41.63 0.049 6.99 4.1 12.34
12/13/2021 5:45:00 PM 5.32 41.576 0.049 6.96 4.07 12.33
12/13/2021 6:00:00 PM 5.29 41.522 0.049 6.96 4.22 12.33
12/13/2021 6:15:00 PM 5.25 41.45 0.05 6.95 4.22 12.32
12/13/2021 6:30:00 PM 5.22 41.396 0.05 6.94 4.22 12.32
12/13/2021 6:45:00 PM 5.18 41.324 0.05 6.95 4.17 12.32
12/13/2021 7:00:00 PM 5.15 41.27 0.05 6.95 4.11 12.33
12/13/2021 7:15:00 PM 5.11 41.198 0.049 6.95 4.16 12.34
12/13/2021 7:30:00 PM 5.08 41.144 0.049 6.92 4.22 12.34
12/13/2021 7:45:00 PM 5.05 41.09 0.049 6.92 4.2 12.35
12/13/2021 8:00:00 PM 5.01 41.018 0.049 6.96 4.25 12.36
12/13/2021 8:15:00 PM 4.98 40.964 0.049 6.92 4.03 12.37
12/13/2021 8:30:00 PM 4.94 40.892 0.049 6.94 4.19 12.39
12/13/2021 8:45:00 PM 4.9 40.82 0.049 6.92 4.12 12.4
12/13/2021 9:00:00 PM 4.87 40.766 0.049 6.96 4.09 12.42
12/13/2021 9:15:00 PM 4.83 40.694 0.049 6.91 4.14 12.44
12/13/2021 9:30:00 PM 4.8 40.64 0.05 6.93 4.02 12.45
12/13/2021 9:45:00 PM 4.76 40.568 0.05 6.91 4.11 12.46
12/13/2021 10:00:00 PM 4.72 40.496 0.05 6.92 3.99 12.48
12/13/2021 10:15:00 PM 4.69 40.442 0.05 6.93 4.08 12.5
12/13/2021 10:30:00 PM 4.65 40.37 0.05 6.93 4.08 12.51
12/13/2021 10:45:00 PM 4.61 40.298 0.05 6.91 4.14 12.52
12/13/2021 11:00:00 PM 4.57 40.226 0.05 6.94 3.98 12.54
12/13/2021 11:15:00 PM 4.53 40.154 0.05 6.91 3.9 12.55
12/13/2021 11:30:00 PM 4.48 40.064 0.05 6.93 4.09 12.56
12/13/2021 11:45:00 PM 4.45 40.01 0.05 6.94 3.86 12.57
12/14/2021 12:00:00 AM 4.41 39.938 0.05 6.91 3.84 12.58
12/14/2021 12:15:00 AM 4.37 39.866 0.05 6.92 3.86 12.6
12/14/2021 12:30:00 AM 4.33 39.794 0.05 6.91 4.01 12.61
12/14/2021 12:45:00 AM 4.3 39.74 0.05 6.94 3.87 12.63
12/14/2021 1:00:00 AM 4.26 39.668 0.05 6.91 3.94 12.65
12/14/2021 1:15:00 AM 4.23 39.614 0.05 6.91 3.88 12.66
12/14/2021 1:30:00 AM 4.2 39.56 0.05 6.92 3.82 12.68
12/14/2021 1:45:00 AM 4.16 39.488 0.05 6.95 3.92 12.69
12/14/2021 2:00:00 AM 4.13 39.434 0.05 6.92 3.85 12.7
12/14/2021 2:15:00 AM 4.1 39.38 0.05 6.93 3.8 12.72
12/14/2021 2:30:00 AM 4.07 39.326 0.05 6.91 3.72 12.73
12/14/2021 2:45:00 AM 4.03 39.254 0.05 6.92 3.79 12.75
12/14/2021 3:00:00 AM 4 39.2 0.05 6.95 3.86 12.76
12/14/2021 3:15:00 AM 3.97 39.146 0.05 6.91 3.98 12.77
12/14/2021 3:30:00 AM 3.94 39.092 0.05 6.92 4.03 12.78
12/14/2021 3:45:00 AM 3.9 39.02 0.05 6.92 3.86 12.78
12/14/2021 4:00:00 AM 3.87 38.966 0.05 6.94 4.16 12.79
12/14/2021 4:15:00 AM 3.84 38.912 0.05 6.94 3.93 12.8
12/14/2021 4:30:00 AM 3.81 38.858 0.05 6.93 3.96 12.81
12/14/2021 4:45:00 AM 3.78 38.804 0.05 6.91 3.98 12.82
12/14/2021 5:00:00 AM 3.75 38.75 0.05 6.91 4.08 12.83
12/14/2021 5:15:00 AM 3.72 38.696 0.05 6.88 3.97 12.84
12/14/2021 5:30:00 AM 3.69 38.642 0.05 6.88 4.05 12.86
12/14/2021 5:45:00 AM 3.66 38.588 0.05 6.91 3.96 12.88
12/14/2021 6:00:00 AM 3.62 38.516 0.05 6.86 3.95 12.89
12/14/2021 6:15:00 AM 3.59 38.462 0.05 6.9 3.88 12.91
12/14/2021 6:30:00 AM 3.56 38.408 0.05 6.87 3.98 12.92
12/14/2021 6:45:00 AM 3.53 38.354 0.05 6.89 3.98 12.94
12/14/2021 7:00:00 AM 3.5 38.3 0.05 6.86 3.86 12.95
12/14/2021 7:15:00 AM 3.47 38.246 0.05 6.87 3.85 12.96
12/14/2021 7:30:00 AM 3.45 38.21 0.05 6.87 3.86 12.98
12/14/2021 7:45:00 AM 3.42 38.156 0.05 6.89 3.8 13.01
12/14/2021 8:00:00 AM 3.4 38.12 0.05 6.89 3.86 13.04
12/14/2021 8:15:00 AM 3.38 38.084 0.05 6.9 3.88 13.09
12/14/2021 8:30:00 AM 3.36 38.048 0.05 6.91 3.8 13.13
12/14/2021 8:45:00 AM 3.35 38.03 0.05 6.94 3.7 13.18
12/14/2021 9:00:00 AM 3.34 38.012 0.05 6.94 3.86 13.23
12/14/2021 9:15:00 AM 3.35 38.03 0.05 6.99 3.69 13.27
12/14/2021 9:30:00 AM 3.36 38.048 0.05 6.97 3.77 13.31
12/14/2021 9:45:00 AM 3.37 38.066 0.05 7.01 3.72 13.36
12/14/2021 10:00:00 AM 3.4 38.12 0.05 7.01 3.7 13.39
12/14/2021 10:15:00 AM 3.43 38.174 0.05 7.02 3.65 13.41
12/14/2021 10:30:00 AM 3.46 38.228 0.05 7.05 3.62 13.43
12/14/2021 10:45:00 AM 3.52 38.336 0.05 7.06 3.5 13.44
12/14/2021 11:00:00 AM 3.65 38.57 0.05 7.31 2.65 13.32
12/14/2021 11:15:00 AM 3.73 38.714 0.05 7.08 2.43 13.27
12/14/2021 11:30:00 AM 3.83 38.894 0.05 7.03 2.54 13.26
12/14/2021 11:45:00 AM 3.93 39.074 0.05 6.97 2.46 13.24
12/14/2021 12:00:00 PM 4.05 39.29 0.05 6.97 2.49 13.22
12/14/2021 12:15:00 PM 4.17 39.506 0.05 7.01 2.37 13.18
12/14/2021 12:30:00 PM 4.29 39.722 0.049 7.05 2.52 13.16
12/14/2021 12:45:00 PM 4.42 39.956 0.049 7.06 2.45 13.13
12/14/2021 1:00:00 PM 4.54 40.172 0.049 7.11 2.4 13.09
12/14/2021 1:15:00 PM 4.65 40.37 0.049 7.1 2.32 13.07
12/14/2021 1:30:00 PM 4.75 40.55 0.049 7.12 2.29 13.01
12/14/2021 1:45:00 PM 4.83 40.694 0.049 7.12 2.39 12.98
12/14/2021 2:00:00 PM 4.91 40.838 0.049 7.13 2.35 12.95
12/14/2021 2:15:00 PM 4.98 40.964 0.049 7.14 2.38 12.92
12/14/2021 2:30:00 PM 5.04 41.072 0.049 7.14 2.37 12.89
12/14/2021 2:45:00 PM 5.1 41.18 0.049 7.15 2.42 12.85
12/14/2021 3:00:00 PM 5.13 41.234 0.049 7.14 2.38 12.81
12/14/2021 3:15:00 PM 5.15 41.27 0.05 7.15 2.36 12.77
12/14/2021 3:30:00 PM 5.15 41.27 0.05 7.13 2.52 12.72
12/14/2021 3:45:00 PM 5.16 41.288 0.05 7.14 2.38 12.69
12/14/2021 4:00:00 PM 5.14 41.252 0.05 7.11 2.31 12.66
12/14/2021 4:15:00 PM 5.11 41.198 0.05 7.1 2.48 12.63
12/14/2021 4:30:00 PM 5.08 41.144 0.05 7.09 2.31 12.6
12/14/2021 4:45:00 PM 5.03 41.054 0.05 7.08 2.46 12.56
12/14/2021 5:00:00 PM 4.99 40.982 0.05 7.07 2.46 12.52
12/14/2021 5:15:00 PM 4.94 40.892 0.05 7.05 2.4 12.49
12/14/2021 5:30:00 PM 4.89 40.802 0.05 7.04 2.41 12.46
12/14/2021 5:45:00 PM 4.85 40.73 0.05 7.03 2.54 12.44
12/14/2021 6:00:00 PM 4.81 40.658 0.05 7.02 2.61 12.43
12/14/2021 6:15:00 PM 4.78 40.604 0.051 7.02 2.67 12.43
12/14/2021 6:30:00 PM 4.76 40.568 0.051 7.01 2.64 12.43
12/14/2021 6:45:00 PM 4.73 40.514 0.051 7.01 2.67 12.44
12/14/2021 7:00:00 PM 4.7 40.46 0.051 7 2.59 12.45
12/14/2021 7:15:00 PM 4.68 40.424 0.051 7 2.63 12.45
12/14/2021 7:30:00 PM 4.66 40.388 0.051 6.99 2.63 12.45
12/14/2021 7:45:00 PM 4.63 40.334 0.051 6.99 2.71 12.47
12/14/2021 8:00:00 PM 4.61 40.298 0.051 7 2.64 12.48
12/14/2021 8:15:00 PM 4.59 40.262 0.051 6.99 2.55 12.49
12/14/2021 8:30:00 PM 4.57 40.226 0.051 6.99 2.6 12.5
12/14/2021 8:45:00 PM 4.54 40.172 0.051 6.99 2.59 12.51
12/14/2021 9:00:00 PM 4.52 40.136 0.051 6.98 2.59 12.52
12/14/2021 9:15:00 PM 4.49 40.082 0.051 6.99 2.58 12.53
12/14/2021 9:30:00 PM 4.46 40.028 0.051 6.99 2.61 12.54
12/14/2021 9:45:00 PM 4.42 39.956 0.051 6.98 2.54 12.56
12/14/2021 10:00:00 PM 4.39 39.902 0.051 6.99 2.56 12.57
12/14/2021 10:15:00 PM 4.37 39.866 0.051 6.98 2.59 12.58
12/14/2021 10:30:00 PM 4.34 39.812 0.051 6.98 2.63 12.59
12/14/2021 10:45:00 PM 4.31 39.758 0.051 6.84 2.5 12.6
12/14/2021 11:00:00 PM 4.29 39.722 0.051 6.87 2.44 12.61
12/14/2021 11:15:00 PM 4.27 39.686 0.051 6.92 2.52 12.61
12/14/2021 11:30:00 PM 4.25 39.65 0.051 6.9 2.43 12.62
12/14/2021 11:45:00 PM 4.23 39.614 0.051 6.89 2.61 12.62
12/15/2021 12:00:00 AM 4.2 39.56 0.051 6.92 2.48 12.63
12/15/2021 12:15:00 AM 4.17 39.506 0.051 6.93 2.42 12.64
12/15/2021 12:30:00 AM 4.14 39.452 0.051 6.93 2.5 12.64
12/15/2021 12:45:00 AM 4.11 39.398 0.051 6.94 2.63 12.66
12/15/2021 1:00:00 AM 4.08 39.344 0.051 6.93 2.39 12.66
12/15/2021 1:15:00 AM 4.05 39.29 0.051 6.95 2.46 12.67
12/15/2021 1:30:00 AM 4.02 39.236 0.051 6.94 2.46 12.68
12/15/2021 1:45:00 AM 3.99 39.182 0.051 6.95 2.41 12.68
12/15/2021 2:00:00 AM 3.95 39.11 0.051 6.94 2.49 12.69
12/15/2021 2:15:00 AM 3.92 39.056 0.051 6.94 2.72 12.7
12/15/2021 2:30:00 AM 3.89 39.002 0.051 6.93 2.5 12.71
12/15/2021 2:45:00 AM 3.87 38.966 0.051 6.93 2.42 12.71
12/15/2021 3:00:00 AM 3.84 38.912 0.052 6.96 2.53 12.72
12/15/2021 3:15:00 AM 3.81 38.858 0.052 6.94 2.53 12.72
12/15/2021 3:30:00 AM 3.78 38.804 0.051 6.97 2.55 12.74
12/15/2021 3:45:00 AM 3.75 38.75 0.051 6.96 2.53 12.75
12/15/2021 4:00:00 AM 3.72 38.696 0.051 6.97 2.53 12.76
12/15/2021 4:15:00 AM 3.7 38.66 0.051 6.96 2.5 12.77
12/15/2021 4:30:00 AM 3.67 38.606 0.051 6.98 2.56 12.78
12/15/2021 4:45:00 AM 3.65 38.57 0.051 6.95 2.57 12.79
12/15/2021 5:00:00 AM 3.63 38.534 0.051 6.98 2.59 12.79
12/15/2021 5:15:00 AM 3.62 38.516 0.051 6.96 2.6 12.8
12/15/2021 5:30:00 AM 3.61 38.498 0.051 6.96 2.49 12.81
12/15/2021 5:45:00 AM 3.6 38.48 0.051 6.97 2.49 12.81
12/15/2021 6:00:00 AM 3.58 38.444 0.051 6.97 2.41 12.82
12/15/2021 6:15:00 AM 3.56 38.408 0.051 6.98 2.47 12.82
12/15/2021 6:30:00 AM 3.55 38.39 0.051 6.97 2.41 12.83
12/15/2021 6:45:00 AM 3.53 38.354 0.051 6.96 2.48 12.84
12/15/2021 7:00:00 AM 3.52 38.336 0.051 6.98 2.48 12.85
12/15/2021 7:15:00 AM 3.51 38.318 0.051 6.98 2.34 12.86
12/15/2021 7:30:00 AM 3.51 38.318 0.051 6.99 2.39 12.87
12/15/2021 7:45:00 AM 3.52 38.336 0.051 7.02 2.47 12.88
12/15/2021 8:00:00 AM 3.53 38.354 0.051 7.03 2.34 12.9
12/15/2021 8:15:00 AM 3.54 38.372 0.051 7.03 2.29 12.94
12/15/2021 8:30:00 AM 3.57 38.426 0.051 7.05 2.31 13
12/15/2021 8:45:00 AM 3.61 38.498 0.051 7.06 2.34 13.04
12/15/2021 9:00:00 AM 3.64 38.552 0.051 7.09 2.22 13.07
12/15/2021 9:15:00 AM 3.68 38.624 0.051 7.07 2.27 13.09
12/15/2021 9:30:00 AM 3.72 38.696 0.051 7.11 2.22 13.13
12/15/2021 9:45:00 AM 3.77 38.786 0.051 7.09 2.25 13.14
12/15/2021 10:00:00 AM 3.82 38.876 0.051 7.12 2.31 13.14
12/15/2021 10:15:00 AM 3.88 38.984 0.051 7.14 2.2 13.15
12/15/2021 10:30:00 AM 3.95 39.11 0.051 7.16 2.13 13.18
12/15/2021 10:45:00 AM 4.02 39.236 0.051 7.17 2.19 13.17
12/15/2021 11:00:00 AM 4.08 39.344 0.051 7.19 2.48 13.16
12/15/2021 11:15:00 AM 4.15 39.47 0.051 7.2 2.19 13.13
12/15/2021 11:30:00 AM 4.21 39.578 0.051 7.19 2.09 13.11
12/15/2021 11:45:00 AM 4.28 39.704 0.051 7.22 2.1 13.09
12/15/2021 12:00:00 PM 4.34 39.812 0.051 7.21 2.05 13.06
12/15/2021 12:15:00 PM 4.4 39.92 0.051 7.22 2.06 13.04
12/15/2021 12:30:00 PM 4.46 40.028 0.051 7.21 2.09 13.02
12/15/2021 12:45:00 PM 4.51 40.118 0.051 7.22 2 12.99
12/15/2021 1:00:00 PM 4.57 40.226 0.051 7.22 2.06 12.97
12/15/2021 1:15:00 PM 4.63 40.334 0.051 7.23 2.01 12.96
12/15/2021 1:30:00 PM 4.69 40.442 0.051 7.23 2.01 12.95
12/15/2021 1:45:00 PM 4.74 40.532 0.051 7.22 2.1 12.91
12/15/2021 2:00:00 PM 4.79 40.622 0.051 7.23 2.05 12.86
12/15/2021 2:15:00 PM 4.84 40.712 0.051 7.23 2.04 12.84
12/15/2021 2:30:00 PM 4.89 40.802 0.051 7.22 2.02 12.81
12/15/2021 2:45:00 PM 4.94 40.892 0.051 7.22 2 12.78
12/15/2021 3:00:00 PM 4.99 40.982 0.051 7.22 2.03 12.77
12/15/2021 3:15:00 PM 5.04 41.072 0.051 7.22 2.05 12.75
12/15/2021 3:30:00 PM 5.08 41.144 0.051 7.21 2.12 12.69
12/15/2021 3:45:00 PM 5.12 41.216 0.051 7.19 2.01 12.62
12/15/2021 4:00:00 PM 5.15 41.27 0.051 7.18 2.04 12.55
12/15/2021 4:15:00 PM 5.18 41.324 0.051 7.15 2.04 12.48
12/15/2021 4:30:00 PM 5.21 41.378 0.051 7.15 2.06 12.42
12/15/2021 4:45:00 PM 5.24 41.432 0.051 7.12 2 12.36
12/15/2021 5:00:00 PM 5.26 41.468 0.051 7.11 2.16 12.31
12/15/2021 5:15:00 PM 5.29 41.522 0.051 7.1 2.04 12.27
12/15/2021 5:30:00 PM 5.32 41.576 0.052 7.09 2.11 12.23
12/15/2021 5:45:00 PM 5.34 41.612 0.052 7.08 2.15 12.21
12/15/2021 6:00:00 PM 5.37 41.666 0.052 7.08 2.16 12.17
12/15/2021 6:15:00 PM 5.4 41.72 0.052 7.08 2.28 12.15
12/15/2021 6:30:00 PM 5.43 41.774 0.052 7.07 2.14 12.13
12/15/2021 6:45:00 PM 5.45 41.81 0.052 7.06 2.16 12.11
12/15/2021 7:00:00 PM 5.48 41.864 0.052 7.07 2.22 12.09
12/15/2021 7:15:00 PM 5.49 41.882 0.052 7.06 2.25 12.08
12/15/2021 7:30:00 PM 5.52 41.936 0.052 7.06 2.32 12.08
12/15/2021 7:45:00 PM 5.54 41.972 0.052 7.07 2.31 12.07
12/15/2021 8:00:00 PM 5.57 42.026 0.052 7.06 2.39 12.06
12/15/2021 8:15:00 PM 5.59 42.062 0.052 7.07 2.25 12.05
12/15/2021 8:30:00 PM 5.61 42.098 0.052 7.05 2.25 12.05
12/15/2021 8:45:00 PM 5.63 42.134 0.052 7.05 2.27 12.05
12/15/2021 9:00:00 PM 5.65 42.17 0.052 7.04 2.31 12.04
12/15/2021 9:15:00 PM 5.68 42.224 0.052 7.05 2.34 12.03
12/15/2021 9:30:00 PM 5.7 42.26 0.052 7.06 2.4 12.02
12/15/2021 9:45:00 PM 5.72 42.296 0.052 7.06 2.18 12.02
12/15/2021 10:00:00 PM 5.74 42.332 0.053 7.05 2.29 12.01
12/15/2021 10:15:00 PM 5.76 42.368 0.053 7.05 2.19 12.01
12/15/2021 10:30:00 PM 5.78 42.404 0.052 7.05 2.32 12
12/15/2021 10:45:00 PM 5.8 42.44 0.052 7.05 2.3 12
12/15/2021 11:00:00 PM 5.82 42.476 0.052 7.05 2.18 11.99
12/15/2021 11:15:00 PM 5.84 42.512 0.052 7.05 2.25 11.98
12/15/2021 11:30:00 PM 5.85 42.53 0.052 7.05 2.26 11.97
12/15/2021 11:45:00 PM 5.87 42.566 0.052 7.05 2.32 11.97
12/16/2021 12:00:00 AM 5.88 42.584 0.052 7.06 2.36 11.96
12/16/2021 12:15:00 AM 5.9 42.62 0.052 7.05 2.24 11.95
12/16/2021 12:30:00 AM 5.91 42.638 0.052 7.05 2.27 11.95
12/16/2021 12:45:00 AM 5.93 42.674 0.052 7.05 2.19 11.94
12/16/2021 1:00:00 AM 5.93 42.674 0.052 7.05 2.34 11.93
12/16/2021 1:15:00 AM 5.94 42.692 0.052 7.05 2.27 11.92
12/16/2021 1:30:00 AM 5.95 42.71 0.052 7.05 2.21 11.92
12/16/2021 1:45:00 AM 5.97 42.746 0.052 7.04 2.37 11.91
12/16/2021 2:00:00 AM 5.98 42.764 0.052 7.04 2.25 11.91
12/16/2021 2:15:00 AM 5.99 42.782 0.051 7.05 4.15 11.9
12/16/2021 2:30:00 AM 5.99 42.782 0.052 7.07 2.36 11.89
12/16/2021 2:45:00 AM 6 42.8 0.052 7.04 2.22 11.88
12/16/2021 3:00:00 AM 6.01 42.818 0.052 7.03 2.3 11.88
12/16/2021 3:15:00 AM 6.01 42.818 0.052 7.05 2.41 11.88
12/16/2021 3:30:00 AM 6.01 42.818 0.052 7.04 2.33 11.87
12/16/2021 3:45:00 AM 6.01 42.818 0.052 7.04 2.4 11.86
12/16/2021 4:00:00 AM 6.01 42.818 0.052 7.04 2.3 11.87
12/16/2021 4:15:00 AM 6 42.8 0.052 7.04 2.25 11.87
12/16/2021 4:30:00 AM 5.99 42.782 0.05 7.05 4.12 11.87
12/16/2021 4:45:00 AM 5.98 42.764 0.052 7.04 2.3 11.87
12/16/2021 5:00:00 AM 5.97 42.746 0.052 7.05 2.34 11.87
12/16/2021 5:15:00 AM 5.95 42.71 0.052 7.03 2.31 11.88
12/16/2021 5:30:00 AM 5.93 42.674 0.052 7.03 2.27 11.88
12/16/2021 5:45:00 AM 5.9 42.62 0.052 7.03 2.29 11.88
12/16/2021 6:00:00 AM 5.87 42.566 0.052 7.03 2.22 11.89
12/16/2021 6:15:00 AM 5.85 42.53 0.052 7.04 2.41 11.9
12/16/2021 6:30:00 AM 5.81 42.458 0.052 7.04 2.23 11.91
12/16/2021 6:45:00 AM 5.78 42.404 0.052 7.04 2.28 11.92
12/16/2021 7:00:00 AM 5.75 42.35 0.052 7.04 2.27 11.92
12/16/2021 7:15:00 AM 5.73 42.314 0.052 7.04 2.27 11.93
12/16/2021 7:30:00 AM 5.7 42.26 0.053 7.03 2.28 11.94
12/16/2021 7:45:00 AM 5.67 42.206 0.053 7.03 2.24 11.96
12/16/2021 8:00:00 AM 5.65 42.17 0.052 7.05 2.25 12
12/16/2021 8:15:00 AM 5.63 42.134 0.052 7.05 2.18 12.05
12/16/2021 8:30:00 AM 5.62 42.116 0.052 7.07 2.18 12.13
12/16/2021 8:45:00 AM 5.61 42.098 0.052 7.1 2.2 12.2
12/16/2021 9:00:00 AM 5.6 42.08 0.052 7.12 2.18 12.26
12/16/2021 9:15:00 AM 5.6 42.08 0.052 7.13 2.08 12.3
12/16/2021 9:30:00 AM 5.61 42.098 0.052 7.16 2.18 12.36
12/16/2021 9:45:00 AM 5.64 42.152 0.052 7.17 2.16 12.41
12/16/2021 10:00:00 AM 5.67 42.206 0.052 7.2 2.1 12.45
12/16/2021 10:15:00 AM 5.71 42.278 0.052 7.22 2.04 12.47
12/16/2021 10:30:00 AM 5.77 42.386 0.052 7.22 1.97 12.5
12/16/2021 10:45:00 AM 5.82 42.476 0.052 7.26 2.03 12.51
12/16/2021 11:00:00 AM 5.88 42.584 0.052 7.26 2.09 12.5
12/16/2021 11:15:00 AM 5.95 42.71 0.052 7.27 2.06 12.49
12/16/2021 11:30:00 AM 6.04 42.872 0.052 7.31 2.05 12.46
12/16/2021 11:45:00 AM 6.11 42.998 0.052 7.3 1.98 12.44
12/16/2021 12:00:00 PM 6.16 43.088 0.052 7.32 2.07 12.41
12/16/2021 12:15:00 PM 6.26 43.268 0.052 7.33 2.09 12.4
12/16/2021 12:30:00 PM 6.35 43.43 0.052 7.34 1.99 12.37
12/16/2021 12:45:00 PM 6.45 43.61 0.052 7.34 1.94 12.32
12/16/2021 1:00:00 PM 6.55 43.79 0.052 7.35 2.06 12.3
12/16/2021 1:15:00 PM 6.66 43.988 0.049 7.36 3.86 12.25
12/16/2021 1:30:00 PM 6.74 44.132 0.052 7.34 2.16 12.17
12/16/2021 1:45:00 PM 6.81 44.258 0.052 7.31 1.96 12.1
12/16/2021 2:00:00 PM 6.86 44.348 0.053 7.31 1.99 12.04
12/16/2021 2:15:00 PM 6.92 44.456 0.053 7.28 1.93 11.98
12/16/2021 2:30:00 PM 6.96 44.528 0.052 7.27 1.91 11.95
12/16/2021 2:45:00 PM 7.01 44.618 0.052 7.26 2.01 11.91
12/16/2021 3:00:00 PM 7.05 44.69 0.052 7.25 2 11.88
12/16/2021 3:15:00 PM 7.12 44.816 0.052 7.23 2 11.85
12/16/2021 3:30:00 PM 7.17 44.906 0.052 7.23 2.17 11.8
12/16/2021 3:45:00 PM 7.22 44.996 0.052 7.21 1.97 11.73
12/16/2021 4:00:00 PM 7.28 45.104 0.052 7.21 2.03 11.66
12/16/2021 4:15:00 PM 7.33 45.194 0.052 7.18 2.03 11.59
12/16/2021 4:30:00 PM 7.37 45.266 0.052 7.18 1.97 11.53
12/16/2021 4:45:00 PM 7.42 45.356 0.052 7.17 2.07 11.47
12/16/2021 5:00:00 PM 7.48 45.464 0.05 7.15 4 11.43
12/16/2021 5:15:00 PM 7.54 45.572 0.053 7.14 2.11 11.39
12/16/2021 5:30:00 PM 7.61 45.698 0.05 7.14 3.98 11.36
12/16/2021 5:45:00 PM 7.67 45.806 0.053 7.12 2.37 11.34
12/16/2021 6:00:00 PM 7.73 45.914 0.053 7.12 2.17 11.32
12/16/2021 6:15:00 PM 7.77 45.986 0.053 7.11 2.36 11.31
12/16/2021 6:30:00 PM 7.82 46.076 0.053 7.1 2.82 11.29
12/16/2021 6:45:00 PM 7.87 46.166 0.053 7.12 2.3 11.27
12/16/2021 7:00:00 PM 7.92 46.256 0.053 7.11 2.23 11.25
12/16/2021 7:15:00 PM 7.97 46.346 0.053 7.11 2.4 11.23
12/16/2021 7:30:00 PM 8.01 46.418 0.053 7.1 2.27 11.21
12/16/2021 7:45:00 PM 8.05 46.49 0.05 7.11 4.3 11.19
12/16/2021 8:00:00 PM 8.09 46.562 0.053 7.1 2.31 11.17
12/16/2021 8:15:00 PM 8.13 46.634 0.05 7.1 4.37 11.16
12/16/2021 8:30:00 PM 8.18 46.724 0.053 7.11 2.25 11.13
12/16/2021 8:45:00 PM 8.24 46.832 0.053 7.09 2.31 11.12
12/16/2021 9:00:00 PM 8.29 46.922 0.053 7.1 2.4 11.11
12/16/2021 9:15:00 PM 8.33 46.994 0.05 7.1 4.19 11.09
12/16/2021 9:30:00 PM 8.37 47.066 0.052 7.11 4.44 11.09
12/16/2021 9:45:00 PM 8.39 47.102 0.052 7.12 4.25 11.08
12/16/2021 10:00:00 PM 8.39 47.102 0.053 7.12 2.27 11.07
12/16/2021 10:15:00 PM 8.39 47.102 0.053 7.1 2.33 11.07
12/16/2021 10:30:00 PM 8.36 47.048 0.05 7.11 4.05 11.07
12/16/2021 10:45:00 PM 8.35 47.03 0.053 7.1 2.23 11.08
12/16/2021 11:00:00 PM 8.33 46.994 0.05 7.11 3.94 11.07
12/16/2021 11:15:00 PM 8.29 46.922 0.053 7.1 2.28 11.08
12/16/2021 11:30:00 PM 8.26 46.868 0.053 7.1 2.34 11.09
12/16/2021 11:45:00 PM 8.22 46.796 0.053 7.1 2.2 11.09
12/17/2021 12:00:00 AM 8.18 46.724 0.053 7.1 2.45 11.1
12/17/2021 12:15:00 AM 8.14 46.652 0.053 7.1 2.3 11.12
12/17/2021 12:30:00 AM 8.09 46.562 0.053 7.1 2.47 11.13
12/17/2021 12:45:00 AM 8.04 46.472 0.053 7.09 2.35 11.15
12/17/2021 1:00:00 AM 7.98 46.364 0.052 7.11 4.17 11.17
12/17/2021 1:15:00 AM 7.92 46.256 0.053 7.09 2.41 11.2
12/17/2021 1:30:00 AM 7.86 46.148 0.053 7.09 2.33 11.23
12/17/2021 1:45:00 AM 7.79 46.022 0.053 7.1 2.3 11.26
12/17/2021 2:00:00 AM 7.71 45.878 0.053 7.1 2.38 11.28
12/17/2021 2:15:00 AM 7.63 45.734 0.053 7.1 2.23 11.3
12/17/2021 2:30:00 AM 7.55 45.59 0.053 7.1 2.3 11.33
12/17/2021 2:45:00 AM 7.49 45.482 0.053 7.1 2.35 11.34
12/17/2021 3:00:00 AM 7.42 45.356 0.053 7.1 2.31 11.35
12/17/2021 3:15:00 AM 7.35 45.23 0.053 7.1 2.55 11.38
12/17/2021 3:30:00 AM 7.28 45.104 0.053 7.09 2.4 11.41
12/17/2021 3:45:00 AM 7.2 44.96 0.053 7.1 2.29 11.43
12/17/2021 4:00:00 AM 7.13 44.834 0.053 7.1 2.4 11.44
12/17/2021 4:15:00 AM 7.06 44.708 0.053 7.1 2.47 11.47
12/17/2021 4:30:00 AM 6.98 44.564 0.053 7.09 2.32 11.48
12/17/2021 4:45:00 AM 6.91 44.438 0.051 7.1 4.14 11.53
12/17/2021 5:00:00 AM 6.84 44.312 0.054 7.11 2.28 11.55
12/17/2021 5:15:00 AM 6.77 44.186 0.054 7.08 2.4 11.57
12/17/2021 5:30:00 AM 6.69 44.042 0.054 7.09 2.33 11.6
12/17/2021 5:45:00 AM 6.62 43.916 0.054 7.09 2.34 11.64
12/17/2021 6:00:00 AM 6.55 43.79 0.054 7.09 2.3 11.67
12/17/2021 6:15:00 AM 6.49 43.682 0.054 7.08 2.22 11.69
12/17/2021 6:30:00 AM 6.41 43.538 0.054 7.1 2.27 11.71
12/17/2021 6:45:00 AM 6.34 43.412 0.054 7.09 2.28 11.73
12/17/2021 7:00:00 AM 6.26 43.268 0.054 7.09 2.25 11.75
12/17/2021 7:15:00 AM 6.19 43.142 0.054 7.1 2.16 11.77
12/17/2021 7:30:00 AM 6.12 43.016 0.054 7.09 2.53 11.78
12/17/2021 7:45:00 AM 6.05 42.89 0.054 7.09 2.28 11.82
12/17/2021 8:00:00 AM 5.98 42.764 0.054 7.1 2.19 11.87
12/17/2021 8:15:00 AM 5.91 42.638 0.054 7.11 2.22 11.95
12/17/2021 8:30:00 AM 5.84 42.512 0.054 7.12 2.24 12.03
12/17/2021 8:45:00 AM 5.78 42.404 0.054 7.14 2.07 12.1
12/17/2021 9:00:00 AM 5.73 42.314 0.053 7.15 2.16 12.19
12/17/2021 9:15:00 AM 5.69 42.242 0.053 7.17 2.11 12.27
12/17/2021 9:30:00 AM 5.67 42.206 0.053 7.2 2.15 12.35
12/17/2021 9:45:00 AM 5.66 42.188 0.053 7.22 2.17 12.42
12/17/2021 10:00:00 AM 5.65 42.17 0.053 7.25 2.04 12.48
12/17/2021 10:15:00 AM 5.64 42.152 0.053 7.25 2.15 12.53
12/17/2021 10:30:00 AM 5.64 42.152 0.053 7.28 2.01 12.57
12/17/2021 10:45:00 AM 5.65 42.17 0.053 7.29 2.1 12.59
12/17/2021 11:00:00 AM 5.68 42.224 0.053 7.3 2 12.62
12/17/2021 11:15:00 AM 5.71 42.278 0.053 7.32 2.1 12.64
12/17/2021 11:30:00 AM 5.77 42.386 0.053 7.33 1.97 12.64
12/17/2021 11:45:00 AM 5.85 42.53 0.053 7.35 1.97 12.64
12/17/2021 12:00:00 PM 5.92 42.656 0.053 7.36 2.03 12.64
12/17/2021 12:15:00 PM 5.98 42.764 0.053 7.38 1.93 12.63
12/17/2021 12:30:00 PM 6.04 42.872 0.053 7.38 1.9 12.6
12/17/2021 12:45:00 PM 6.1 42.98 0.053 7.39 1.99 12.58
12/17/2021 1:00:00 PM 6.14 43.052 0.053 7.4 2 12.57
12/17/2021 1:15:00 PM 6.18 43.124 0.053 7.41 2.06 12.56
12/17/2021 1:30:00 PM 6.22 43.196 0.053 7.43 1.92 12.56
12/17/2021 1:45:00 PM 6.24 43.232 0.053 7.44 2.11 12.55
12/17/2021 2:00:00 PM 6.25 43.25 0.053 7.44 1.94 12.55
12/17/2021 2:15:00 PM 6.27 43.286 0.053 7.44 1.94 12.55
12/17/2021 2:30:00 PM 6.27 43.286 0.054 7.45 1.93 12.53
12/17/2021 2:45:00 PM 6.29 43.322 0.053 7.45 1.98 12.51
12/17/2021 3:00:00 PM 6.31 43.358 0.053 7.46 1.9 12.48
12/17/2021 3:15:00 PM 6.34 43.412 0.053 7.45 1.89 12.44
12/17/2021 3:30:00 PM 6.37 43.466 0.053 7.43 1.94 12.4
12/17/2021 3:45:00 PM 6.4 43.52 0.053 7.42 1.95 12.36
12/17/2021 4:00:00 PM 6.4 43.52 0.053 7.4 1.84 12.32
12/17/2021 4:15:00 PM 6.38 43.484 0.053 7.38 1.92 12.25
12/17/2021 4:30:00 PM 6.35 43.43 0.053 7.34 1.81 12.18
12/17/2021 4:45:00 PM 6.3 43.34 0.053 7.3 2.15 12.1
12/17/2021 5:00:00 PM 6.24 43.232 0.054 7.26 1.88 12.04
12/17/2021 5:15:00 PM 6.18 43.124 0.054 7.23 1.94 12
12/17/2021 5:30:00 PM 6.12 43.016 0.054 7.22 1.96 11.97
12/17/2021 5:45:00 PM 6.06 42.908 0.054 7.19 2.04 11.96
12/17/2021 6:00:00 PM 6.01 42.818 0.054 7.2 2.04 11.96
12/17/2021 6:15:00 PM 5.95 42.71 0.054 7.17 1.96 11.97
12/17/2021 6:30:00 PM 5.9 42.62 0.054 7.15 1.99 11.97
12/17/2021 6:45:00 PM 5.85 42.53 0.054 7.14 2.01 11.98
12/17/2021 7:00:00 PM 5.79 42.422 0.055 7.13 2.14 11.98
12/17/2021 7:15:00 PM 5.74 42.332 0.055 7.13 2.02 11.99
12/17/2021 7:30:00 PM 5.7 42.26 0.055 7.12 1.94 12
12/17/2021 7:45:00 PM 5.65 42.17 0.055 7.12 2.06 12.01
12/17/2021 8:00:00 PM 5.59 42.062 0.055 7.11 2.12 12.02
12/17/2021 8:15:00 PM 5.55 41.99 0.055 7.11 2.08 12.03
12/17/2021 8:30:00 PM 5.5 41.9 0.055 7.11 2.13 12.03
12/17/2021 8:45:00 PM 5.46 41.828 0.055 7.1 2.06 12.04
12/17/2021 9:00:00 PM 5.41 41.738 0.055 7.11 2.1 12.06
12/17/2021 9:15:00 PM 5.38 41.684 0.055 7.11 2.14 12.07
12/17/2021 9:30:00 PM 5.34 41.612 0.055 7.1 2.02 12.08
12/17/2021 9:45:00 PM 5.31 41.558 0.055 7.13 2.01 12.09
12/17/2021 10:00:00 PM 5.28 41.504 0.055 7.1 2.05 12.1
12/17/2021 10:15:00 PM 5.25 41.45 0.055 7.1 2.1 12.11
12/17/2021 10:30:00 PM 5.22 41.396 0.055 7.1 2.03 12.12
12/17/2021 10:45:00 PM 5.19 41.342 0.056 7.11 2.21 12.13
12/17/2021 11:00:00 PM 5.17 41.306 0.056 7.11 1.99 12.13
12/17/2021 11:15:00 PM 5.14 41.252 0.055 7.11 1.98 12.14
12/17/2021 11:30:00 PM 5.12 41.216 0.055 7.1 1.97 12.15
12/17/2021 11:45:00 PM 5.1 41.18 0.055 7.11 2.08 12.16
12/18/2021 12:00:00 AM 5.08 41.144 0.055 7.11 1.98 12.17
12/18/2021 12:15:00 AM 5.06 41.108 0.055 7.1 1.97 12.18
12/18/2021 12:30:00 AM 5.04 41.072 0.055 7.11 1.94 12.18
12/18/2021 12:45:00 AM 5.03 41.054 0.055 7.1 1.98 12.19
12/18/2021 1:00:00 AM 5.01 41.018 0.055 7.1 2.04 12.2
12/18/2021 1:15:00 AM 4.99 40.982 0.055 7.1 1.98 12.21
12/18/2021 1:30:00 AM 4.97 40.946 0.055 7.11 2.02 12.21
12/18/2021 1:45:00 AM 4.96 40.928 0.055 7.1 2.15 12.22
12/18/2021 2:00:00 AM 4.95 40.91 0.055 7.1 2.03 12.22
12/18/2021 2:15:00 AM 4.94 40.892 0.055 7.11 1.93 12.23
12/18/2021 2:30:00 AM 4.93 40.874 0.055 7.1 2.01 12.23
12/18/2021 2:45:00 AM 4.92 40.856 0.055 7.11 2.01 12.24
12/18/2021 3:00:00 AM 4.91 40.838 0.055 7.11 1.95 12.24
12/18/2021 3:15:00 AM 4.89 40.802 0.055 7.1 2.16 12.24
12/18/2021 3:30:00 AM 4.89 40.802 0.055 7.1 2.02 12.25
12/18/2021 3:45:00 AM 4.88 40.784 0.055 7.11 2.14 12.25
12/18/2021 4:00:00 AM 4.87 40.766 0.055 7.1 1.96 12.25
12/18/2021 4:15:00 AM 4.86 40.748 0.056 7.1 1.95 12.26
12/18/2021 4:30:00 AM 4.85 40.73 0.057 7.1 1.96 12.26
12/18/2021 4:45:00 AM 4.84 40.712 0.057 7.1 2.03 12.26
12/18/2021 5:00:00 AM 4.83 40.694 0.056 7.11 2.05 12.26
12/18/2021 5:15:00 AM 4.83 40.694 0.056 7.11 1.95 12.26
12/18/2021 5:30:00 AM 4.82 40.676 0.056 7.11 1.95 12.26
12/18/2021 5:45:00 AM 4.82 40.676 0.055 7.1 1.93 12.26
12/18/2021 6:00:00 AM 4.81 40.658 0.055 7.11 1.92 12.26
12/18/2021 6:15:00 AM 4.81 40.658 0.054 7.13 3.7 12.26
12/18/2021 6:30:00 AM 4.8 40.64 0.055 7.13 1.87 12.26
12/18/2021 6:45:00 AM 4.79 40.622 0.055 7.12 1.91 12.26
12/18/2021 7:00:00 AM 4.79 40.622 0.055 7.11 1.89 12.27
12/18/2021 7:15:00 AM 4.78 40.604 0.055 7.11 1.94 12.27
12/18/2021 7:30:00 AM 4.78 40.604 0.055 7.12 1.93 12.27
12/18/2021 7:45:00 AM 4.77 40.586 0.055 7.12 1.93 12.27
12/18/2021 8:00:00 AM 4.76 40.568 0.055 7.14 1.99 12.29
12/18/2021 8:15:00 AM 4.75 40.55 0.054 7.15 3.65 12.32
12/18/2021 8:30:00 AM 4.75 40.55 0.055 7.15 1.87 12.35
12/18/2021 8:45:00 AM 4.75 40.55 0.055 7.17 2.06 12.39
12/18/2021 9:00:00 AM 4.75 40.55 0.055 7.18 1.97 12.41
12/18/2021 9:15:00 AM 4.76 40.568 0.055 7.18 1.91 12.45
12/18/2021 9:30:00 AM 4.76 40.568 0.055 7.21 2 12.48
12/18/2021 9:45:00 AM 4.77 40.586 0.055 7.24 2.06 12.52
12/18/2021 10:00:00 AM 4.78 40.604 0.055 7.22 2.01 12.56
12/18/2021 10:15:00 AM 4.79 40.622 0.054 7.24 2.06 12.58
12/18/2021 10:30:00 AM 4.8 40.64 0.054 7.24 2.01 12.58
12/18/2021 10:45:00 AM 4.82 40.676 0.054 7.26 2.06 12.63
12/18/2021 11:00:00 AM 4.85 40.73 0.054 7.29 2.15 12.7
12/18/2021 11:15:00 AM 4.87 40.766 0.054 7.31 2.11 12.72
12/18/2021 11:30:00 AM 4.89 40.802 0.054 7.31 2.07 12.72
12/18/2021 11:45:00 AM 4.91 40.838 0.054 7.32 2.22 12.71
12/18/2021 12:00:00 PM 4.92 40.856 0.054 7.31 2.21 12.67
12/18/2021 12:15:00 PM 4.94 40.892 0.054 7.3 2.38 12.64
12/18/2021 12:30:00 PM 4.96 40.928 0.054 7.31 2.42 12.64
12/18/2021 12:45:00 PM 4.99 40.982 0.054 7.31 2.52 12.67
12/18/2021 1:00:00 PM 5.01 41.018 0.054 7.32 2.65 12.67
12/18/2021 1:15:00 PM 5.02 41.036 0.054 7.34 2.71 12.65
12/18/2021 1:30:00 PM 5.03 41.054 0.054 7.32 2.83 12.63
12/18/2021 1:45:00 PM 5.05 41.09 0.054 7.32 2.91 12.59
12/18/2021 2:00:00 PM 5.06 41.108 0.054 7.31 3.12 12.58
12/18/2021 2:15:00 PM 5.09 41.162 0.054 7.32 2.98 12.58
12/18/2021 2:30:00 PM 5.11 41.198 0.054 7.32 3.1 12.57
12/18/2021 2:45:00 PM 5.13 41.234 0.054 7.34 3.38 12.55
12/18/2021 3:00:00 PM 5.15 41.27 0.054 7.31 3.82 12.5
12/18/2021 3:15:00 PM 5.16 41.288 0.054 7.29 3.74 12.44
12/18/2021 3:30:00 PM 5.17 41.306 0.054 7.29 3.74 12.41
12/18/2021 3:45:00 PM 5.19 41.342 0.054 7.27 4 12.35
12/18/2021 4:00:00 PM 5.2 41.36 0.054 7.26 4.23 12.3
12/18/2021 4:15:00 PM 5.21 41.378 0.054 7.24 4.3 12.26
12/18/2021 4:30:00 PM 5.22 41.396 0.055 7.23 4.35 12.21
12/18/2021 4:45:00 PM 5.23 41.414 0.055 7.21 4.52 12.16
12/18/2021 5:00:00 PM 5.24 41.432 0.055 7.2 4.34 12.12
12/18/2021 5:15:00 PM 5.24 41.432 0.055 7.19 4.84 12.09
12/18/2021 5:30:00 PM 5.25 41.45 0.055 7.18 4.94 12.07
12/18/2021 5:45:00 PM 5.26 41.468 0.055 7.17 4.92 12.05
12/18/2021 6:00:00 PM 5.27 41.486 0.055 7.17 5.65 12.04
12/18/2021 6:15:00 PM 5.28 41.504 0.055 7.16 5.82 12.02
12/18/2021 6:30:00 PM 5.29 41.522 0.055 7.16 5.88 12.01
12/18/2021 6:45:00 PM 5.3 41.54 0.055 7.15 6.4 12.01
12/18/2021 7:00:00 PM 5.31 41.558 0.055 7.14 5.87 12
12/18/2021 7:15:00 PM 5.32 41.576 0.056 7.14 6.19 11.99
12/18/2021 7:30:00 PM 5.33 41.594 0.056 7.14 5.67 11.98
12/18/2021 7:45:00 PM 5.34 41.612 0.056 7.14 5.82 11.98
12/18/2021 8:00:00 PM 5.35 41.63 0.056 7.13 5.91 11.97
12/18/2021 8:15:00 PM 5.36 41.648 0.056 7.14 5.67 11.96
12/18/2021 8:30:00 PM 5.37 41.666 0.056 7.13 6.04 11.96
12/18/2021 8:45:00 PM 5.38 41.684 0.056 7.13 5.64 11.96
12/18/2021 9:00:00 PM 5.39 41.702 0.056 7.13 5.54 11.95
12/18/2021 9:15:00 PM 5.4 41.72 0.056 7.14 5.55 11.95
12/18/2021 9:30:00 PM 5.41 41.738 0.056 7.13 5.27 11.95
12/18/2021 9:45:00 PM 5.41 41.738 0.056 7.13 4.96 11.96
12/18/2021 10:00:00 PM 5.42 41.756 0.056 7.13 5.12 11.95
12/18/2021 10:15:00 PM 5.42 41.756 0.056 7.13 4.87 11.95
12/18/2021 10:30:00 PM 5.42 41.756 0.056 7.13 4.99 11.95
12/18/2021 10:45:00 PM 5.42 41.756 0.056 7.13 4.69 11.96
12/18/2021 11:00:00 PM 5.42 41.756 0.057 7.13 5.02 11.96
12/18/2021 11:15:00 PM 5.41 41.738 0.057 7.13 4.6 11.96
12/18/2021 11:30:00 PM 5.41 41.738 0.057 7.14 4.53 11.97
12/18/2021 11:45:00 PM 5.4 41.72 0.057 7.13 4.74 11.98
12/19/2021 12:00:00 AM 5.38 41.684 0.057 7.13 4.54 11.99
12/19/2021 12:15:00 AM 5.37 41.666 0.057 7.14 4.23 12
12/19/2021 12:30:00 AM 5.36 41.648 0.057 7.14 4.51 12
12/19/2021 12:45:00 AM 5.34 41.612 0.057 7.14 4.27 12.02
12/19/2021 1:00:00 AM 5.32 41.576 0.057 7.14 4.21 12.03
12/19/2021 1:15:00 AM 5.3 41.54 0.057 7.14 4.26 12.04
12/19/2021 1:30:00 AM 5.28 41.504 0.057 7.13 4.09 12.06
12/19/2021 1:45:00 AM 5.26 41.468 0.057 7.14 3.89 12.07
12/19/2021 2:00:00 AM 5.23 41.414 0.057 7.14 4.23 12.08
12/19/2021 2:15:00 AM 5.21 41.378 0.057 7.14 4.03 12.09
12/19/2021 2:30:00 AM 5.18 41.324 0.057 7.14 3.9 12.1
12/19/2021 2:45:00 AM 5.15 41.27 0.057 7.14 3.96 12.11
12/19/2021 3:00:00 AM 5.13 41.234 0.057 7.14 3.83 12.12
12/19/2021 3:15:00 AM 5.1 41.18 0.057 7.13 3.87 12.13
12/19/2021 3:30:00 AM 5.07 41.126 0.057 7.13 3.86 12.14
12/19/2021 3:45:00 AM 5.04 41.072 0.057 7.14 3.6 12.16
12/19/2021 4:00:00 AM 5.02 41.036 0.057 7.14 3.53 12.17
12/19/2021 4:15:00 AM 4.99 40.982 0.057 7.14 3.44 12.18
12/19/2021 4:30:00 AM 4.97 40.946 0.057 7.14 3.57 12.18
12/19/2021 4:45:00 AM 4.93 40.874 0.057 7.13 3.54 12.19
12/19/2021 5:00:00 AM 4.9 40.82 0.057 7.14 3.54 12.2
12/19/2021 5:15:00 AM 4.87 40.766 0.057 7.14 3.58 12.2
12/19/2021 5:30:00 AM 4.83 40.694 0.057 7.13 3.48 12.21
12/19/2021 5:45:00 AM 4.8 40.64 0.057 7.14 3.96 12.22
12/19/2021 6:00:00 AM 4.77 40.586 0.057 7.13 3.16 12.23
12/19/2021 6:15:00 AM 4.74 40.532 0.057 7.14 3.28 12.24
12/19/2021 6:30:00 AM 4.72 40.496 0.057 7.13 3.28 12.26
12/19/2021 6:45:00 AM 4.68 40.424 0.057 7.14 3.18 12.28
12/19/2021 7:00:00 AM 4.65 40.37 0.057 7.13 3.23 12.29
12/19/2021 7:15:00 AM 4.62 40.316 0.057 7.15 3.15 12.3
12/19/2021 7:30:00 AM 4.58 40.244 0.057 7.14 3.15 12.32
12/19/2021 7:45:00 AM 4.54 40.172 0.057 7.14 2.97 12.34
12/19/2021 8:00:00 AM 4.5 40.1 0.057 7.13 3.07 12.36
12/19/2021 8:15:00 AM 4.47 40.046 0.057 7.14 2.96 12.38
12/19/2021 8:30:00 AM 4.43 39.974 0.057 7.15 2.95 12.42
12/19/2021 8:45:00 AM 4.4 39.92 0.057 7.16 3.05 12.47
12/19/2021 9:00:00 AM 4.37 39.866 0.057 7.18 2.93 12.54
12/19/2021 9:15:00 AM 4.34 39.812 0.057 7.19 2.74 12.63
12/19/2021 9:30:00 AM 4.32 39.776 0.057 7.21 3.02 12.7
12/19/2021 9:45:00 AM 4.31 39.758 0.057 7.22 2.86 12.79
12/19/2021 10:00:00 AM 4.32 39.776 0.057 7.25 2.78 12.86
12/19/2021 10:15:00 AM 4.33 39.794 0.056 7.28 2.73 12.93
12/19/2021 10:30:00 AM 4.35 39.83 0.056 7.3 2.85 12.98
12/19/2021 10:45:00 AM 4.38 39.884 0.056 7.33 2.8 13.02
12/19/2021 11:00:00 AM 4.4 39.92 0.056 7.34 2.63 13.04
12/19/2021 11:15:00 AM 4.48 40.064 0.056 7.36 2.77 13.07
12/19/2021 11:30:00 AM 4.47 40.046 0.056 7.37 2.59 13.07
12/19/2021 11:45:00 AM 4.52 40.136 0.057 7.38 2.51 13.08
12/19/2021 12:00:00 PM 4.52 40.136 0.056 7.4 2.56 13.08
12/19/2021 12:15:00 PM 4.57 40.226 0.056 7.41 2.58 13.09
12/19/2021 12:30:00 PM 4.59 40.262 0.056 7.42 2.39 13.08
12/19/2021 12:45:00 PM 4.58 40.244 0.056 7.43 2.49 13.07
12/19/2021 1:00:00 PM 4.61 40.298 0.056 7.43 2.46 13.08
12/19/2021 1:15:00 PM 4.71 40.478 0.056 7.46 2.34 13.06
12/19/2021 1:30:00 PM 4.74 40.532 0.056 7.44 2.36 13.03
12/19/2021 1:45:00 PM 4.72 40.496 0.056 7.43 2.4 13.01
12/19/2021 2:00:00 PM 4.78 40.604 0.056 7.43 2.34 13
12/19/2021 2:15:00 PM 4.78 40.604 0.056 7.44 2.33 12.99
12/19/2021 2:30:00 PM 4.8 40.64 0.056 7.45 2.38 12.97
12/19/2021 2:45:00 PM 4.83 40.694 0.056 7.45 2.46 12.95
12/19/2021 3:00:00 PM 4.81 40.658 0.056 7.44 2.33 12.94
12/19/2021 3:15:00 PM 4.74 40.532 0.056 7.44 2.23 12.95
12/19/2021 3:30:00 PM 4.66 40.388 0.056 7.42 2.49 12.94
12/19/2021 3:45:00 PM 4.6 40.28 0.056 7.4 2.36 12.91
12/19/2021 4:00:00 PM 4.55 40.19 0.056 7.38 2.37 12.88
12/19/2021 4:15:00 PM 4.48 40.064 0.056 7.36 2.22 12.84
12/19/2021 4:30:00 PM 4.41 39.938 0.057 7.33 2.36 12.8
12/19/2021 4:45:00 PM 4.34 39.812 0.057 7.31 2.21 12.76
12/19/2021 5:00:00 PM 4.28 39.704 0.057 7.28 2.32 12.71
12/19/2021 5:15:00 PM 4.24 39.632 0.057 7.26 2.28 12.68
12/19/2021 5:30:00 PM 4.21 39.578 0.057 7.23 2.25 12.65
12/19/2021 5:45:00 PM 4.16 39.488 0.057 7.22 2.26 12.63
12/19/2021 6:00:00 PM 4.13 39.434 0.057 7.21 2.24 12.62
12/19/2021 6:15:00 PM 4.08 39.344 0.057 7.2 2.42 12.61
12/19/2021 6:30:00 PM 4.04 39.272 0.057 7.2 2.26 12.62
12/19/2021 6:45:00 PM 3.99 39.182 0.057 7.19 2.26 12.62
12/19/2021 7:00:00 PM 3.95 39.11 0.057 7.19 2.27 12.63
12/19/2021 7:15:00 PM 3.89 39.002 0.057 7.18 2.25 12.64
12/19/2021 7:30:00 PM 3.84 38.912 0.057 7.17 2.34 12.64
12/19/2021 7:45:00 PM 3.79 38.822 0.057 7.17 2.34 12.65
12/19/2021 8:00:00 PM 3.74 38.732 0.057 7.17 2.36 12.67
12/19/2021 8:15:00 PM 3.7 38.66 0.057 7.17 2.24 12.67
12/19/2021 8:30:00 PM 3.64 38.552 0.057 7.16 2.42 12.69
12/19/2021 8:45:00 PM 3.57 38.426 0.057 7.16 2.22 12.7
12/19/2021 9:00:00 PM 3.51 38.318 0.057 7.16 2.18 12.73
12/19/2021 9:15:00 PM 3.45 38.21 0.057 7.2 2.31 12.75
12/19/2021 9:30:00 PM 3.38 38.084 0.057 7.15 2.3 12.78
12/19/2021 9:45:00 PM 3.33 37.994 0.057 7.15 2.21 12.81
12/19/2021 10:00:00 PM 3.27 37.886 0.057 7.15 2.19 12.83
12/19/2021 10:15:00 PM 3.21 37.778 0.057 7.14 2.19 12.85
12/19/2021 10:30:00 PM 3.15 37.67 0.057 7.14 2.3 12.88
12/19/2021 10:45:00 PM 3.09 37.562 0.057 7.14 2.18 12.91
12/19/2021 11:00:00 PM 3.03 37.454 0.057 7.15 2.17 12.93
12/19/2021 11:15:00 PM 2.97 37.346 0.057 7.13 2.17 12.95
12/19/2021 11:30:00 PM 2.91 37.238 0.057 7.14 2.13 12.98
12/19/2021 11:45:00 PM 2.85 37.13 0.057 7.14 2.13 13.01
12/20/2021 12:00:00 AM 2.8 37.04 0.057 7.15 2.01 13.03
12/20/2021 12:15:00 AM 2.74 36.932 0.057 7.13 2.14 13.05
12/20/2021 12:30:00 AM 2.68 36.824 0.057 7.14 2.17 13.07
12/20/2021 12:45:00 AM 2.62 36.716 0.057 7.13 2.53 13.09
12/20/2021 1:00:00 AM 2.57 36.626 0.057 7.13 2.21 13.11
12/20/2021 1:15:00 AM 2.51 36.518 0.057 7.13 2.21 13.11
12/20/2021 1:30:00 AM 2.46 36.428 0.057 7.13 2.19 13.13
12/20/2021 1:45:00 AM 2.4 36.32 0.057 7.13 2.22 13.14
12/20/2021 2:00:00 AM 2.34 36.212 0.057 7.13 2.24 13.16
12/20/2021 2:15:00 AM 2.29 36.122 0.057 7.13 2.14 13.18
12/20/2021 2:30:00 AM 2.24 36.032 0.057 7.13 2.11 13.19
12/20/2021 2:45:00 AM 2.18 35.924 0.057 7.13 2.18 13.22
12/20/2021 3:00:00 AM 2.13 35.834 0.057 7.15 2.1 13.24
12/20/2021 3:15:00 AM 2.07 35.726 0.057 7.12 2.23 13.27
12/20/2021 3:30:00 AM 2.02 35.636 0.057 7.13 2.08 13.29
12/20/2021 3:45:00 AM 1.98 35.564 0.057 7.13 1.98 13.32
12/20/2021 4:00:00 AM 1.94 35.492 0.057 7.13 2.18 13.34
12/20/2021 4:15:00 AM 1.88 35.384 0.057 7.13 2.04 13.37
12/20/2021 4:30:00 AM 1.84 35.312 0.057 7.12 1.98 13.39
12/20/2021 4:45:00 AM 1.78 35.204 0.057 7.13 2.1 13.41
12/20/2021 5:00:00 AM 1.74 35.132 0.057 7.12 2.1 13.44
12/20/2021 5:15:00 AM 1.69 35.042 0.057 7.12 2.17 13.46
12/20/2021 5:30:00 AM 1.64 34.952 0.057 7.15 2.05 13.48
12/20/2021 5:45:00 AM 1.61 34.898 0.057 7.12 2.14 13.5
12/20/2021 6:00:00 AM 1.57 34.826 0.057 7.11 2.07 13.51
12/20/2021 6:15:00 AM 1.52 34.736 0.057 7.09 1.95 13.54
12/20/2021 6:30:00 AM 1.48 34.664 0.057 7.09 2.04 13.54
12/20/2021 6:45:00 AM 1.44 34.592 0.057 7.1 2.1 13.56
12/20/2021 7:00:00 AM 1.4 34.52 0.057 7.1 1.97 13.57
12/20/2021 7:15:00 AM 1.38 34.484 0.057 7.11 2 13.57
12/20/2021 7:30:00 AM 1.36 34.448 0.057 7.1 2.02 13.59
12/20/2021 7:45:00 AM 1.34 34.412 0.057 7.12 2.15 13.6
12/20/2021 8:00:00 AM 1.33 34.394 0.057 7.11 2.1 13.64
12/20/2021 8:15:00 AM 1.33 34.394 0.056 7.12 1.94 13.68
12/20/2021 8:30:00 AM 1.33 34.394 0.056 7.13 1.95 13.73
12/20/2021 8:45:00 AM 1.34 34.412 0.056 7.13 2.03 13.79
12/20/2021 9:00:00 AM 1.36 34.448 0.056 6.96 1.95 13.84
12/20/2021 9:15:00 AM 1.38 34.484 0.056 7 1.94 13.89
12/20/2021 9:30:00 AM 1.41 34.538 0.056 7.03 1.89 13.93
12/20/2021 9:45:00 AM 1.45 34.61 0.056 7.09 1.88 13.97
12/20/2021 10:00:00 AM 1.49 34.682 0.056 7.15 1.95 13.99
12/20/2021 10:15:00 AM 1.54 34.772 0.056 7.2 1.98 14
12/20/2021 10:30:00 AM 1.61 34.898 0.056 7.22 1.9 14
12/20/2021 10:45:00 AM 1.68 35.024 0.055 7.24 2.12 13.99
12/20/2021 11:00:00 AM 1.74 35.132 0.055 7.26 2.01 13.98
12/20/2021 11:15:00 AM 1.81 35.258 0.055 7.28 1.87 13.98
12/20/2021 11:30:00 AM 1.89 35.402 0.055 7.28 1.83 13.97
12/20/2021 11:45:00 AM 1.99 35.582 0.055 7.3 1.86 13.94
12/20/2021 12:00:00 PM 2.1 35.78 0.055 7.31 1.96 13.92
12/20/2021 12:15:00 PM 2.21 35.978 0.055 7.31 1.85 13.89
12/20/2021 12:30:00 PM 2.31 36.158 0.055 7.32 1.78 13.85
12/20/2021 12:45:00 PM 2.42 36.356 0.055 7.32 1.76 13.82
12/20/2021 1:00:00 PM 2.54 36.572 0.055 7.33 1.84 13.78
12/20/2021 1:15:00 PM 2.62 36.716 0.055 7.33 1.82 13.74
12/20/2021 1:30:00 PM 2.7 36.86 0.055 7.33 1.77 13.71
12/20/2021 1:45:00 PM 2.76 36.968 0.055 7.33 1.72 13.67
12/20/2021 2:00:00 PM 2.81 37.058 0.055 7.33 1.84 13.63
12/20/2021 2:15:00 PM 2.84 37.112 0.055 7.33 1.73 13.59
12/20/2021 2:30:00 PM 2.85 37.13 0.055 7.33 1.74 13.55
12/20/2021 2:45:00 PM 2.87 37.166 0.055 7.34 1.83 13.5
12/20/2021 3:00:00 PM 2.91 37.238 0.055 7.33 1.75 13.46
12/20/2021 3:15:00 PM 2.94 37.292 0.055 7.33 2 13.41
12/20/2021 3:30:00 PM 2.96 37.328 0.055 7.32 1.76 13.35
12/20/2021 3:45:00 PM 2.99 37.382 0.055 7.3 1.73 13.3
12/20/2021 4:00:00 PM 3.01 37.418 0.055 7.3 1.77 13.25
12/20/2021 4:15:00 PM 3 37.4 0.055 7.28 1.76 13.21
12/20/2021 4:30:00 PM 2.99 37.382 0.055 7.27 1.77 13.17
12/20/2021 4:45:00 PM 2.96 37.328 0.055 7.25 1.82 13.13
12/20/2021 5:00:00 PM 2.93 37.274 0.055 7.23 2.16 13.09
12/20/2021 5:15:00 PM 2.88 37.184 0.055 7.21 1.7 13.07
12/20/2021 5:30:00 PM 2.82 37.076 0.055 7.2 1.78 13.06
12/20/2021 5:45:00 PM 2.76 36.968 0.055 7.19 1.86 13.06
12/20/2021 6:00:00 PM 2.7 36.86 0.055 7.19 1.8 13.06
12/20/2021 6:15:00 PM 2.65 36.77 0.055 7.17 1.87 13.07
12/20/2021 6:30:00 PM 2.6 36.68 0.055 7.16 1.81 13.08
12/20/2021 6:45:00 PM 2.56 36.608 0.055 7.16 1.82 13.08
12/20/2021 7:00:00 PM 2.52 36.536 0.055 7.16 1.83 13.08
12/20/2021 7:15:00 PM 2.49 36.482 0.055 7.14 1.86 13.09
12/20/2021 7:30:00 PM 2.46 36.428 0.055 7.15 1.96 13.1
12/20/2021 7:45:00 PM 2.43 36.374 0.055 7.14 1.87 13.11
12/20/2021 8:00:00 PM 2.4 36.32 0.055 7.13 1.85 13.12
12/20/2021 8:15:00 PM 2.38 36.284 0.055 7.13 1.95 13.13
12/20/2021 8:30:00 PM 2.35 36.23 0.055 7.13 1.89 13.13
12/20/2021 8:45:00 PM 2.32 36.176 0.055 7.13 1.89 13.14
12/20/2021 9:00:00 PM 2.29 36.122 0.055 7.12 1.97 13.15
12/20/2021 9:15:00 PM 2.26 36.068 0.055 7.14 1.92 13.17
12/20/2021 9:30:00 PM 2.23 36.014 0.055 7.12 1.96 13.18
12/20/2021 9:45:00 PM 2.2 35.96 0.055 7.12 1.87 13.19
12/20/2021 10:00:00 PM 2.18 35.924 0.055 7.12 2.24 13.19
12/20/2021 10:15:00 PM 2.15 35.87 0.055 7.12 1.77 13.21
12/20/2021 10:30:00 PM 2.12 35.816 0.056 7.11 1.85 13.21
12/20/2021 10:45:00 PM 2.1 35.78 0.056 7.11 1.9 13.22
12/20/2021 11:00:00 PM 2.08 35.744 0.056 7.12 1.96 13.22
12/20/2021 11:15:00 PM 2.04 35.672 0.056 7.11 1.87 13.23
12/20/2021 11:30:00 PM 2.01 35.618 0.055 7.11 1.93 13.24
12/20/2021 11:45:00 PM 1.99 35.582 0.055 7.11 1.9 13.24
12/21/2021 12:00:00 AM 1.96 35.528 0.055 7.11 1.89 13.25
12/21/2021 12:15:00 AM 1.93 35.474 0.055 7.13 1.93 13.25
12/21/2021 12:30:00 AM 1.9 35.42 0.055 7.11 1.93 13.27
12/21/2021 12:45:00 AM 1.87 35.366 0.055 7.11 1.82 13.28
12/21/2021 1:00:00 AM 1.84 35.312 0.055 7.11 1.88 13.28
12/21/2021 1:15:00 AM 1.81 35.258 0.055 7.12 1.89 13.29
12/21/2021 1:30:00 AM 1.78 35.204 0.055 7.1 1.85 13.29
12/21/2021 1:45:00 AM 1.75 35.15 0.055 7.11 1.97 13.3
12/21/2021 2:00:00 AM 1.72 35.096 0.055 7.11 1.9 13.31
12/21/2021 2:15:00 AM 1.69 35.042 0.055 7.11 1.89 13.32
12/21/2021 2:30:00 AM 1.66 34.988 0.055 7.11 1.93 13.33
12/21/2021 2:45:00 AM 1.63 34.934 0.055 7.12 1.87 13.34
12/21/2021 3:00:00 AM 1.61 34.898 0.055 7.11 1.9 13.35
12/21/2021 3:15:00 AM 1.6 34.88 0.055 7.11 1.8 13.37
12/21/2021 3:30:00 AM 1.58 34.844 0.055 7.1 1.92 13.38
12/21/2021 3:45:00 AM 1.57 34.826 0.055 7.1 1.9 13.39
12/21/2021 4:00:00 AM 1.55 34.79 0.055 7.11 1.83 13.4
12/21/2021 4:15:00 AM 1.53 34.754 0.055 7.11 1.81 13.41
12/21/2021 4:30:00 AM 1.51 34.718 0.055 7.11 1.85 13.42
12/21/2021 4:45:00 AM 1.49 34.682 0.055 7.11 1.88 13.43
12/21/2021 5:00:00 AM 1.48 34.664 0.055 7.11 1.8 13.44
12/21/2021 5:15:00 AM 1.47 34.646 0.055 7.1 1.87 13.44
12/21/2021 5:30:00 AM 1.48 34.664 0.055 7.1 1.89 13.45
12/21/2021 5:45:00 AM 1.49 34.682 0.055 7.1 1.89 13.45
12/21/2021 6:00:00 AM 1.51 34.718 0.055 7.1 1.85 13.44
12/21/2021 6:15:00 AM 1.52 34.736 0.055 7.1 1.88 13.44
12/21/2021 6:30:00 AM 1.54 34.772 0.055 7.11 1.87 13.44
12/21/2021 6:45:00 AM 1.56 34.808 0.055 7.1 1.87 13.43
12/21/2021 7:00:00 AM 1.58 34.844 0.055 7.1 1.78 13.43
12/21/2021 7:15:00 AM 1.61 34.898 0.055 7.1 1.92 13.42
12/21/2021 7:30:00 AM 1.63 34.934 0.055 7.1 1.83 13.41
12/21/2021 7:45:00 AM 1.64 34.952 0.055 7.11 1.82 13.41
12/21/2021 8:00:00 AM 1.67 35.006 0.055 7.11 1.94 13.41
12/21/2021 8:15:00 AM 1.69 35.042 0.055 7.11 1.85 13.42
12/21/2021 8:30:00 AM 1.72 35.096 0.055 7.11 1.82 13.45
12/21/2021 8:45:00 AM 1.74 35.132 0.054 7.13 1.82 13.49
12/21/2021 9:00:00 AM 1.78 35.204 0.054 7.14 1.8 13.54
12/21/2021 9:15:00 AM 1.82 35.276 0.054 7.16 1.77 13.57
12/21/2021 9:30:00 AM 1.86 35.348 0.054 7.17 1.85 13.61
12/21/2021 9:45:00 AM 1.91 35.438 0.054 7.18 1.78 13.63
12/21/2021 10:00:00 AM 1.96 35.528 0.054 7.19 1.81 13.64
12/21/2021 10:15:00 AM 2.01 35.618 0.054 7.2 1.73 13.67
12/21/2021 10:30:00 AM 2.08 35.744 0.054 7.23 1.78 13.68
12/21/2021 10:45:00 AM 2.15 35.87 0.054 7.25 1.69 13.67
12/21/2021 11:00:00 AM 2.21 35.978 0.054 7.25 1.67 13.66
12/21/2021 11:15:00 AM 2.28 36.104 0.054 7.26 1.63 13.64
12/21/2021 11:30:00 AM 2.35 36.23 0.054 7.27 1.68 13.62
12/21/2021 11:45:00 AM 2.42 36.356 0.053 7.28 1.7 13.61
12/21/2021 12:00:00 PM 2.51 36.518 0.053 7.28 1.72 13.61
12/21/2021 12:15:00 PM 2.59 36.662 0.053 7.29 1.69 13.59
12/21/2021 12:30:00 PM 2.68 36.824 0.053 7.3 1.87 13.58
12/21/2021 12:45:00 PM 2.78 37.004 0.054 7.33 1.76 13.57
12/21/2021 1:00:00 PM 2.86 37.148 0.054 7.32 1.71 13.54
12/21/2021 1:15:00 PM 2.95 37.31 0.054 7.32 1.68 13.5
12/21/2021 1:30:00 PM 3.13 37.634 0.053 7.34 1.73 13.46
12/21/2021 1:45:00 PM 3.25 37.85 0.053 7.34 1.74 13.42
12/21/2021 2:00:00 PM 3.34 38.012 0.053 7.33 1.64 13.37
12/21/2021 2:15:00 PM 3.41 38.138 0.053 7.34 1.67 13.31
12/21/2021 2:30:00 PM 3.43 38.174 0.053 7.34 1.6 13.28
12/21/2021 2:45:00 PM 3.43 38.174 0.053 7.34 1.8 13.24
12/21/2021 3:00:00 PM 3.42 38.156 0.053 7.34 1.7 13.2
12/21/2021 3:15:00 PM 3.42 38.156 0.053 7.34 1.69 13.18
12/21/2021 3:30:00 PM 3.42 38.156 0.053 7.33 1.76 13.14
12/21/2021 3:45:00 PM 3.42 38.156 0.053 7.32 1.75 13.1
12/21/2021 4:00:00 PM 3.44 38.192 0.053 7.3 1.78 13.04
12/21/2021 4:15:00 PM 3.44 38.192 0.053 7.29 1.79 12.99
12/21/2021 4:30:00 PM 3.43 38.174 0.053 7.28 1.77 12.95
12/21/2021 4:45:00 PM 3.42 38.156 0.053 7.26 1.76 12.89
12/21/2021 5:00:00 PM 3.39 38.102 0.053 7.24 1.8 12.84
12/21/2021 5:15:00 PM 3.35 38.03 0.053 7.21 1.79 12.79
12/21/2021 5:30:00 PM 3.3 37.94 0.054 7.2 1.73 12.77
12/21/2021 5:45:00 PM 3.26 37.868 0.054 7.19 1.94 12.75
12/21/2021 6:00:00 PM 3.21 37.778 0.054 7.18 1.9 12.74
12/21/2021 6:15:00 PM 3.16 37.688 0.054 7.17 1.86 12.74
12/21/2021 6:30:00 PM 3.11 37.598 0.054 7.17 1.86 12.74
12/21/2021 6:45:00 PM 3.06 37.508 0.054 7.16 1.8 12.74
12/21/2021 7:00:00 PM 3.02 37.436 0.054 7.15 1.85 12.75
12/21/2021 7:15:00 PM 2.98 37.364 0.054 7.14 1.9 12.75
12/21/2021 7:30:00 PM 2.95 37.31 0.054 7.14 1.83 12.76
12/21/2021 7:45:00 PM 2.92 37.256 0.054 7.13 1.82 12.77
12/21/2021 8:00:00 PM 2.89 37.202 0.054 7.12 1.86 12.77
12/21/2021 8:15:00 PM 2.86 37.148 0.054 7.13 1.88 12.78
12/21/2021 8:30:00 PM 2.82 37.076 0.054 7.13 1.99 12.79
12/21/2021 8:45:00 PM 2.79 37.022 0.054 7.13 1.88 12.81
12/21/2021 9:00:00 PM 2.76 36.968 0.054 7.12 1.85 12.82
12/21/2021 9:15:00 PM 2.73 36.914 0.054 7.12 1.84 12.84
12/21/2021 9:30:00 PM 2.69 36.842 0.054 7.12 1.89 12.85
12/21/2021 9:45:00 PM 2.67 36.806 0.054 7.12 1.85 12.86
12/21/2021 10:00:00 PM 2.64 36.752 0.054 7.12 1.92 12.86
12/21/2021 10:15:00 PM 2.61 36.698 0.054 7.12 2.01 12.87
12/21/2021 10:30:00 PM 2.58 36.644 0.054 7.12 1.95 12.88
12/21/2021 10:45:00 PM 2.56 36.608 0.054 7.12 1.98 12.89
12/21/2021 11:00:00 PM 2.53 36.554 0.054 7.12 1.93 12.9
12/21/2021 11:15:00 PM 2.51 36.518 0.054 7.12 1.92 12.9
12/21/2021 11:30:00 PM 2.48 36.464 0.054 7.12 1.86 12.91
12/21/2021 11:45:00 PM 2.45 36.41 0.054 7.12 1.85 12.93
12/22/2021 12:00:00 AM 2.43 36.374 0.054 7.11 1.97 12.93
12/22/2021 12:15:00 AM 2.39 36.302 0.054 7.11 1.94 12.94
12/22/2021 12:30:00 AM 2.37 36.266 0.054 7.13 1.99 12.94
12/22/2021 12:45:00 AM 2.33 36.194 0.054 7.11 1.87 12.96
12/22/2021 1:00:00 AM 2.3 36.14 0.054 7.1 1.95 12.96
12/22/2021 1:15:00 AM 2.27 36.086 0.054 7.1 1.88 12.97
12/22/2021 1:30:00 AM 2.24 36.032 0.054 7.1 1.98 12.98
12/22/2021 1:45:00 AM 2.2 35.96 0.054 7.1 1.86 12.99
12/22/2021 2:00:00 AM 2.17 35.906 0.054 7.1 1.86 13
12/22/2021 2:15:00 AM 2.14 35.852 0.054 7.1 2.01 13.01
12/22/2021 2:30:00 AM 2.11 35.798 0.054 7.1 1.87 13.02
12/22/2021 2:45:00 AM 2.08 35.744 0.054 7.1 1.85 13.03
12/22/2021 3:00:00 AM 2.07 35.726 0.054 7.09 1.85 13.03
12/22/2021 3:15:00 AM 2.07 35.726 0.054 7.09 1.81 13.03
12/22/2021 3:30:00 AM 2.06 35.708 0.054 7.11 1.86 13.03
12/22/2021 3:45:00 AM 2.07 35.726 0.054 7.1 1.84 13.04
12/22/2021 4:00:00 AM 2.07 35.726 0.054 7.1 1.81 13.04
12/22/2021 4:15:00 AM 2.08 35.744 0.054 7.1 1.89 13.04
12/22/2021 4:30:00 AM 2.08 35.744 0.054 7.11 1.83 13.04
12/22/2021 4:45:00 AM 2.08 35.744 0.054 7.11 1.84 13.04
12/22/2021 5:00:00 AM 2.08 35.744 0.054 7.1 1.82 13.03
12/22/2021 5:15:00 AM 2.08 35.744 0.054 7.1 1.85 13.03
12/22/2021 5:30:00 AM 2.08 35.744 0.054 7.1 1.81 13.03
12/22/2021 5:45:00 AM 2.08 35.744 0.054 7.11 1.85 13.03
12/22/2021 6:00:00 AM 2.09 35.762 0.054 7.11 1.84 13.03
12/22/2021 6:15:00 AM 2.1 35.78 0.054 7.1 1.84 13.03
12/22/2021 6:30:00 AM 2.11 35.798 0.054 7.12 1.75 13.02
12/22/2021 6:45:00 AM 2.12 35.816 0.054 7.1 1.84 13.02
12/22/2021 7:00:00 AM 2.13 35.834 0.054 7.1 1.8 13.02
12/22/2021 7:15:00 AM 2.14 35.852 0.054 7.1 1.81 13.01
12/22/2021 7:30:00 AM 2.16 35.888 0.054 7.1 1.81 13.01
12/22/2021 7:45:00 AM 2.18 35.924 0.054 7.09 1.84 13
12/22/2021 8:00:00 AM 2.2 35.96 0.054 7.11 1.8 13.01
12/22/2021 8:15:00 AM 2.22 35.996 0.055 7.12 1.84 13.01
12/22/2021 8:30:00 AM 2.25 36.05 0.055 7.12 1.78 13.04
12/22/2021 8:45:00 AM 2.27 36.086 0.054 7.13 1.73 13.07
12/22/2021 9:00:00 AM 2.31 36.158 0.054 7.15 1.74 13.13
12/22/2021 9:15:00 AM 2.34 36.212 0.054 7.16 1.77 13.19
12/22/2021 9:30:00 AM 2.38 36.284 0.054 7.19 1.75 13.25
12/22/2021 9:45:00 AM 2.42 36.356 0.053 7.2 1.84 13.28
12/22/2021 10:00:00 AM 2.46 36.428 0.053 7.24 1.75 13.29
12/22/2021 10:15:00 AM 2.5 36.5 0.053 7.23 1.7 13.32
12/22/2021 10:30:00 AM 2.56 36.608 0.053 7.26 1.77 13.35
12/22/2021 10:45:00 AM 2.6 36.68 0.053 7.27 1.69 13.38
12/22/2021 11:00:00 AM 2.64 36.752 0.053 7.28 1.71 13.37
12/22/2021 11:15:00 AM 2.67 36.806 0.053 7.28 1.72 13.36
12/22/2021 11:30:00 AM 2.72 36.896 0.053 7.29 1.69 13.38
12/22/2021 11:45:00 AM 2.74 36.932 0.053 7.3 1.84 13.38
12/22/2021 12:00:00 PM 2.77 36.986 0.053 7.31 1.84 13.37
12/22/2021 12:15:00 PM 2.77 36.986 0.053 7.31 1.7 13.36
12/22/2021 12:30:00 PM 2.78 37.004 0.053 7.32 1.73 13.37
12/22/2021 12:45:00 PM 2.79 37.022 0.053 7.33 1.62 13.39
12/22/2021 1:00:00 PM 2.79 37.022 0.053 7.33 1.73 13.39
12/22/2021 1:15:00 PM 2.8 37.04 0.053 7.35 1.66 13.37
12/22/2021 1:30:00 PM 2.81 37.058 0.053 7.33 1.73 13.38
12/22/2021 1:45:00 PM 2.85 37.13 0.053 7.35 1.63 13.38
12/22/2021 2:00:00 PM 2.88 37.184 0.053 7.35 1.65 13.37
12/22/2021 2:15:00 PM 2.91 37.238 0.053 7.35 1.63 13.36
12/22/2021 2:30:00 PM 2.91 37.238 0.052 7.35 1.7 13.34
12/22/2021 2:45:00 PM 2.92 37.256 0.053 7.34 1.68 13.31
12/22/2021 3:00:00 PM 2.92 37.256 0.053 7.34 1.63 13.29
12/22/2021 3:15:00 PM 2.89 37.202 0.053 7.33 1.69 13.28
12/22/2021 3:30:00 PM 2.88 37.184 0.053 7.33 1.66 13.29
12/22/2021 3:45:00 PM 2.85 37.13 0.053 7.31 1.64 13.28
12/22/2021 4:00:00 PM 2.83 37.094 0.053 7.31 1.64 13.25
12/22/2021 4:15:00 PM 2.81 37.058 0.053 7.29 1.57 13.21
12/22/2021 4:30:00 PM 2.79 37.022 0.053 7.27 1.61 13.16
12/22/2021 4:45:00 PM 2.76 36.968 0.053 7.25 1.73 13.12
12/22/2021 5:00:00 PM 2.72 36.896 0.053 7.23 1.61 13.09
12/22/2021 5:15:00 PM 2.69 36.842 0.053 7.22 1.58 13.05
12/22/2021 5:30:00 PM 2.65 36.77 0.053 7.2 1.65 13.04
12/22/2021 5:45:00 PM 2.61 36.698 0.053 7.19 1.73 13.02
12/22/2021 6:00:00 PM 2.57 36.626 0.053 7.19 1.72 13.02
12/22/2021 6:15:00 PM 2.54 36.572 0.054 7.18 1.74 13.01
12/22/2021 6:30:00 PM 2.52 36.536 0.054 7.17 1.77 13.01
12/22/2021 6:45:00 PM 2.5 36.5 0.054 7.16 1.75 13.01
12/22/2021 7:00:00 PM 2.48 36.464 0.054 7.15 1.79 13.02
12/22/2021 7:15:00 PM 2.45 36.41 0.054 7.15 1.73 13.02
12/22/2021 7:30:00 PM 2.42 36.356 0.054 7.14 1.85 13.02
12/22/2021 7:45:00 PM 2.4 36.32 0.054 7.14 1.76 13.02
12/22/2021 8:00:00 PM 2.39 36.302 0.054 7.14 1.68 13.03
12/22/2021 8:15:00 PM 2.36 36.248 0.054 7.14 1.69 13.04
12/22/2021 8:30:00 PM 2.34 36.212 0.054 7.13 1.72 13.04
12/22/2021 8:45:00 PM 2.32 36.176 0.054 7.13 1.71 13.05
12/22/2021 9:00:00 PM 2.3 36.14 0.054 7.13 1.69 13.05
12/22/2021 9:15:00 PM 2.28 36.104 0.054 7.13 1.81 13.06
12/22/2021 9:30:00 PM 2.26 36.068 0.054 7.13 1.69 13.07
12/22/2021 9:45:00 PM 2.25 36.05 0.054 7.13 1.7 13.07
12/22/2021 10:00:00 PM 2.22 35.996 0.054 7.13 1.77 13.09
12/22/2021 10:15:00 PM 2.21 35.978 0.054 7.13 1.73 13.09
12/22/2021 10:30:00 PM 2.19 35.942 0.054 7.13 1.8 13.1
12/22/2021 10:45:00 PM 2.17 35.906 0.054 7.13 1.74 13.11
12/22/2021 11:00:00 PM 2.15 35.87 0.054 7.13 1.72 13.11
12/22/2021 11:15:00 PM 2.14 35.852 0.055 7.12 1.74 13.12
12/22/2021 11:30:00 PM 2.12 35.816 0.055 7.13 1.71 13.14
12/22/2021 11:45:00 PM 2.11 35.798 0.054 7.13 1.68 13.14
12/23/2021 12:00:00 AM 2.1 35.78 0.054 7.12 1.68 13.15
12/23/2021 12:15:00 AM 2.09 35.762 0.054 7.15 1.64 13.15
12/23/2021 12:30:00 AM 2.08 35.744 0.054 7.12 1.69 13.16
12/23/2021 12:45:00 AM 2.05 35.69 0.054 7.12 1.7 13.17
12/23/2021 1:00:00 AM 2.03 35.654 0.054 7.13 1.71 13.18
12/23/2021 1:15:00 AM 2.01 35.618 0.054 7.15 1.82 13.19
12/23/2021 1:30:00 AM 1.97 35.546 0.054 7.12 1.71 13.2
12/23/2021 1:45:00 AM 1.94 35.492 0.054 7.14 1.73 13.22
12/23/2021 2:00:00 AM 1.92 35.456 0.054 7.12 1.75 13.24
12/23/2021 2:15:00 AM 1.89 35.402 0.054 7.13 1.73 13.25
12/23/2021 2:30:00 AM 1.87 35.366 0.054 7.12 1.92 13.26
12/23/2021 2:45:00 AM 1.85 35.33 0.054 7.12 1.67 13.28
12/23/2021 3:00:00 AM 1.83 35.294 0.054 7.12 1.76 13.3
12/23/2021 3:15:00 AM 1.8 35.24 0.054 7.12 1.74 13.3
12/23/2021 3:30:00 AM 1.77 35.186 0.054 7.12 1.76 13.32
12/23/2021 3:45:00 AM 1.73 35.114 0.054 7.13 1.69 13.34
12/23/2021 4:00:00 AM 1.7 35.06 0.054 7.13 1.69 13.35
12/23/2021 4:15:00 AM 1.67 35.006 0.054 7.12 1.71 13.36
12/23/2021 4:30:00 AM 1.65 34.97 0.054 7.12 1.73 13.38
12/23/2021 4:45:00 AM 1.63 34.934 0.054 7.12 1.68 13.39
12/23/2021 5:00:00 AM 1.62 34.916 0.054 7.12 1.69 13.4
12/23/2021 5:15:00 AM 1.6 34.88 0.054 7.12 1.73 13.41
12/23/2021 5:30:00 AM 1.59 34.862 0.054 7.12 1.72 13.42
12/23/2021 5:45:00 AM 1.58 34.844 0.054 7.12 1.64 13.43
12/23/2021 6:00:00 AM 1.57 34.826 0.054 7.12 1.6 13.44
12/23/2021 6:15:00 AM 1.55 34.79 0.054 7.14 1.62 13.45
12/23/2021 6:30:00 AM 1.54 34.772 0.054 7.12 1.64 13.45
12/23/2021 6:45:00 AM 1.53 34.754 0.054 7.12 1.67 13.46
12/23/2021 7:00:00 AM 1.52 34.736 0.054 7.12 1.68 13.47
12/23/2021 7:15:00 AM 1.51 34.718 0.054 7.12 1.61 13.47
12/23/2021 7:30:00 AM 1.5 34.7 0.054 7.13 1.66 13.48
12/23/2021 7:45:00 AM 1.49 34.682 0.054 7.12 1.74 13.49
12/23/2021 8:00:00 AM 1.48 34.664 0.054 7.13 1.64 13.52
12/23/2021 8:15:00 AM 1.48 34.664 0.054 7.14 1.68 13.57
12/23/2021 8:30:00 AM 1.48 34.664 0.054 7.16 1.63 13.63
12/23/2021 8:45:00 AM 1.48 34.664 0.054 7.19 1.72 13.7
12/23/2021 9:00:00 AM 1.49 34.682 0.054 7.2 1.69 13.76
12/23/2021 9:15:00 AM 1.5 34.7 0.054 7.21 1.79 13.81
12/23/2021 9:30:00 AM 1.51 34.718 0.054 7.22 1.58 13.85
12/23/2021 9:45:00 AM 1.57 34.826 0.054 7.24 1.69 13.88
12/23/2021 10:00:00 AM 1.62 34.916 0.054 7.26 1.84 13.9
12/23/2021 10:15:00 AM 1.66 34.988 0.054 7.27 1.7 13.91
12/23/2021 10:30:00 AM 1.7 35.06 0.054 7.28 1.67 13.92
12/23/2021 10:45:00 AM 1.76 35.168 0.054 7.3 1.63 13.93
12/23/2021 11:00:00 AM 1.82 35.276 0.054 7.3 1.66 13.93
12/23/2021 11:15:00 AM 1.86 35.348 0.053 7.31 1.64 13.93
12/23/2021 11:30:00 AM 1.97 35.546 0.053 7.32 1.54 13.93
12/23/2021 11:45:00 AM 2.03 35.654 0.053 7.32 1.68 13.92
12/23/2021 12:00:00 PM 2.14 35.852 0.053 7.33 1.58 13.91
12/23/2021 12:15:00 PM 2.23 36.014 0.053 7.33 1.62 13.87
12/23/2021 12:30:00 PM 2.31 36.158 0.053 7.33 1.64 13.83
12/23/2021 12:45:00 PM 2.35 36.23 0.053 7.34 1.55 13.8
12/23/2021 1:00:00 PM 2.34 36.212 0.053 7.34 1.57 13.78
12/23/2021 1:15:00 PM 2.38 36.284 0.053 7.35 1.58 13.77
12/23/2021 1:30:00 PM 2.42 36.356 0.053 7.34 1.5 13.76
12/23/2021 1:45:00 PM 2.47 36.446 0.054 7.35 1.57 13.73
12/23/2021 2:00:00 PM 2.53 36.554 0.055 7.35 1.47 13.69
12/23/2021 2:15:00 PM 2.59 36.662 0.054 7.36 1.5 13.65
12/23/2021 2:30:00 PM 2.64 36.752 0.054 7.36 1.45 13.62
12/23/2021 2:45:00 PM 2.65 36.77 0.053 7.36 1.57 13.6
12/23/2021 3:00:00 PM 2.64 36.752 0.053 7.37 1.49 13.59
12/23/2021 3:15:00 PM 2.63 36.734 0.053 7.36 1.49 13.58
12/23/2021 3:30:00 PM 2.62 36.716 0.053 7.35 1.53 13.55
12/23/2021 3:45:00 PM 2.61 36.698 0.053 7.34 1.54 13.49
12/23/2021 4:00:00 PM 2.61 36.698 0.053 7.33 1.52 13.42
12/23/2021 4:15:00 PM 2.6 36.68 0.054 7.3 1.47 13.35
12/23/2021 4:30:00 PM 2.57 36.626 0.054 7.28 1.53 13.3
12/23/2021 4:45:00 PM 2.55 36.59 0.054 7.26 1.56 13.25
12/23/2021 5:00:00 PM 2.53 36.554 0.054 7.24 1.57 13.2
12/23/2021 5:15:00 PM 2.51 36.518 0.054 7.22 1.52 13.16
12/23/2021 5:30:00 PM 2.48 36.464 0.054 7.22 1.62 13.14
12/23/2021 5:45:00 PM 2.46 36.428 0.054 7.2 1.64 13.11
12/23/2021 6:00:00 PM 2.45 36.41 0.054 7.19 1.57 13.1
12/23/2021 6:15:00 PM 2.43 36.374 0.054 7.19 1.93 13.09
12/23/2021 6:30:00 PM 2.42 36.356 0.055 7.18 1.54 13.08
12/23/2021 6:45:00 PM 2.41 36.338 0.055 7.18 1.67 13.08
12/23/2021 7:00:00 PM 2.4 36.32 0.055 7.17 1.64 13.07
12/23/2021 7:15:00 PM 2.39 36.302 0.055 7.17 1.66 13.06
12/23/2021 7:30:00 PM 2.39 36.302 0.055 7.16 1.53 13.06
12/23/2021 7:45:00 PM 2.38 36.284 0.055 7.16 1.68 13.06
12/23/2021 8:00:00 PM 2.39 36.302 0.055 7.16 1.61 13.05
12/23/2021 8:15:00 PM 2.38 36.284 0.055 7.16 1.63 13.05
12/23/2021 8:30:00 PM 2.38 36.284 0.055 7.15 1.77 13.05
12/23/2021 8:45:00 PM 2.38 36.284 0.055 7.16 1.56 13.04
12/23/2021 9:00:00 PM 2.38 36.284 0.055 7.15 1.61 13.05
12/23/2021 9:15:00 PM 2.38 36.284 0.055 7.16 1.7 13.04
12/23/2021 9:30:00 PM 2.38 36.284 0.055 7.15 1.59 13.04
12/23/2021 9:45:00 PM 2.38 36.284 0.055 7.15 1.71 13.04
12/23/2021 10:00:00 PM 2.38 36.284 0.055 7.18 1.64 13.03
12/23/2021 10:15:00 PM 2.39 36.302 0.055 7.14 1.69 13.03
12/23/2021 10:30:00 PM 2.38 36.284 0.055 7.15 1.66 13.02
12/23/2021 10:45:00 PM 2.35 36.23 0.055 7.14 1.73 13.02
12/23/2021 11:00:00 PM 2.34 36.212 0.055 7.14 1.64 13.03
12/23/2021 11:15:00 PM 2.32 36.176 0.055 7.14 1.68 13.02
12/23/2021 11:30:00 PM 2.28 36.104 0.055 7.14 1.61 13.03
12/23/2021 11:45:00 PM 2.21 35.978 0.055 7.14 1.68 13.05
12/24/2021 12:00:00 AM 2.18 35.924 0.055 7.14 1.68 13.06
12/24/2021 12:15:00 AM 2.17 35.906 0.055 7.14 1.73 13.07
12/24/2021 12:30:00 AM 2.17 35.906 0.055 7.13 1.64 13.09
12/24/2021 12:45:00 AM 2.16 35.888 0.055 7.14 1.7 13.1
12/24/2021 1:00:00 AM 2.15 35.87 0.055 7.14 1.62 13.11
12/24/2021 1:15:00 AM 2.16 35.888 0.055 7.13 1.62 13.11
12/24/2021 1:30:00 AM 2.17 35.906 0.055 7.13 1.62 13.12
12/24/2021 1:45:00 AM 2.17 35.906 0.055 7.14 1.7 13.12
12/24/2021 2:00:00 AM 2.18 35.924 0.055 7.13 2.23 13.11
12/24/2021 2:15:00 AM 2.18 35.924 0.055 7.13 1.77 13.12
12/24/2021 2:30:00 AM 2.19 35.942 0.055 7.13 1.66 13.12
12/24/2021 2:45:00 AM 2.2 35.96 0.055 7.13 1.7 13.12
12/24/2021 3:00:00 AM 2.21 35.978 0.055 7.14 1.65 13.11
12/24/2021 3:15:00 AM 2.22 35.996 0.055 7.13 1.72 13.11
12/24/2021 3:30:00 AM 2.23 36.014 0.052 7.13 3.55 13.1
12/24/2021 3:45:00 AM 2.24 36.032 0.055 7.14 1.73 13.09
12/24/2021 4:00:00 AM 2.25 36.05 0.055 7.13 1.69 13.09
12/24/2021 4:15:00 AM 2.26 36.068 0.055 7.13 1.64 13.08
12/24/2021 4:30:00 AM 2.27 36.086 0.055 7.13 1.65 13.08
12/24/2021 4:45:00 AM 2.27 36.086 0.055 7.14 1.64 13.08
12/24/2021 5:00:00 AM 2.28 36.104 0.055 7.13 1.66 13.08
12/24/2021 5:15:00 AM 2.29 36.122 0.055 7.14 1.63 13.07
12/24/2021 5:30:00 AM 2.3 36.14 0.055 7.13 1.73 13.07
12/24/2021 5:45:00 AM 2.31 36.158 0.055 7.14 1.62 13.07
12/24/2021 6:00:00 AM 2.31 36.158 0.055 7.14 1.61 13.07
12/24/2021 6:15:00 AM 2.32 36.176 0.055 7.14 1.56 13.07
12/24/2021 6:30:00 AM 2.33 36.194 0.055 7.14 1.7 13.06
12/24/2021 6:45:00 AM 2.34 36.212 0.055 7.14 1.62 13.06
12/24/2021 7:00:00 AM 2.35 36.23 0.055 7.13 1.65 13.06
12/24/2021 7:15:00 AM 2.36 36.248 0.055 7.14 1.68 13.06
12/24/2021 7:30:00 AM 2.37 36.266 0.055 7.14 1.66 13.05
12/24/2021 7:45:00 AM 2.38 36.284 0.055 7.14 1.61 13.06
12/24/2021 8:00:00 AM 2.39 36.302 0.055 7.14 1.63 13.07
12/24/2021 8:15:00 AM 2.4 36.32 0.055 7.15 1.6 13.1
12/24/2021 8:30:00 AM 2.41 36.338 0.055 7.16 1.58 13.14
12/24/2021 8:45:00 AM 2.43 36.374 0.055 7.17 1.58 13.18
12/24/2021 9:00:00 AM 2.46 36.428 0.055 7.19 1.55 13.24
12/24/2021 9:15:00 AM 2.49 36.482 0.055 7.21 1.62 13.29
12/24/2021 9:30:00 AM 2.52 36.536 0.055 7.22 1.49 13.34
12/24/2021 9:45:00 AM 2.57 36.626 0.055 7.24 1.58 13.39
12/24/2021 10:00:00 AM 2.62 36.716 0.054 7.27 1.6 13.43
12/24/2021 10:15:00 AM 2.69 36.842 0.054 7.28 1.53 13.46
12/24/2021 10:30:00 AM 2.77 36.986 0.054 7.3 1.53 13.47
12/24/2021 10:45:00 AM 2.84 37.112 0.054 7.32 1.5 13.47
12/24/2021 11:00:00 AM 2.94 37.292 0.054 7.33 1.56 13.45
12/24/2021 11:15:00 AM 3.04 37.472 0.054 7.34 1.66 13.45
12/24/2021 11:30:00 AM 3.14 37.652 0.054 7.35 1.6 13.44
12/24/2021 11:45:00 AM 3.24 37.832 0.054 7.36 1.49 13.42
12/24/2021 12:00:00 PM 3.33 37.994 0.055 7.37 1.52 13.4
12/24/2021 12:15:00 PM 3.45 38.21 0.055 7.37 3.61 13.37
12/24/2021 12:30:00 PM 3.57 38.426 0.055 7.38 1.49 13.32
12/24/2021 12:45:00 PM 3.68 38.624 0.054 7.39 1.52 13.28
12/24/2021 1:00:00 PM 3.77 38.786 0.054 7.4 1.45 13.25
12/24/2021 1:15:00 PM 3.86 38.948 0.054 7.41 1.43 13.22
12/24/2021 1:30:00 PM 3.93 39.074 0.054 7.41 1.47 13.18
12/24/2021 1:45:00 PM 3.97 39.146 0.054 7.42 1.5 13.16
12/24/2021 2:00:00 PM 3.99 39.182 0.054 7.43 1.43 13.14
12/24/2021 2:15:00 PM 3.99 39.182 0.054 7.43 1.52 13.12
12/24/2021 2:30:00 PM 3.97 39.146 0.054 7.43 1.52 13.1
12/24/2021 2:45:00 PM 3.97 39.146 0.054 7.42 1.6 13.08
12/24/2021 3:00:00 PM 4 39.2 0.054 7.42 1.45 13.06
12/24/2021 3:15:00 PM 4.04 39.272 0.054 7.43 1.46 13.05
12/24/2021 3:30:00 PM 4.07 39.326 0.054 7.42 1.52 13.01
12/24/2021 3:45:00 PM 4.1 39.38 0.054 7.4 1.6 12.94
12/24/2021 4:00:00 PM 4.14 39.452 0.054 7.39 1.52 12.88
12/24/2021 4:15:00 PM 4.16 39.488 0.054 7.37 1.56 12.82
12/24/2021 4:30:00 PM 4.18 39.524 0.055 7.35 1.55 12.74
12/24/2021 4:45:00 PM 4.18 39.524 0.055 7.31 1.58 12.67
12/24/2021 5:00:00 PM 4.18 39.524 0.055 7.29 1.56 12.6
12/24/2021 5:15:00 PM 4.17 39.506 0.055 7.27 1.57 12.55
12/24/2021 5:30:00 PM 4.15 39.47 0.055 7.25 1.56 12.52
12/24/2021 5:45:00 PM 4.12 39.416 0.055 7.24 1.66 12.5
12/24/2021 6:00:00 PM 4.09 39.362 0.055 7.22 1.59 12.49
12/24/2021 6:15:00 PM 4.07 39.326 0.055 7.21 1.67 12.47
12/24/2021 6:30:00 PM 4.05 39.29 0.055 7.2 1.68 12.46
12/24/2021 6:45:00 PM 4.03 39.254 0.056 7.2 1.61 12.46
12/24/2021 7:00:00 PM 4.02 39.236 0.056 7.2 1.63 12.45
12/24/2021 7:15:00 PM 4.02 39.236 0.056 7.19 1.61 12.45
12/24/2021 7:30:00 PM 4.02 39.236 0.056 7.19 1.67 12.44
12/24/2021 7:45:00 PM 4.02 39.236 0.056 7.17 1.62 12.44
12/24/2021 8:00:00 PM 4.02 39.236 0.056 7.17 1.63 12.43
12/24/2021 8:15:00 PM 4.02 39.236 0.056 7.18 1.63 12.43
12/24/2021 8:30:00 PM 4.03 39.254 0.056 7.17 1.78 12.43
12/24/2021 8:45:00 PM 4.03 39.254 0.056 7.17 1.72 12.42
12/24/2021 9:00:00 PM 4.03 39.254 0.056 7.18 1.64 12.42
12/24/2021 9:15:00 PM 4.03 39.254 0.056 7.18 1.8 12.42
12/24/2021 9:30:00 PM 4.03 39.254 0.056 7.17 1.68 12.42
12/24/2021 9:45:00 PM 4.03 39.254 0.056 7.17 1.63 12.42
12/24/2021 10:00:00 PM 4.03 39.254 0.056 7.16 1.6 12.42
12/24/2021 10:15:00 PM 4.03 39.254 0.056 7.18 1.61 12.41
12/24/2021 10:30:00 PM 4.03 39.254 0.056 7.16 1.66 12.41
12/24/2021 10:45:00 PM 4.03 39.254 0.056 7.16 1.58 12.41
12/24/2021 11:00:00 PM 4.04 39.272 0.056 7.16 1.64 12.41
12/24/2021 11:15:00 PM 4.04 39.272 0.056 7.16 1.65 12.4
12/24/2021 11:30:00 PM 4.05 39.29 0.056 7.16 1.72 12.4
12/24/2021 11:45:00 PM 4.05 39.29 0.056 7.16 1.65 12.4
12/25/2021 12:00:00 AM 4.06 39.308 0.056 7.16 1.84 12.39
12/25/2021 12:15:00 AM 4.06 39.308 0.056 7.16 1.71 12.39
12/25/2021 12:30:00 AM 4.07 39.326 0.056 7.15 1.84 12.38
12/25/2021 12:45:00 AM 4.07 39.326 0.056 7.15 1.66 12.38
12/25/2021 1:00:00 AM 4.08 39.344 0.056 7.16 1.76 12.37
12/25/2021 1:15:00 AM 4.08 39.344 0.056 7.15 1.74 12.36
12/25/2021 1:30:00 AM 4.09 39.362 0.056 7.15 1.64 12.35
12/25/2021 1:45:00 AM 4.1 39.38 0.056 7.15 1.67 12.35
12/25/2021 2:00:00 AM 4.1 39.38 0.056 7.15 1.75 12.34
12/25/2021 2:15:00 AM 4.11 39.398 0.056 7.15 1.68 12.34
12/25/2021 2:30:00 AM 4.12 39.416 0.056 7.15 1.7 12.33
12/25/2021 2:45:00 AM 4.12 39.416 0.056 7.15 1.67 12.32
12/25/2021 3:00:00 AM 4.13 39.434 0.056 7.16 1.72 12.32
12/25/2021 3:15:00 AM 4.14 39.452 0.056 7.15 1.65 12.31
12/25/2021 3:30:00 AM 4.14 39.452 0.056 7.14 1.76 12.3
12/25/2021 3:45:00 AM 4.15 39.47 0.056 7.15 1.63 12.3
12/25/2021 4:00:00 AM 4.16 39.488 0.056 7.15 1.69 12.29
12/25/2021 4:15:00 AM 4.16 39.488 0.056 7.15 1.72 12.28
12/25/2021 4:30:00 AM 4.17 39.506 0.056 7.15 1.63 12.27
12/25/2021 4:45:00 AM 4.18 39.524 0.056 7.15 1.67 12.26
12/25/2021 5:00:00 AM 4.18 39.524 0.056 7.15 1.7 12.26
12/25/2021 5:15:00 AM 4.19 39.542 0.056 7.15 1.59 12.25
12/25/2021 5:30:00 AM 4.2 39.56 0.056 7.15 1.71 12.25
12/25/2021 5:45:00 AM 4.2 39.56 0.056 7.15 1.68 12.24
12/25/2021 6:00:00 AM 4.21 39.578 0.056 7.15 1.61 12.23
12/25/2021 6:15:00 AM 4.22 39.596 0.056 7.15 1.61 12.23
12/25/2021 6:30:00 AM 4.22 39.596 0.056 7.15 1.63 12.22
12/25/2021 6:45:00 AM 4.23 39.614 0.056 7.15 1.65 12.22
12/25/2021 7:00:00 AM 4.23 39.614 0.057 7.15 1.78 12.21
12/25/2021 7:15:00 AM 4.24 39.632 0.057 7.15 1.71 12.21
12/25/2021 7:30:00 AM 4.25 39.65 0.057 7.16 1.86 12.21
12/25/2021 7:45:00 AM 4.25 39.65 0.057 7.14 1.87 12.2
12/25/2021 8:00:00 AM 4.26 39.668 0.057 7.14 2.03 12.2
12/25/2021 8:15:00 AM 4.27 39.686 0.058 7.15 2.02 12.22
12/25/2021 8:30:00 AM 4.28 39.704 0.057 7.16 2.1 12.24
12/25/2021 8:45:00 AM 4.3 39.74 0.057 7.16 2.39 12.25
12/25/2021 9:00:00 AM 4.31 39.758 0.057 7.17 2.54 12.28
12/25/2021 9:15:00 AM 4.33 39.794 0.056 7.18 2.5 12.31
12/25/2021 9:30:00 AM 4.35 39.83 0.056 7.2 2.57 12.34
12/25/2021 9:45:00 AM 4.37 39.866 0.056 7.2 2.67 12.36
12/25/2021 10:00:00 AM 4.4 39.92 0.056 7.21 2.66 12.4
12/25/2021 10:15:00 AM 4.42 39.956 0.056 7.22 2.51 12.41
12/25/2021 10:30:00 AM 4.45 40.01 0.056 7.22 2.49 12.43
12/25/2021 10:45:00 AM 4.48 40.064 0.056 7.23 2.75 12.46
12/25/2021 11:00:00 AM 4.51 40.118 0.056 7.25 2.61 12.48
12/25/2021 11:15:00 AM 4.54 40.172 0.056 7.26 2.65 12.49
12/25/2021 11:30:00 AM 4.57 40.226 0.056 7.27 2.85 12.5
12/25/2021 11:45:00 AM 4.61 40.298 0.056 7.28 2.7 12.5
12/25/2021 12:00:00 PM 4.64 40.352 0.054 7.3 4.64 12.53
12/25/2021 12:15:00 PM 4.67 40.406 0.056 7.29 2.64 12.52
12/25/2021 12:30:00 PM 4.71 40.478 0.056 7.3 2.69 12.52
12/25/2021 12:45:00 PM 4.75 40.55 0.056 7.32 2.79 12.52
12/25/2021 1:00:00 PM 4.79 40.622 0.056 7.32 2.95 12.52
12/25/2021 1:15:00 PM 4.86 40.748 0.056 7.34 2.68 12.56
12/25/2021 1:30:00 PM 4.93 40.874 0.056 7.36 2.92 12.57
12/25/2021 1:45:00 PM 4.97 40.946 0.056 7.36 3.11 12.53
12/25/2021 2:00:00 PM 5 41 0.056 7.35 3.17 12.46
12/25/2021 2:15:00 PM 5.04 41.072 0.056 7.33 3.28 12.43
12/25/2021 2:30:00 PM 5.08 41.144 0.056 7.35 3.28 12.43
12/25/2021 2:45:00 PM 5.11 41.198 0.056 7.33 3.3 12.41
12/25/2021 3:00:00 PM 5.14 41.252 0.055 7.34 4.96 12.38
12/25/2021 3:15:00 PM 5.17 41.306 0.056 7.35 3.4 12.33
12/25/2021 3:30:00 PM 5.19 41.342 0.057 7.31 3.35 12.29
12/25/2021 3:45:00 PM 5.25 41.45 0.057 7.33 3.46 12.34
12/25/2021 4:00:00 PM 5.28 41.504 0.057 7.33 3.47 12.34
12/25/2021 4:15:00 PM 5.3 41.54 0.057 7.31 3.41 12.26
12/25/2021 4:30:00 PM 5.31 41.558 0.057 7.29 3.6 12.18
12/25/2021 4:45:00 PM 5.33 41.594 0.057 7.27 3.35 12.11
12/25/2021 5:00:00 PM 5.35 41.63 0.057 7.26 3.4 12.05
12/25/2021 5:15:00 PM 5.36 41.648 0.057 7.23 3.52 12
12/25/2021 5:30:00 PM 5.37 41.666 0.058 7.22 3.25 11.95
12/25/2021 5:45:00 PM 5.37 41.666 0.058 7.2 3.33 11.93
12/25/2021 6:00:00 PM 5.37 41.666 0.058 7.19 3.23 11.91
12/25/2021 6:15:00 PM 5.38 41.684 0.058 7.19 3.4 11.89
12/25/2021 6:30:00 PM 5.38 41.684 0.058 7.18 3.02 11.88
12/25/2021 6:45:00 PM 5.39 41.702 0.058 7.18 3.23 11.87
12/25/2021 7:00:00 PM 5.39 41.702 0.058 7.17 3.14 11.87
12/25/2021 7:15:00 PM 5.41 41.738 0.058 7.17 3 11.86
12/25/2021 7:30:00 PM 5.42 41.756 0.058 7.17 3.14 11.85
12/25/2021 7:45:00 PM 5.43 41.774 0.058 7.17 3.09 11.85
12/25/2021 8:00:00 PM 5.44 41.792 0.058 7.17 3.04 11.84
12/25/2021 8:15:00 PM 5.46 41.828 0.058 7.15 3.09 11.84
12/25/2021 8:30:00 PM 5.47 41.846 0.058 7.16 2.98 11.84
12/25/2021 8:45:00 PM 5.48 41.864 0.058 7.15 2.92 11.84
12/25/2021 9:00:00 PM 5.49 41.882 0.058 7.15 3.03 11.84
12/25/2021 9:15:00 PM 5.5 41.9 0.058 7.16 2.72 11.84
12/25/2021 9:30:00 PM 5.51 41.918 0.058 7.16 2.7 11.84
12/25/2021 9:45:00 PM 5.53 41.954 0.058 7.16 2.78 11.84
12/25/2021 10:00:00 PM 5.53 41.954 0.058 7.16 2.74 11.84
12/25/2021 10:15:00 PM 5.55 41.99 0.058 7.17 2.92 11.84
12/25/2021 10:30:00 PM 5.55 41.99 0.058 7.16 2.76 11.84
12/25/2021 10:45:00 PM 5.55 41.99 0.059 7.17 2.65 11.85
12/25/2021 11:00:00 PM 5.53 41.954 0.059 7.17 2.79 11.85
12/25/2021 11:15:00 PM 5.53 41.954 0.059 7.16 2.79 11.85
12/25/2021 11:30:00 PM 5.53 41.954 0.058 7.16 2.69 11.86
12/25/2021 11:45:00 PM 5.52 41.936 0.058 7.17 2.58 11.87
12/26/2021 12:00:00 AM 5.52 41.936 0.058 7.17 2.6 11.87
12/26/2021 12:15:00 AM 5.52 41.936 0.058 7.17 2.66 11.87
12/26/2021 12:30:00 AM 5.51 41.918 0.058 7.17 2.75 11.87
12/26/2021 12:45:00 AM 5.5 41.9 0.057 7.19 4.55 11.88
12/26/2021 1:00:00 AM 5.49 41.882 0.058 7.18 2.67 11.88
12/26/2021 1:15:00 AM 5.47 41.846 0.058 7.17 2.57 11.89
12/26/2021 1:30:00 AM 5.45 41.81 0.058 7.17 2.56 11.9
12/26/2021 1:45:00 AM 5.43 41.774 0.058 7.17 2.57 11.9
12/26/2021 2:00:00 AM 5.41 41.738 0.058 7.19 2.53 11.91
12/26/2021 2:15:00 AM 5.4 41.72 0.058 7.16 2.53 11.92
12/26/2021 2:30:00 AM 5.38 41.684 0.058 7.16 2.54 11.93
12/26/2021 2:45:00 AM 5.36 41.648 0.056 7.16 4.83 11.94
12/26/2021 3:00:00 AM 5.34 41.612 0.058 7.19 2.56 11.96
12/26/2021 3:15:00 AM 5.33 41.594 0.058 7.17 2.45 11.96
12/26/2021 3:30:00 AM 5.32 41.576 0.058 7.17 2.58 11.97
12/26/2021 3:45:00 AM 5.29 41.522 0.058 7.16 2.61 11.98
12/26/2021 4:00:00 AM 5.26 41.468 0.058 7.16 2.36 11.99
12/26/2021 4:15:00 AM 5.23 41.414 0.058 7.16 2.42 12.01
12/26/2021 4:30:00 AM 5.22 41.396 0.058 7.16 2.52 12.01
12/26/2021 4:45:00 AM 5.19 41.342 0.058 7.16 2.3 12.03
12/26/2021 5:00:00 AM 5.17 41.306 0.058 7.16 2.38 12.03
12/26/2021 5:15:00 AM 5.14 41.252 0.058 7.16 2.35 12.05
12/26/2021 5:30:00 AM 5.11 41.198 0.058 7.16 2.2 12.06
12/26/2021 5:45:00 AM 5.06 41.108 0.058 7.16 2.18 12.08
12/26/2021 6:00:00 AM 5.02 41.036 0.058 7.16 2.47 12.09
12/26/2021 6:15:00 AM 4.99 40.982 0.058 7.16 2.29 12.11
12/26/2021 6:30:00 AM 4.95 40.91 0.058 7.16 2.23 12.13
12/26/2021 6:45:00 AM 4.91 40.838 0.058 7.16 2.28 12.14
12/26/2021 7:00:00 AM 4.88 40.784 0.058 7.16 2.21 12.15
12/26/2021 7:15:00 AM 4.84 40.712 0.058 7.17 2.4 12.16
12/26/2021 7:30:00 AM 4.81 40.658 0.058 7.16 2.1 12.18
12/26/2021 7:45:00 AM 4.78 40.604 0.058 7.16 2.22 12.22
12/26/2021 8:00:00 AM 4.73 40.514 0.058 7.17 2.21 12.26
12/26/2021 8:15:00 AM 4.69 40.442 0.058 7.19 2.23 12.33
12/26/2021 8:30:00 AM 4.67 40.406 0.058 7.19 2.22 12.41
12/26/2021 8:45:00 AM 4.67 40.406 0.058 7.23 2.28 12.5
12/26/2021 9:00:00 AM 4.67 40.406 0.058 7.24 2.07 12.58
12/26/2021 9:15:00 AM 4.68 40.424 0.057 7.27 2.07 12.65
12/26/2021 9:30:00 AM 4.69 40.442 0.057 7.28 2.05 12.72
12/26/2021 9:45:00 AM 4.69 40.442 0.057 7.33 2.07 12.75
12/26/2021 10:00:00 AM 4.72 40.496 0.057 7.34 2 12.8
12/26/2021 10:15:00 AM 4.78 40.604 0.057 7.36 2.17 12.84
12/26/2021 10:30:00 AM 4.82 40.676 0.057 7.39 2.03 12.86
12/26/2021 10:45:00 AM 4.86 40.748 0.057 7.4 1.99 12.87
12/26/2021 11:00:00 AM 4.9 40.82 0.057 7.42 2.08 12.88
12/26/2021 11:15:00 AM 4.92 40.856 0.057 7.44 1.93 12.88
12/26/2021 11:30:00 AM 4.94 40.892 0.057 7.45 1.85 12.87
12/26/2021 11:45:00 AM 4.97 40.946 0.057 7.46 1.92 12.88
12/26/2021 12:00:00 PM 4.99 40.982 0.057 7.47 1.91 12.87
12/26/2021 12:15:00 PM 5.01 41.018 0.057 7.48 2.02 12.87
12/26/2021 12:30:00 PM 5.03 41.054 0.057 7.48 1.9 12.85
12/26/2021 12:45:00 PM 5.05 41.09 0.057 7.49 1.96 12.85
12/26/2021 1:00:00 PM 5.09 41.162 0.057 7.5 1.81 12.85
12/26/2021 1:15:00 PM 5.11 41.198 0.057 7.5 1.9 12.84
12/26/2021 1:30:00 PM 5.23 41.414 0.057 7.52 1.96 12.84
12/26/2021 1:45:00 PM 5.34 41.612 0.057 7.52 1.86 12.82
12/26/2021 2:00:00 PM 5.33 41.594 0.057 7.54 1.87 12.79
12/26/2021 2:15:00 PM 5.3 41.54 0.057 7.52 1.9 12.77
12/26/2021 2:30:00 PM 5.32 41.576 0.057 7.52 1.89 12.76
12/26/2021 2:45:00 PM 5.35 41.63 0.057 7.52 1.79 12.74
12/26/2021 3:00:00 PM 5.38 41.684 0.057 7.52 1.86 12.73
12/26/2021 3:15:00 PM 5.39 41.702 0.057 7.52 1.84 12.7
12/26/2021 3:30:00 PM 5.38 41.684 0.057 7.5 1.75 12.66
12/26/2021 3:45:00 PM 5.36 41.648 0.055 7.48 3.7 12.62
12/26/2021 4:00:00 PM 5.35 41.63 0.058 7.47 1.83 12.55
12/26/2021 4:15:00 PM 5.31 41.558 0.058 7.41 1.85 12.47
12/26/2021 4:30:00 PM 5.27 41.486 0.057 7.38 1.82 12.43
12/26/2021 4:45:00 PM 5.21 41.378 0.055 7.35 3.55 12.38
12/26/2021 5:00:00 PM 5.16 41.288 0.057 7.34 1.94 12.33
12/26/2021 5:15:00 PM 5.1 41.18 0.057 7.3 1.81 12.29
12/26/2021 5:30:00 PM 5.04 41.072 0.055 7.28 3.83 12.27
12/26/2021 5:45:00 PM 4.97 40.946 0.058 7.26 1.83 12.26
12/26/2021 6:00:00 PM 4.9 40.82 0.058 7.24 1.78 12.26
12/26/2021 6:15:00 PM 4.83 40.694 0.058 7.23 1.99 12.26
12/26/2021 6:30:00 PM 4.75 40.55 0.058 7.23 1.82 12.28
12/26/2021 6:45:00 PM 4.67 40.406 0.055 7.22 3.69 12.31
12/26/2021 7:00:00 PM 4.59 40.262 0.058 7.21 1.83 12.32
12/26/2021 7:15:00 PM 4.51 40.118 0.058 7.2 2 12.33
12/26/2021 7:30:00 PM 4.44 39.992 0.058 7.21 1.87 12.35
12/26/2021 7:45:00 PM 4.37 39.866 0.058 7.2 1.88 12.36
12/26/2021 8:00:00 PM 4.29 39.722 0.058 7.2 1.86 12.38
12/26/2021 8:15:00 PM 4.22 39.596 0.058 7.19 2 12.4
12/26/2021 8:30:00 PM 4.17 39.506 0.058 7.19 1.86 12.42
12/26/2021 8:45:00 PM 4.12 39.416 0.058 7.19 1.99 12.44
12/26/2021 9:00:00 PM 4.06 39.308 0.058 7.18 1.87 12.46
12/26/2021 9:15:00 PM 4.03 39.254 0.058 7.17 2.37 12.47
12/26/2021 9:30:00 PM 3.99 39.182 0.058 7.18 1.93 12.49
12/26/2021 9:45:00 PM 3.95 39.11 0.058 7.18 1.86 12.5
12/26/2021 10:00:00 PM 3.91 39.038 0.058 7.17 2.26 12.52
12/26/2021 10:15:00 PM 3.87 38.966 0.058 7.17 1.98 12.55
12/26/2021 10:30:00 PM 3.83 38.894 0.058 7.17 1.94 12.56
12/26/2021 10:45:00 PM 3.8 38.84 0.058 7.17 2.01 12.58
12/26/2021 11:00:00 PM 3.77 38.786 0.058 7.16 1.94 12.59
12/26/2021 11:15:00 PM 3.74 38.732 0.058 7.17 1.9 12.62
12/26/2021 11:30:00 PM 3.7 38.66 0.058 7.17 1.89 12.63
12/26/2021 11:45:00 PM 3.66 38.588 0.058 7.17 1.75 12.65
12/27/2021 12:00:00 AM 3.61 38.498 0.058 7.17 1.76 12.66
12/27/2021 12:15:00 AM 3.57 38.426 0.058 7.16 1.82 12.68
12/27/2021 12:30:00 AM 3.53 38.354 0.058 7.16 1.83 12.7
12/27/2021 12:45:00 AM 3.51 38.318 0.058 7.16 1.84 12.71
12/27/2021 1:00:00 AM 3.47 38.246 0.058 7.16 1.76 12.73
12/27/2021 1:15:00 AM 3.44 38.192 0.058 7.16 1.78 12.73
12/27/2021 1:30:00 AM 3.4 38.12 0.058 7.16 1.84 12.74
12/27/2021 1:45:00 AM 3.35 38.03 0.058 7.16 1.84 12.76
12/27/2021 2:00:00 AM 3.3 37.94 0.058 7.16 1.87 12.77
12/27/2021 2:15:00 AM 3.25 37.85 0.058 7.16 1.78 12.78
12/27/2021 2:30:00 AM 3.21 37.778 0.058 7.16 1.82 12.79
12/27/2021 2:45:00 AM 3.18 37.724 0.058 7.16 1.88 12.8
12/27/2021 3:00:00 AM 3.15 37.67 0.058 7.16 1.78 12.81
12/27/2021 3:15:00 AM 3.13 37.634 0.058 7.16 1.77 12.81
12/27/2021 3:30:00 AM 3.11 37.598 0.058 7.16 1.74 12.82
12/27/2021 3:45:00 AM 3.1 37.58 0.058 7.16 1.81 12.82
12/27/2021 4:00:00 AM 3.08 37.544 0.058 7.16 1.83 12.83
12/27/2021 4:15:00 AM 3.06 37.508 0.058 7.16 1.83 12.84
12/27/2021 4:30:00 AM 3.05 37.49 0.058 7.16 1.78 12.84
12/27/2021 4:45:00 AM 3.04 37.472 0.058 7.16 1.75 12.84
12/27/2021 5:00:00 AM 3.02 37.436 0.058 7.15 2.01 12.84
12/27/2021 5:15:00 AM 3.01 37.418 0.058 7.16 1.98 12.84
12/27/2021 5:30:00 AM 2.99 37.382 0.058 7.17 1.74 12.84
12/27/2021 5:45:00 AM 2.99 37.382 0.058 7.16 1.79 12.84
12/27/2021 6:00:00 AM 2.98 37.364 0.058 7.16 1.76 12.84
12/27/2021 6:15:00 AM 2.97 37.346 0.058 7.16 1.74 12.85
12/27/2021 6:30:00 AM 2.96 37.328 0.058 7.17 1.84 12.85
12/27/2021 6:45:00 AM 2.96 37.328 0.058 7.17 1.82 12.84
12/27/2021 7:00:00 AM 2.95 37.31 0.058 7.17 1.75 12.84
12/27/2021 7:15:00 AM 2.95 37.31 0.059 7.17 1.69 12.85
12/27/2021 7:30:00 AM 2.95 37.31 0.059 7.16 1.81 12.85
12/27/2021 7:45:00 AM 2.96 37.328 0.059 7.17 1.78 12.85
12/27/2021 8:00:00 AM 2.96 37.328 0.059 7.17 1.72 12.85
12/27/2021 8:15:00 AM 2.96 37.328 0.059 7.17 1.63 12.86
12/27/2021 8:30:00 AM 2.97 37.346 0.058 7.17 1.71 12.88
12/27/2021 8:45:00 AM 2.95 37.31 0.058 7.2 1.65 12.92
12/27/2021 9:00:00 AM 2.91 37.238 0.058 7.2 1.65 12.96
12/27/2021 9:15:00 AM 2.92 37.256 0.058 7.21 1.59 13.03
12/27/2021 9:30:00 AM 2.92 37.256 0.058 7.23 1.72 13.08
12/27/2021 9:45:00 AM 2.95 37.31 0.058 7.26 1.7 13.15
12/27/2021 10:00:00 AM 2.97 37.346 0.058 7.27 1.57 13.21
12/27/2021 10:15:00 AM 2.94 37.292 0.058 7.29 1.65 13.24
12/27/2021 10:30:00 AM 2.98 37.364 0.058 7.31 1.73 13.27
12/27/2021 10:45:00 AM 3 37.4 0.057 7.32 1.59 13.29
12/27/2021 11:00:00 AM 3.01 37.418 0.057 7.34 1.63 13.3
12/27/2021 11:15:00 AM 2.99 37.382 0.057 7.35 1.69 13.33
12/27/2021 11:30:00 AM 2.97 37.346 0.057 7.35 1.63 13.32
12/27/2021 11:45:00 AM 2.97 37.346 0.057 7.36 1.64 13.32
12/27/2021 12:00:00 PM 2.97 37.346 0.057 7.35 1.68 13.29
12/27/2021 12:15:00 PM 2.95 37.31 0.057 7.35 1.66 13.29
12/27/2021 12:30:00 PM 2.95 37.31 0.057 7.36 1.65 13.31
12/27/2021 12:45:00 PM 2.97 37.346 0.057 7.39 1.76 13.32
12/27/2021 1:00:00 PM 3.01 37.418 0.058 7.38 2.27 13.3
12/27/2021 1:15:00 PM 3.03 37.454 0.058 7.37 1.7 13.27
12/27/2021 1:30:00 PM 3.06 37.508 0.057 7.36 1.83 13.25
12/27/2021 1:45:00 PM 3.07 37.526 0.057 7.36 1.66 13.22
12/27/2021 2:00:00 PM 3.09 37.562 0.057 7.35 1.57 13.19
12/27/2021 2:15:00 PM 3.11 37.598 0.057 7.35 1.59 13.16
12/27/2021 2:30:00 PM 3.12 37.616 0.057 7.34 1.63 13.14
12/27/2021 2:45:00 PM 3.13 37.634 0.057 7.34 1.65 13.1
12/27/2021 3:00:00 PM 3.14 37.652 0.057 7.32 1.57 13.06
12/27/2021 3:15:00 PM 3.15 37.67 0.057 7.3 1.54 13.03
12/27/2021 3:30:00 PM 3.16 37.688 0.057 7.3 1.62 12.98
12/27/2021 3:45:00 PM 3.17 37.706 0.057 7.29 1.6 12.96
12/27/2021 4:00:00 PM 3.19 37.742 0.057 7.27 1.63 12.92
12/27/2021 4:15:00 PM 3.2 37.76 0.057 7.26 1.62 12.88
12/27/2021 4:30:00 PM 3.21 37.778 0.057 7.25 1.55 12.84
12/27/2021 4:45:00 PM 3.23 37.814 0.057 7.25 1.61 12.8
12/27/2021 5:00:00 PM 3.23 37.814 0.057 7.24 1.61 12.76
12/27/2021 5:15:00 PM 3.24 37.832 0.057 7.22 1.73 12.74
12/27/2021 5:30:00 PM 3.24 37.832 0.057 7.21 1.68 12.72
12/27/2021 5:45:00 PM 3.25 37.85 0.058 7.22 1.67 12.7
12/27/2021 6:00:00 PM 3.26 37.868 0.058 7.2 1.66 12.69
12/27/2021 6:15:00 PM 3.26 37.868 0.058 7.2 1.73 12.68
12/27/2021 6:30:00 PM 3.26 37.868 0.058 7.2 1.64 12.67
12/27/2021 6:45:00 PM 3.27 37.886 0.058 7.19 1.68 12.66
12/27/2021 7:00:00 PM 3.27 37.886 0.058 7.19 1.65 12.66
12/27/2021 7:15:00 PM 3.29 37.922 0.059 7.19 1.71 12.65
12/27/2021 7:30:00 PM 3.3 37.94 0.059 7.2 1.78 12.64
12/27/2021 7:45:00 PM 3.31 37.958 0.059 7.18 1.84 12.63
12/27/2021 8:00:00 PM 3.32 37.976 0.059 7.17 1.77 12.63
12/27/2021 8:15:00 PM 3.32 37.976 0.059 7.18 1.78 12.63
12/27/2021 8:30:00 PM 3.33 37.994 0.059 7.17 1.7 12.62
12/27/2021 8:45:00 PM 3.34 38.012 0.059 7.18 1.69 12.61
12/27/2021 9:00:00 PM 3.35 38.03 0.059 7.16 1.77 12.62
12/27/2021 9:15:00 PM 3.35 38.03 0.059 7.18 1.75 12.61
12/27/2021 9:30:00 PM 3.36 38.048 0.059 7.18 1.74 12.6
12/27/2021 9:45:00 PM 3.37 38.066 0.059 7.16 1.83 12.6
12/27/2021 10:00:00 PM 3.38 38.084 0.059 7.17 1.78 12.6
12/27/2021 10:15:00 PM 3.39 38.102 0.059 7.17 1.81 12.59
12/27/2021 10:30:00 PM 3.4 38.12 0.059 7.17 1.81 12.59
12/27/2021 10:45:00 PM 3.41 38.138 0.059 7.17 1.75 12.59
12/27/2021 11:00:00 PM 3.42 38.156 0.059 7.17 1.79 12.58
12/27/2021 11:15:00 PM 3.43 38.174 0.059 7.16 1.82 12.59
12/27/2021 11:30:00 PM 3.44 38.192 0.059 7.16 1.71 12.59
12/27/2021 11:45:00 PM 3.45 38.21 0.059 7.16 1.89 12.58
12/28/2021 12:00:00 AM 3.46 38.228 0.059 7.16 1.72 12.57
12/28/2021 12:15:00 AM 3.46 38.228 0.059 7.17 1.73 12.58
12/28/2021 12:30:00 AM 3.47 38.246 0.059 7.16 1.77 12.57
12/28/2021 12:45:00 AM 3.48 38.264 0.059 7.16 1.86 12.58
12/28/2021 1:00:00 AM 3.49 38.282 0.059 7.16 1.8 12.57
12/28/2021 1:15:00 AM 3.5 38.3 0.059 7.16 1.81 12.57
12/28/2021 1:30:00 AM 3.51 38.318 0.059 7.16 1.85 12.57
12/28/2021 1:45:00 AM 3.52 38.336 0.06 7.16 1.8 12.57
12/28/2021 2:00:00 AM 3.51 38.318 0.06 7.16 1.73 12.57
12/28/2021 2:15:00 AM 3.51 38.318 0.06 7.16 1.74 12.57
12/28/2021 2:30:00 AM 3.52 38.336 0.059 7.16 1.71 12.57
12/28/2021 2:45:00 AM 3.52 38.336 0.059 7.16 1.75 12.57
12/28/2021 3:00:00 AM 3.52 38.336 0.059 7.17 1.75 12.57
12/28/2021 3:15:00 AM 3.51 38.318 0.058 7.16 1.79 12.58
12/28/2021 3:30:00 AM 3.5 38.3 0.058 7.16 1.91 12.58
12/28/2021 3:45:00 AM 3.49 38.282 0.058 7.16 1.89 12.59
12/28/2021 4:00:00 AM 3.48 38.264 0.058 7.17 1.71 12.59
12/28/2021 4:15:00 AM 3.48 38.264 0.058 7.16 1.78 12.59
12/28/2021 4:30:00 AM 3.48 38.264 0.058 7.16 1.71 12.59
12/28/2021 4:45:00 AM 3.47 38.246 0.058 7.16 1.71 12.6
12/28/2021 5:00:00 AM 3.46 38.228 0.058 7.16 1.66 12.6
12/28/2021 5:15:00 AM 3.44 38.192 0.058 7.16 1.7 12.6
12/28/2021 5:30:00 AM 3.41 38.138 0.058 7.15 1.78 12.61
12/28/2021 5:45:00 AM 3.39 38.102 0.058 7.16 1.73 12.62
12/28/2021 6:00:00 AM 3.37 38.066 0.058 7.16 1.75 12.62
12/28/2021 6:15:00 AM 3.35 38.03 0.058 7.16 1.76 12.63
12/28/2021 6:30:00 AM 3.32 37.976 0.058 7.16 1.74 12.64
12/28/2021 6:45:00 AM 3.3 37.94 0.058 7.16 1.77 12.65
12/28/2021 7:00:00 AM 3.27 37.886 0.058 7.16 1.66 12.65
12/28/2021 7:15:00 AM 3.25 37.85 0.058 7.16 1.76 12.67
12/28/2021 7:30:00 AM 3.22 37.796 0.058 7.14 1.85 12.68
12/28/2021 7:45:00 AM 3.2 37.76 0.058 7.16 1.77 12.7
12/28/2021 8:00:00 AM 3.17 37.706 0.058 7.16 1.83 12.74
12/28/2021 8:15:00 AM 3.15 37.67 0.058 7.18 1.77 12.81
12/28/2021 8:30:00 AM 3.13 37.634 0.058 7.19 1.61 12.87
12/28/2021 8:45:00 AM 3.11 37.598 0.058 7.22 1.74 12.94
12/28/2021 9:00:00 AM 3.09 37.562 0.058 7.22 1.71 12.99
12/28/2021 9:15:00 AM 3.09 37.562 0.058 7.23 1.68 13.05
12/28/2021 9:30:00 AM 3.11 37.598 0.058 7.25 1.63 13.12
12/28/2021 9:45:00 AM 3.13 37.634 0.058 7.27 1.65 13.16
12/28/2021 10:00:00 AM 3.2 37.76 0.058 7.29 1.69 13.19
12/28/2021 10:15:00 AM 3.26 37.868 0.058 7.31 1.82 13.22
12/28/2021 10:30:00 AM 3.32 37.976 0.057 7.32 1.65 13.25
12/28/2021 10:45:00 AM 3.37 38.066 0.057 7.34 1.65 13.25
12/28/2021 11:00:00 AM 3.44 38.192 0.057 7.36 1.73 13.26
12/28/2021 11:15:00 AM 3.54 38.372 0.057 7.38 1.74 13.25
12/28/2021 11:30:00 AM 3.65 38.57 0.057 7.4 1.63 13.25
12/28/2021 11:45:00 AM 3.75 38.75 0.057 7.41 1.68 13.24
12/28/2021 12:00:00 PM 3.82 38.876 0.057 7.41 1.59 13.22
12/28/2021 12:15:00 PM 3.86 38.948 0.057 7.41 1.73 13.19
12/28/2021 12:30:00 PM 3.9 39.02 0.057 7.41 1.6 13.16
12/28/2021 12:45:00 PM 3.95 39.11 0.057 7.42 1.63 13.14
12/28/2021 1:00:00 PM 3.98 39.164 0.057 7.42 1.57 13.11
12/28/2021 1:15:00 PM 4 39.2 0.057 7.41 1.62 13.07
12/28/2021 1:30:00 PM 4.02 39.236 0.057 7.41 1.67 13.05
12/28/2021 1:45:00 PM 4.06 39.308 0.057 7.42 1.58 13.04
12/28/2021 2:00:00 PM 4.11 39.398 0.057 7.42 1.6 13.03
12/28/2021 2:15:00 PM 4.16 39.488 0.057 7.43 1.52 13
12/28/2021 2:30:00 PM 4.19 39.542 0.054 7.42 3.56 12.95
12/28/2021 2:45:00 PM 4.22 39.596 0.057 7.4 1.58 12.88
12/28/2021 3:00:00 PM 4.24 39.632 0.057 7.37 1.55 12.8
12/28/2021 3:15:00 PM 4.24 39.632 0.057 7.35 1.56 12.73
12/28/2021 3:30:00 PM 4.25 39.65 0.057 7.34 1.48 12.7
12/28/2021 3:45:00 PM 4.26 39.668 0.057 7.31 1.56 12.66
12/28/2021 4:00:00 PM 4.26 39.668 0.057 7.3 1.66 12.62
12/28/2021 4:15:00 PM 4.25 39.65 0.057 7.29 1.48 12.58
12/28/2021 4:30:00 PM 4.24 39.632 0.058 7.28 1.55 12.54
12/28/2021 4:45:00 PM 4.23 39.614 0.058 7.26 1.6 12.5
12/28/2021 5:00:00 PM 4.22 39.596 0.058 7.24 1.65 12.47
12/28/2021 5:15:00 PM 4.21 39.578 0.058 7.23 1.61 12.45
12/28/2021 5:30:00 PM 4.18 39.524 0.058 7.23 1.61 12.43
12/28/2021 5:45:00 PM 4.14 39.452 0.058 7.21 1.79 12.42
12/28/2021 6:00:00 PM 4.09 39.362 0.058 7.21 1.65 12.43
12/28/2021 6:15:00 PM 4 39.2 0.058 7.2 1.66 12.43
12/28/2021 6:30:00 PM 3.89 39.002 0.058 7.2 1.79 12.44
12/28/2021 6:45:00 PM 3.79 38.822 0.058 7.19 1.77 12.45
12/28/2021 7:00:00 PM 3.66 38.588 0.058 7.18 1.77 12.47
12/28/2021 7:15:00 PM 3.53 38.354 0.058 7.18 1.71 12.5
12/28/2021 7:30:00 PM 3.35 38.03 0.058 7.18 1.81 12.53
12/28/2021 7:45:00 PM 3.24 37.832 0.058 7.17 1.76 12.56
12/28/2021 8:00:00 PM 3.17 37.706 0.058 7.17 1.9 12.59
12/28/2021 8:15:00 PM 3.08 37.544 0.057 7.17 1.76 12.62
12/28/2021 8:30:00 PM 3.01 37.418 0.057 7.17 2.01 12.65
12/28/2021 8:45:00 PM 2.94 37.292 0.057 7.16 1.92 12.68
12/28/2021 9:00:00 PM 2.93 37.274 0.057 7.16 1.85 12.7
12/28/2021 9:15:00 PM 2.9 37.22 0.057 7.15 1.9 12.73
12/28/2021 9:30:00 PM 2.9 37.22 0.058 7.15 1.91 12.74
12/28/2021 9:45:00 PM 2.9 37.22 0.058 7.16 1.86 12.75
12/28/2021 10:00:00 PM 2.91 37.238 0.058 7.16 1.92 12.76
12/28/2021 10:15:00 PM 2.91 37.238 0.058 7.17 1.85 12.76
12/28/2021 10:30:00 PM 2.92 37.256 0.057 7.15 1.85 12.76
12/28/2021 10:45:00 PM 2.94 37.292 0.057 7.16 1.8 12.75
12/28/2021 11:00:00 PM 2.97 37.346 0.057 7.16 1.88 12.74
12/28/2021 11:15:00 PM 2.99 37.382 0.057 7.15 1.91 12.73
12/28/2021 11:30:00 PM 3 37.4 0.057 7.16 1.84 12.73
12/28/2021 11:45:00 PM 3.01 37.418 0.057 7.15 1.98 12.72
12/29/2021 12:00:00 AM 3.02 37.436 0.057 7.15 1.89 12.72
12/29/2021 12:15:00 AM 3.03 37.454 0.057 7.15 1.83 12.72
12/29/2021 12:30:00 AM 3.03 37.454 0.057 7.15 1.98 12.72
12/29/2021 12:45:00 AM 3.04 37.472 0.057 7.15 1.98 12.71
12/29/2021 1:00:00 AM 3.05 37.49 0.057 7.15 1.81 12.71
12/29/2021 1:15:00 AM 3.06 37.508 0.058 7.15 1.86 12.7
12/29/2021 1:30:00 AM 3.07 37.526 0.058 7.15 1.95 12.7
12/29/2021 1:45:00 AM 3.09 37.562 0.058 7.15 1.86 12.69
12/29/2021 2:00:00 AM 3.1 37.58 0.058 7.15 2.08 12.69
12/29/2021 2:15:00 AM 3.12 37.616 0.058 7.15 1.98 12.68
12/29/2021 2:30:00 AM 3.14 37.652 0.058 7.15 1.93 12.67
12/29/2021 2:45:00 AM 3.16 37.688 0.058 7.15 2.05 12.67
12/29/2021 3:00:00 AM 3.18 37.724 0.058 7.15 1.96 12.65
12/29/2021 3:15:00 AM 3.19 37.742 0.058 7.15 1.92 12.65
12/29/2021 3:30:00 AM 3.21 37.778 0.058 7.15 1.92 12.65
12/29/2021 3:45:00 AM 3.22 37.796 0.058 7.15 1.92 12.64
12/29/2021 4:00:00 AM 3.23 37.814 0.058 7.15 1.98 12.64
12/29/2021 4:15:00 AM 3.24 37.832 0.058 7.15 1.95 12.63
12/29/2021 4:30:00 AM 3.25 37.85 0.058 7.15 1.98 12.63
12/29/2021 4:45:00 AM 3.26 37.868 0.058 7.15 2.03 12.63
12/29/2021 5:00:00 AM 3.27 37.886 0.058 7.15 1.95 12.62
12/29/2021 5:15:00 AM 3.28 37.904 0.058 7.15 2.05 12.62
12/29/2021 5:30:00 AM 3.28 37.904 0.058 7.14 2.12 12.62
12/29/2021 5:45:00 AM 3.3 37.94 0.058 7.14 1.98 12.62
12/29/2021 6:00:00 AM 3.31 37.958 0.058 7.15 1.98 12.62
12/29/2021 6:15:00 AM 3.32 37.976 0.058 7.15 2.05 12.62
12/29/2021 6:30:00 AM 3.33 37.994 0.058 7.15 2.04 12.61
12/29/2021 6:45:00 AM 3.34 38.012 0.059 7.15 2.03 12.62
12/29/2021 7:00:00 AM 3.35 38.03 0.059 7.14 2.05 12.62
12/29/2021 7:15:00 AM 3.36 38.048 0.059 7.14 1.91 12.61
12/29/2021 7:30:00 AM 3.37 38.066 0.059 7.15 2.04 12.62
12/29/2021 7:45:00 AM 3.38 38.084 0.059 7.15 1.98 12.61
12/29/2021 8:00:00 AM 3.39 38.102 0.059 7.15 2.03 12.62
12/29/2021 8:15:00 AM 3.4 38.12 0.059 7.15 2.03 12.64
12/29/2021 8:30:00 AM 3.42 38.156 0.059 7.16 1.98 12.67
12/29/2021 8:45:00 AM 3.44 38.192 0.059 7.17 1.94 12.71
12/29/2021 9:00:00 AM 3.46 38.228 0.059 7.18 1.96 12.76
12/29/2021 9:15:00 AM 3.49 38.282 0.059 7.2 1.94 12.79
12/29/2021 9:30:00 AM 3.51 38.318 0.059 7.21 2.01 12.82
12/29/2021 9:45:00 AM 3.54 38.372 0.059 7.22 1.94 12.86
12/29/2021 10:00:00 AM 3.57 38.426 0.059 7.24 1.91 12.89
12/29/2021 10:15:00 AM 3.6 38.48 0.059 7.25 1.93 12.93
12/29/2021 10:30:00 AM 3.64 38.552 0.059 7.27 2 12.96
12/29/2021 10:45:00 AM 3.68 38.624 0.059 7.28 1.93 12.98
12/29/2021 11:00:00 AM 3.71 38.678 0.059 7.29 1.97 12.99
12/29/2021 11:15:00 AM 3.74 38.732 0.059 7.31 1.92 12.99
12/29/2021 11:30:00 AM 3.77 38.786 0.059 7.3 1.89 12.99
12/29/2021 11:45:00 AM 3.81 38.858 0.059 7.31 1.94 12.99
12/29/2021 12:00:00 PM 3.85 38.93 0.059 7.32 1.98 13
12/29/2021 12:15:00 PM 3.88 38.984 0.059 7.33 1.96 13
12/29/2021 12:30:00 PM 3.92 39.056 0.059 7.34 1.95 13
12/29/2021 12:45:00 PM 3.97 39.146 0.059 7.35 1.99 13.02
12/29/2021 1:00:00 PM 4.04 39.272 0.059 7.36 1.99 13.04
12/29/2021 1:15:00 PM 4.09 39.362 0.059 7.37 2.06 13.03
12/29/2021 1:30:00 PM 4.12 39.416 0.059 7.38 1.96 13.01
12/29/2021 1:45:00 PM 4.18 39.524 0.059 7.38 2.04 13
12/29/2021 2:00:00 PM 4.22 39.596 0.059 7.39 2 12.99
12/29/2021 2:15:00 PM 4.26 39.668 0.059 7.39 2.05 12.96
12/29/2021 2:30:00 PM 4.29 39.722 0.059 7.39 2.03 12.94
12/29/2021 2:45:00 PM 4.32 39.776 0.059 7.38 2.12 12.9
12/29/2021 3:00:00 PM 4.34 39.812 0.059 7.38 2.07 12.87
12/29/2021 3:15:00 PM 4.36 39.848 0.059 7.36 2.07 12.84
12/29/2021 3:30:00 PM 4.39 39.902 0.059 7.35 2.17 12.8
12/29/2021 3:45:00 PM 4.41 39.938 0.06 7.34 2.22 12.75
12/29/2021 4:00:00 PM 4.42 39.956 0.06 7.33 2.25 12.69
12/29/2021 4:15:00 PM 4.44 39.992 0.06 7.3 2.38 12.62
12/29/2021 4:30:00 PM 4.45 40.01 0.06 7.29 2.23 12.58
12/29/2021 4:45:00 PM 4.45 40.01 0.06 7.27 2.49 12.52
12/29/2021 5:00:00 PM 4.45 40.01 0.06 7.24 2.52 12.48
12/29/2021 5:15:00 PM 4.45 40.01 0.06 7.24 2.48 12.43
12/29/2021 5:30:00 PM 4.46 40.028 0.06 7.23 2.64 12.4
12/29/2021 5:45:00 PM 4.46 40.028 0.06 7.22 2.58 12.37
12/29/2021 6:00:00 PM 4.46 40.028 0.06 7.2 2.72 12.35
12/29/2021 6:15:00 PM 4.46 40.028 0.061 7.19 2.8 12.34
12/29/2021 6:30:00 PM 4.47 40.046 0.061 7.18 2.84 12.33
12/29/2021 6:45:00 PM 4.47 40.046 0.061 7.19 2.91 12.32
12/29/2021 7:00:00 PM 4.48 40.064 0.061 7.18 3.07 12.31
12/29/2021 7:15:00 PM 4.48 40.064 0.061 7.17 3.06 12.32
12/29/2021 7:30:00 PM 4.49 40.082 0.061 7.17 3.1 12.3
12/29/2021 7:45:00 PM 4.49 40.082 0.061 7.17 3.17 12.3
12/29/2021 8:00:00 PM 4.49 40.082 0.061 7.17 3.29 12.3
12/29/2021 8:15:00 PM 4.5 40.1 0.061 7.17 3.21 12.3
12/29/2021 8:30:00 PM 4.5 40.1 0.061 7.17 3.37 12.3
12/29/2021 8:45:00 PM 4.5 40.1 0.061 7.17 3.16 12.28
12/29/2021 9:00:00 PM 4.51 40.118 0.061 7.16 3.38 12.29
12/29/2021 9:15:00 PM 4.51 40.118 0.061 7.16 3.26 12.29
12/29/2021 9:30:00 PM 4.52 40.136 0.061 7.16 3.39 12.29
12/29/2021 9:45:00 PM 4.52 40.136 0.061 7.16 3.28 12.29
12/29/2021 10:00:00 PM 4.53 40.154 0.061 7.16 3.16 12.29
12/29/2021 10:15:00 PM 4.53 40.154 0.061 7.16 3.39 12.28
12/29/2021 10:30:00 PM 4.53 40.154 0.062 7.16 3.04 12.28
12/29/2021 10:45:00 PM 4.54 40.172 0.062 7.16 3.21 12.27
12/29/2021 11:00:00 PM 4.54 40.172 0.061 7.15 3.2 12.27
12/29/2021 11:15:00 PM 4.55 40.19 0.061 7.15 3.16 12.27
12/29/2021 11:30:00 PM 4.55 40.19 0.061 7.15 3.03 12.27
12/29/2021 11:45:00 PM 4.55 40.19 0.061 7.15 3.17 12.27
12/30/2021 12:00:00 AM 4.56 40.208 0.061 7.16 3.05 12.27
12/30/2021 12:15:00 AM 4.56 40.208 0.061 7.15 3.1 12.26
12/30/2021 12:30:00 AM 4.56 40.208 0.061 7.15 3 12.26
12/30/2021 12:45:00 AM 4.56 40.208 0.061 7.15 3.18 12.26
12/30/2021 1:00:00 AM 4.57 40.226 0.061 7.15 3.1 12.25
12/30/2021 1:15:00 AM 4.57 40.226 0.061 7.15 3.03 12.25
12/30/2021 1:30:00 AM 4.57 40.226 0.061 7.15 2.91 12.26
12/30/2021 1:45:00 AM 4.57 40.226 0.061 7.16 2.83 12.25
12/30/2021 2:00:00 AM 4.58 40.244 0.061 7.15 2.96 12.25
12/30/2021 2:15:00 AM 4.58 40.244 0.061 7.14 2.77 12.25
12/30/2021 2:30:00 AM 4.58 40.244 0.061 7.15 2.91 12.25
12/30/2021 2:45:00 AM 4.59 40.262 0.061 7.15 2.83 12.25
12/30/2021 3:00:00 AM 4.59 40.262 0.061 7.15 2.82 12.24
12/30/2021 3:15:00 AM 4.59 40.262 0.061 7.15 2.85 12.25
12/30/2021 3:30:00 AM 4.6 40.28 0.061 7.15 2.8 12.25
12/30/2021 3:45:00 AM 4.6 40.28 0.061 7.17 2.74 12.25
12/30/2021 4:00:00 AM 4.6 40.28 0.061 7.15 2.81 12.24
12/30/2021 4:15:00 AM 4.61 40.298 0.061 7.14 2.69 12.24
12/30/2021 4:30:00 AM 4.61 40.298 0.061 7.15 2.8 12.24
12/30/2021 4:45:00 AM 4.62 40.316 0.061 7.15 2.61 12.24
12/30/2021 5:00:00 AM 4.62 40.316 0.061 7.15 2.83 12.24
12/30/2021 5:15:00 AM 4.62 40.316 0.061 7.15 2.74 12.24
12/30/2021 5:30:00 AM 4.63 40.334 0.061 7.17 2.72 12.23
12/30/2021 5:45:00 AM 4.63 40.334 0.06 7.15 2.8 12.24
12/30/2021 6:00:00 AM 4.64 40.352 0.06 7.15 2.55 12.24
12/30/2021 6:15:00 AM 4.64 40.352 0.06 7.14 2.86 12.24
12/30/2021 6:30:00 AM 4.65 40.37 0.06 7.14 2.52 12.24
12/30/2021 6:45:00 AM 4.65 40.37 0.06 7.15 2.61 12.23
12/30/2021 7:00:00 AM 4.66 40.388 0.06 7.15 2.56 12.23
12/30/2021 7:15:00 AM 4.66 40.388 0.06 7.15 2.72 12.24
12/30/2021 7:30:00 AM 4.67 40.406 0.06 7.15 2.63 12.24
12/30/2021 7:45:00 AM 4.68 40.424 0.06 7.15 2.58 12.24
12/30/2021 8:00:00 AM 4.68 40.424 0.06 7.16 2.65 12.24
12/30/2021 8:15:00 AM 4.69 40.442 0.06 7.15 2.62 12.26
12/30/2021 8:30:00 AM 4.7 40.46 0.06 7.16 2.64 12.29
12/30/2021 8:45:00 AM 4.72 40.496 0.06 7.17 2.69 12.3
12/30/2021 9:00:00 AM 4.73 40.514 0.06 7.18 2.65 12.33
12/30/2021 9:15:00 AM 4.75 40.55 0.06 7.18 2.5 12.36
12/30/2021 9:30:00 AM 4.77 40.586 0.06 7.2 2.63 12.4
12/30/2021 9:45:00 AM 4.81 40.658 0.059 7.22 2.56 12.48
12/30/2021 10:00:00 AM 4.87 40.766 0.059 7.25 2.6 12.55
12/30/2021 10:15:00 AM 4.91 40.838 0.059 7.29 2.51 12.58
12/30/2021 10:30:00 AM 4.95 40.91 0.059 7.3 2.5 12.62
12/30/2021 10:45:00 AM 5 41 0.059 7.31 2.36 12.64
12/30/2021 11:00:00 AM 5.05 41.09 0.059 7.32 2.44 12.66
12/30/2021 11:15:00 AM 5.1 41.18 0.059 7.33 2.47 12.67
12/30/2021 11:30:00 AM 5.14 41.252 0.059 7.34 2.56 12.66
12/30/2021 11:45:00 AM 5.2 41.36 0.059 7.35 2.44 12.66
12/30/2021 12:00:00 PM 5.25 41.45 0.058 7.36 2.51 12.66
12/30/2021 12:15:00 PM 5.31 41.558 0.058 7.38 2.4 12.65
12/30/2021 12:30:00 PM 5.36 41.648 0.058 7.38 2.47 12.63
12/30/2021 12:45:00 PM 5.42 41.756 0.058 7.39 2.63 12.6
12/30/2021 1:00:00 PM 5.48 41.864 0.058 7.41 2.41 12.58
12/30/2021 1:15:00 PM 5.54 41.972 0.058 7.41 2.6 12.56
12/30/2021 1:30:00 PM 5.6 42.08 0.058 7.41 2.52 12.54
12/30/2021 1:45:00 PM 5.66 42.188 0.058 7.41 2.52 12.52
12/30/2021 2:00:00 PM 5.72 42.296 0.058 7.41 2.56 12.5
12/30/2021 2:15:00 PM 5.77 42.386 0.058 7.42 2.43 12.47
12/30/2021 2:30:00 PM 5.83 42.494 0.058 7.42 2.52 12.46
12/30/2021 2:45:00 PM 5.86 42.548 0.058 7.42 2.54 12.43
12/30/2021 3:00:00 PM 5.88 42.584 0.057 7.4 2.52 12.37
12/30/2021 3:15:00 PM 5.9 42.62 0.057 7.39 2.6 12.32
12/30/2021 3:30:00 PM 5.91 42.638 0.058 7.36 2.54 12.25
12/30/2021 3:45:00 PM 5.92 42.656 0.058 7.34 2.51 12.23
12/30/2021 4:00:00 PM 5.94 42.692 0.058 7.32 2.53 12.19
12/30/2021 4:15:00 PM 5.94 42.692 0.057 7.31 2.54 12.17
12/30/2021 4:30:00 PM 5.95 42.71 0.057 7.29 2.47 12.12
12/30/2021 4:45:00 PM 5.95 42.71 0.057 7.28 2.66 12.07
12/30/2021 5:00:00 PM 5.95 42.71 0.058 7.27 2.61 12.02
12/30/2021 5:15:00 PM 5.95 42.71 0.058 7.23 2.54 11.98
12/30/2021 5:30:00 PM 5.95 42.71 0.058 7.21 2.64 11.94
12/30/2021 5:45:00 PM 5.94 42.692 0.058 7.2 2.78 11.91
12/30/2021 6:00:00 PM 5.95 42.71 0.058 7.19 2.83 11.89
12/30/2021 6:15:00 PM 5.95 42.71 0.058 7.18 2.78 11.87
12/30/2021 6:30:00 PM 5.94 42.692 0.058 7.16 2.86 11.86
12/30/2021 6:45:00 PM 5.94 42.692 0.058 7.15 2.86 11.86
12/30/2021 7:00:00 PM 5.93 42.674 0.058 7.15 2.95 11.85
12/30/2021 7:15:00 PM 5.92 42.656 0.058 7.14 3.03 11.85
12/30/2021 7:30:00 PM 5.9 42.62 0.058 7.14 2.77 11.85
12/30/2021 7:45:00 PM 5.89 42.602 0.058 7.14 2.74 11.85
12/30/2021 8:00:00 PM 5.89 42.602 0.058 7.13 2.86 11.85
12/30/2021 8:15:00 PM 5.89 42.602 0.058 7.13 3.04 11.85
12/30/2021 8:30:00 PM 5.9 42.62 0.058 7.13 3.01 11.85
12/30/2021 8:45:00 PM 5.91 42.638 0.058 7.13 3.13 11.85
12/30/2021 9:00:00 PM 5.91 42.638 0.058 7.12 3.05 11.84
12/30/2021 9:15:00 PM 5.92 42.656 0.057 7.13 3.04 11.84
12/30/2021 9:30:00 PM 5.92 42.656 0.057 7.12 3 11.84
12/30/2021 9:45:00 PM 5.92 42.656 0.057 7.12 3.15 11.84
12/30/2021 10:00:00 PM 5.92 42.656 0.057 7.13 2.95 11.85
12/30/2021 10:15:00 PM 5.92 42.656 0.057 7.12 2.93 11.85
12/30/2021 10:30:00 PM 5.93 42.674 0.057 7.12 2.89 11.84
12/30/2021 10:45:00 PM 5.93 42.674 0.057 7.12 2.91 11.84
12/30/2021 11:00:00 PM 5.94 42.692 0.057 7.11 2.89 11.84
12/30/2021 11:15:00 PM 5.94 42.692 0.057 7.12 2.97 11.83
12/30/2021 11:30:00 PM 5.94 42.692 0.057 7.1 3.05 11.84
12/30/2021 11:45:00 PM 5.95 42.71 0.057 7.11 2.79 11.84
12/31/2021 12:00:00 AM 5.95 42.71 0.057 7.11 2.79 11.83
12/31/2021 12:15:00 AM 5.95 42.71 0.057 7.11 2.89 11.83
12/31/2021 12:30:00 AM 5.95 42.71 0.057 7.1 2.9 11.83
12/31/2021 12:45:00 AM 5.95 42.71 0.057 7.11 2.85 11.83
12/31/2021 1:00:00 AM 5.95 42.71 0.057 7.1 2.94 11.84
12/31/2021 1:15:00 AM 5.95 42.71 0.057 7.12 2.93 11.83
12/31/2021 1:30:00 AM 5.95 42.71 0.057 7.11 2.91 11.84
12/31/2021 1:45:00 AM 5.95 42.71 0.057 7.1 3.03 11.84
12/31/2021 2:00:00 AM 5.95 42.71 0.057 7.1 3.08 11.83
12/31/2021 2:15:00 AM 5.95 42.71 0.057 7.1 2.91 11.84
12/31/2021 2:30:00 AM 5.95 42.71 0.057 7.1 2.99 11.83
12/31/2021 2:45:00 AM 5.95 42.71 0.057 7.1 2.93 11.83
12/31/2021 3:00:00 AM 5.95 42.71 0.056 7.1 2.85 11.84
12/31/2021 3:15:00 AM 5.95 42.71 0.056 7.11 3.08 11.83
12/31/2021 3:30:00 AM 5.94 42.692 0.056 7.1 2.96 11.83
12/31/2021 3:45:00 AM 5.94 42.692 0.056 7.1 2.91 11.83
12/31/2021 4:00:00 AM 5.94 42.692 0.056 7.09 3.02 11.83
12/31/2021 4:15:00 AM 5.94 42.692 0.056 7.1 2.78 11.83
12/31/2021 4:30:00 AM 5.93 42.674 0.056 7.09 2.95 11.83
12/31/2021 4:45:00 AM 5.93 42.674 0.056 7.09 2.82 11.83
12/31/2021 5:00:00 AM 5.93 42.674 0.056 7.09 2.99 11.83
12/31/2021 5:15:00 AM 5.92 42.656 0.056 7.09 3.01 11.82
12/31/2021 5:30:00 AM 5.92 42.656 0.056 7.09 2.93 11.83
12/31/2021 5:45:00 AM 5.92 42.656 0.056 7.1 2.91 11.83
12/31/2021 6:00:00 AM 5.92 42.656 0.056 7.09 3.15 11.83
12/31/2021 6:15:00 AM 5.92 42.656 0.056 7.08 2.91 11.83
12/31/2021 6:30:00 AM 5.92 42.656 0.056 7.09 2.84 11.83
12/31/2021 6:45:00 AM 5.92 42.656 0.056 7.09 2.94 11.83
12/31/2021 7:00:00 AM 5.91 42.638 0.056 7.09 2.94 11.84
12/31/2021 7:15:00 AM 5.91 42.638 0.056 7.11 3 11.84
12/31/2021 7:30:00 AM 5.9 42.62 0.056 7.09 3.11 11.84
12/31/2021 7:45:00 AM 5.9 42.62 0.055 7.12 4.8 11.84
12/31/2021 8:00:00 AM 5.91 42.638 0.056 7.09 2.81 11.86
12/31/2021 8:15:00 AM 5.91 42.638 0.056 7.09 2.85 11.88
12/31/2021 8:30:00 AM 5.92 42.656 0.056 7.11 2.88 11.94
12/31/2021 8:45:00 AM 5.93 42.674 0.056 7.12 2.95 11.98
12/31/2021 9:00:00 AM 5.94 42.692 0.056 7.14 2.89 12.05
12/31/2021 9:15:00 AM 5.97 42.746 0.055 7.17 2.74 12.11
12/31/2021 9:30:00 AM 5.99 42.782 0.055 7.17 2.76 12.16
12/31/2021 9:45:00 AM 6.02 42.836 0.055 7.2 2.72 12.18
12/31/2021 10:00:00 AM 6.06 42.908 0.055 7.2 2.84 12.19
12/31/2021 10:15:00 AM 6.09 42.962 0.055 7.21 2.76 12.18
12/31/2021 10:30:00 AM 6.12 43.016 0.055 7.22 2.74 12.2
12/31/2021 10:45:00 AM 6.18 43.124 0.055 7.25 2.78 12.24
12/31/2021 11:00:00 AM 6.23 43.214 0.055 7.26 2.71 12.25
12/31/2021 11:15:00 AM 6.27 43.286 0.055 7.28 2.74 12.26
12/31/2021 11:30:00 AM 6.34 43.412 0.055 7.29 2.72 12.26
12/31/2021 11:45:00 AM 6.41 43.538 0.055 7.31 2.69 12.26
12/31/2021 12:00:00 PM 6.48 43.664 0.054 7.33 2.58 12.26
12/31/2021 12:15:00 PM 6.56 43.808 0.054 7.34 2.59 12.27
12/31/2021 12:30:00 PM 6.64 43.952 0.054 7.36 2.58 12.26
12/31/2021 12:45:00 PM 6.71 44.078 0.054 7.37 2.59 12.24
12/31/2021 1:00:00 PM 6.79 44.222 0.054 7.38 2.6 12.23
12/31/2021 1:15:00 PM 6.88 44.384 0.054 7.38 2.8 12.23
12/31/2021 1:30:00 PM 6.98 44.564 0.054 7.4 2.69 12.21
12/31/2021 1:45:00 PM 7.07 44.726 0.053 7.41 4.52 12.17
12/31/2021 2:00:00 PM 7.11 44.798 0.054 7.43 2.69 12.12
12/31/2021 2:15:00 PM 7.17 44.906 0.054 7.4 2.71 12.1
12/31/2021 2:30:00 PM 7.25 45.05 0.054 7.41 2.66 12.07
12/31/2021 2:45:00 PM 7.3 45.14 0.054 7.41 2.59 12.02
12/31/2021 3:00:00 PM 7.33 45.194 0.051 7.4 4.64 12
12/31/2021 3:15:00 PM 7.34 45.212 0.053 7.39 4.74 11.95
12/31/2021 3:30:00 PM 7.34 45.212 0.053 7.4 4.44 11.9
12/31/2021 3:45:00 PM 7.33 45.194 0.054 7.38 2.68 11.86
12/31/2021 4:00:00 PM 7.32 45.176 0.054 7.33 2.79 11.82
12/31/2021 4:15:00 PM 7.29 45.122 0.051 7.31 4.64 11.75
12/31/2021 4:30:00 PM 7.26 45.068 0.054 7.29 2.76 11.68
12/31/2021 4:45:00 PM 7.22 44.996 0.054 7.25 2.77 11.63
12/31/2021 5:00:00 PM 7.19 44.942 0.053 7.23 4.65 11.59
12/31/2021 5:15:00 PM 7.15 44.87 0.053 7.22 4.67 11.56
12/31/2021 5:30:00 PM 7.12 44.816 0.054 7.2 2.78 11.53
12/31/2021 5:45:00 PM 7.09 44.762 0.051 7.16 5.17 11.52
12/31/2021 6:00:00 PM 7.06 44.708 0.054 7.18 3.01 11.49
12/31/2021 6:15:00 PM 7.04 44.672 0.054 7.14 3.08 11.49
12/31/2021 6:30:00 PM 7.01 44.618 0.053 7.14 4.75 11.49
12/31/2021 6:45:00 PM 7 44.6 0.054 7.14 2.99 11.49
12/31/2021 7:00:00 PM 6.98 44.564 0.051 7.12 4.94 11.48
12/31/2021 7:15:00 PM 6.97 44.546 0.054 7.11 3.28 11.49
12/31/2021 7:30:00 PM 6.95 44.51 0.054 7.11 3.01 11.49
12/31/2021 7:45:00 PM 6.92 44.456 0.054 7.12 3.05 11.48
12/31/2021 8:00:00 PM 6.89 44.402 0.051 7.1 4.82 11.5
12/31/2021 8:15:00 PM 6.86 44.348 0.054 7.1 3.14 11.5
12/31/2021 8:30:00 PM 6.83 44.294 0.054 7.11 2.95 11.51
12/31/2021 8:45:00 PM 6.8 44.24 0.054 7.11 2.92 11.52
12/31/2021 9:00:00 PM 6.77 44.186 0.054 7.1 3.18 11.52
12/31/2021 9:15:00 PM 6.75 44.15 0.054 7.09 2.96 11.54
12/31/2021 9:30:00 PM 6.72 44.096 0.054 7.1 3.01 11.55
12/31/2021 9:45:00 PM 6.7 44.06 0.054 7.09 3.06 11.55
12/31/2021 10:00:00 PM 6.67 44.006 0.054 7.11 3.12 11.56
12/31/2021 10:15:00 PM 6.64 43.952 0.054 7.09 3.19 11.58
12/31/2021 10:30:00 PM 6.61 43.898 0.054 7.1 3.12 11.59
12/31/2021 10:45:00 PM 6.59 43.862 0.054 7.1 3.04 11.6
12/31/2021 11:00:00 PM 6.57 43.826 0.054 7.1 3.11 11.6
12/31/2021 11:15:00 PM 6.55 43.79 0.054 7.09 2.88 11.61
12/31/2021 11:30:00 PM 6.53 43.754 0.054 7.11 3.03 11.62
12/31/2021 11:45:00 PM 6.51 43.718 0.054 7.11 3.14 11.62
1/1/2022 12:00:00 AM 6.49 43.682 0.054 7.11 3.06 11.63
1/1/2022 12:15:00 AM 6.46 43.628 0.054 7.11 3.18 11.63
1/1/2022 12:30:00 AM 6.43 43.574 0.054 7.11 3.09 11.64
1/1/2022 12:45:00 AM 6.41 43.538 0.054 7.11 3.07 11.64
1/1/2022 1:00:00 AM 6.39 43.502 0.054 7.1 3.08 11.64
1/1/2022 1:15:00 AM 6.37 43.466 0.054 7.11 2.92 11.65
1/1/2022 1:30:00 AM 6.35 43.43 0.054 7.1 2.99 11.65
1/1/2022 1:45:00 AM 6.33 43.394 0.054 7.1 2.96 11.66
1/1/2022 2:00:00 AM 6.32 43.376 0.054 7.1 2.89 11.66
1/1/2022 2:15:00 AM 6.3 43.34 0.054 7.1 2.85 11.66
1/1/2022 2:30:00 AM 6.29 43.322 0.054 7.1 2.86 11.67
1/1/2022 2:45:00 AM 6.29 43.322 0.054 7.09 2.96 11.67
1/1/2022 3:00:00 AM 6.28 43.304 0.054 7.1 2.96 11.67
1/1/2022 3:15:00 AM 6.27 43.286 0.054 7.09 3.03 11.67
1/1/2022 3:30:00 AM 6.27 43.286 0.054 7.09 2.96 11.67
1/1/2022 3:45:00 AM 6.26 43.268 0.054 7.12 2.86 11.67
1/1/2022 4:00:00 AM 6.26 43.268 0.054 7.1 2.84 11.67
1/1/2022 4:15:00 AM 6.26 43.268 0.054 7.09 2.95 11.68
1/1/2022 4:30:00 AM 6.25 43.25 0.054 7.1 2.84 11.68
1/1/2022 4:45:00 AM 6.25 43.25 0.051 7.1 4.95 11.68
1/1/2022 5:00:00 AM 6.25 43.25 0.053 7.1 2.83 11.68
1/1/2022 5:15:00 AM 6.24 43.232 0.053 7.1 2.78 11.68
1/1/2022 5:30:00 AM 6.23 43.214 0.053 7.09 2.83 11.68
1/1/2022 5:45:00 AM 6.22 43.196 0.053 7.09 2.88 11.68
1/1/2022 6:00:00 AM 6.21 43.178 0.053 7.09 2.81 11.68
1/1/2022 6:15:00 AM 6.2 43.16 0.053 7.1 2.78 11.68
1/1/2022 6:30:00 AM 6.2 43.16 0.053 7.09 2.83 11.68
1/1/2022 6:45:00 AM 6.19 43.142 0.053 7.09 2.81 11.68
1/1/2022 7:00:00 AM 6.18 43.124 0.053 7.09 2.78 11.68
1/1/2022 7:15:00 AM 6.18 43.124 0.053 7.09 2.74 11.68
1/1/2022 7:30:00 AM 6.17 43.106 0.053 7.09 2.78 11.68
1/1/2022 7:45:00 AM 6.17 43.106 0.053 7.09 2.95 11.69
1/1/2022 8:00:00 AM 6.16 43.088 0.053 7.1 2.68 11.7
1/1/2022 8:15:00 AM 6.16 43.088 0.053 7.09 2.74 11.71
1/1/2022 8:30:00 AM 6.16 43.088 0.053 7.1 2.77 11.73
1/1/2022 8:45:00 AM 6.16 43.088 0.053 7.11 2.68 11.77
1/1/2022 9:00:00 AM 6.17 43.106 0.053 7.12 2.63 11.8
1/1/2022 9:15:00 AM 6.18 43.124 0.053 7.12 2.62 11.84
1/1/2022 9:30:00 AM 6.2 43.16 0.053 7.15 2.64 11.88
1/1/2022 9:45:00 AM 6.21 43.178 0.053 7.16 2.62 11.92
1/1/2022 10:00:00 AM 6.23 43.214 0.053 7.17 2.5 11.96
1/1/2022 10:15:00 AM 6.25 43.25 0.053 7.18 2.48 11.97
1/1/2022 10:30:00 AM 6.27 43.286 0.053 7.19 2.51 12
1/1/2022 10:45:00 AM 6.3 43.34 0.053 7.2 2.51 12.02
1/1/2022 11:00:00 AM 6.33 43.394 0.053 7.22 2.52 12.05
1/1/2022 11:15:00 AM 6.37 43.466 0.053 7.22 2.47 12.08
1/1/2022 11:30:00 AM 6.41 43.538 0.052 7.24 2.51 12.1
1/1/2022 11:45:00 AM 6.45 43.61 0.052 7.25 2.41 12.1
1/1/2022 12:00:00 PM 6.48 43.664 0.052 7.26 2.45 12.09
1/1/2022 12:15:00 PM 6.52 43.736 0.052 7.27 2.44 12.1
1/1/2022 12:30:00 PM 6.58 43.844 0.052 7.29 2.42 12.11
1/1/2022 12:45:00 PM 6.63 43.934 0.052 7.3 2.44 12.11
1/1/2022 1:00:00 PM 6.68 44.024 0.052 7.3 2.41 12.09
1/1/2022 1:15:00 PM 6.72 44.096 0.052 7.3 2.33 12.07
1/1/2022 1:30:00 PM 6.77 44.186 0.05 7.31 4.25 12.03
1/1/2022 1:45:00 PM 6.81 44.258 0.052 7.33 2.45 12.02
1/1/2022 2:00:00 PM 6.85 44.33 0.052 7.32 2.41 11.99
1/1/2022 2:15:00 PM 6.88 44.384 0.052 7.31 2.52 11.95
1/1/2022 2:30:00 PM 6.92 44.456 0.052 7.32 2.44 11.9
1/1/2022 2:45:00 PM 6.95 44.51 0.052 7.29 2.42 11.87
1/1/2022 3:00:00 PM 6.98 44.564 0.051 7.28 4.16 11.85
1/1/2022 3:15:00 PM 7.01 44.618 0.052 7.28 2.28 11.78
1/1/2022 3:30:00 PM 7.03 44.654 0.052 7.26 2.37 11.73
1/1/2022 3:45:00 PM 7.05 44.69 0.052 7.24 2.31 11.69
1/1/2022 4:00:00 PM 7.06 44.708 0.052 7.23 2.31 11.67
1/1/2022 4:15:00 PM 7.08 44.744 0.052 7.21 2.45 11.62
1/1/2022 4:30:00 PM 7.09 44.762 0.052 7.19 2.39 11.58
1/1/2022 4:45:00 PM 7.12 44.816 0.05 7.18 4.16 11.54
1/1/2022 5:00:00 PM 7.13 44.834 0.051 7.19 4.23 11.5
1/1/2022 5:15:00 PM 7.14 44.852 0.052 7.18 2.43 11.47
1/1/2022 5:30:00 PM 7.16 44.888 0.053 7.15 2.56 11.45
1/1/2022 5:45:00 PM 7.17 44.906 0.053 7.14 2.55 11.43
1/1/2022 6:00:00 PM 7.19 44.942 0.053 7.12 2.58 11.4
1/1/2022 6:15:00 PM 7.2 44.96 0.053 7.11 2.72 11.39
1/1/2022 6:30:00 PM 7.22 44.996 0.05 7.1 4.36 11.38
1/1/2022 6:45:00 PM 7.23 45.014 0.053 7.09 2.66 11.39
1/1/2022 7:00:00 PM 7.24 45.032 0.053 7.09 2.67 11.38
1/1/2022 7:15:00 PM 7.25 45.05 0.052 7.08 4.57 11.36
1/1/2022 7:30:00 PM 7.26 45.068 0.053 7.09 2.93 11.36
1/1/2022 7:45:00 PM 7.27 45.086 0.053 7.07 2.78 11.36
1/1/2022 8:00:00 PM 7.29 45.122 0.053 7.07 2.76 11.34
1/1/2022 8:15:00 PM 7.3 45.14 0.05 7.06 4.39 11.34
1/1/2022 8:30:00 PM 7.31 45.158 0.053 7.1 2.81 11.33
1/1/2022 8:45:00 PM 7.33 45.194 0.053 7.07 2.86 11.32
1/1/2022 9:00:00 PM 7.33 45.194 0.053 7.08 3.03 11.31
1/1/2022 9:15:00 PM 7.34 45.212 0.05 7.07 4.7 11.31
1/1/2022 9:30:00 PM 7.35 45.23 0.053 7.09 3.01 11.3
1/1/2022 9:45:00 PM 7.36 45.248 0.053 7.07 3.1 11.3
1/1/2022 10:00:00 PM 7.36 45.248 0.053 7.07 2.91 11.3
1/1/2022 10:15:00 PM 7.37 45.266 0.053 7.07 3.04 11.29
1/1/2022 10:30:00 PM 7.38 45.284 0.053 7.07 2.93 11.28
1/1/2022 10:45:00 PM 7.38 45.284 0.053 7.08 3.02 11.28
1/1/2022 11:00:00 PM 7.39 45.302 0.053 7.07 3.12 11.28
1/1/2022 11:15:00 PM 7.4 45.32 0.051 7.07 5.14 11.27
1/1/2022 11:30:00 PM 7.41 45.338 0.052 7.09 3.26 11.27
1/1/2022 11:45:00 PM 7.42 45.356 0.05 7.08 5.54 11.27
1/2/2022 12:00:00 AM 7.41 45.338 0.053 7.08 4.35 11.27
1/2/2022 12:15:00 AM 7.4 45.32 0.053 7.08 4.41 11.27
1/2/2022 12:30:00 AM 7.4 45.32 0.053 7.08 4.69 11.27
1/2/2022 12:45:00 AM 7.39 45.302 0.053 7.09 4.98 11.28
1/2/2022 1:00:00 AM 7.37 45.266 0.053 7.08 5.17 11.28
1/2/2022 1:15:00 AM 7.36 45.248 0.053 7.08 4.88 11.28
1/2/2022 1:30:00 AM 7.35 45.23 0.053 7.09 4.94 11.29
1/2/2022 1:45:00 AM 7.33 45.194 0.05 7.09 7.2 11.3
1/2/2022 2:00:00 AM 7.31 45.158 0.053 7.09 5.79 11.31
1/2/2022 2:15:00 AM 7.29 45.122 0.053 7.08 5.7 11.31
1/2/2022 2:30:00 AM 7.27 45.086 0.051 7.08 7.7 11.32
1/2/2022 2:45:00 AM 7.25 45.05 0.053 7.1 6.51 11.34
1/2/2022 3:00:00 AM 7.23 45.014 0.053 7.09 7.93 11.35
1/2/2022 3:15:00 AM 7.21 44.978 0.053 7.08 8.92 11.35
1/2/2022 3:30:00 AM 7.18 44.924 0.053 7.09 10.12 11.36
1/2/2022 3:45:00 AM 7.16 44.888 0.053 7.08 10.41 11.36
1/2/2022 4:00:00 AM 7.14 44.852 0.053 7.09 10.86 11.36
1/2/2022 4:15:00 AM 7.12 44.816 0.053 7.09 10.08 11.37
1/2/2022 4:30:00 AM 7.09 44.762 0.051 7.1 10.54 11.37
1/2/2022 4:45:00 AM 7.07 44.726 0.053 7.12 8.65 11.38
1/2/2022 5:00:00 AM 7.05 44.69 0.054 7.09 8.35 11.38
1/2/2022 5:15:00 AM 7.03 44.654 0.052 7.09 9.26 11.39
1/2/2022 5:30:00 AM 7.01 44.618 0.054 7.1 7.64 11.39
1/2/2022 5:45:00 AM 6.99 44.582 0.054 7.09 6.86 11.4
1/2/2022 6:00:00 AM 6.97 44.546 0.054 7.09 7.11 11.39
1/2/2022 6:15:00 AM 6.95 44.51 0.054 7.09 6.75 11.4
1/2/2022 6:30:00 AM 6.92 44.456 0.054 7.09 6.96 11.41
1/2/2022 6:45:00 AM 6.9 44.42 0.051 7.13 8.14 11.42
1/2/2022 7:00:00 AM 6.88 44.384 0.054 7.09 6.4 11.41
1/2/2022 7:15:00 AM 6.86 44.348 0.054 7.08 5.98 11.42
1/2/2022 7:30:00 AM 6.84 44.312 0.054 7.1 5.91 11.43
1/2/2022 7:45:00 AM 6.82 44.276 0.054 7.09 5.57 11.43
1/2/2022 8:00:00 AM 6.81 44.258 0.054 7.09 5.57 11.44
1/2/2022 8:15:00 AM 6.79 44.222 0.054 7.09 5.29 11.46
1/2/2022 8:30:00 AM 6.77 44.186 0.054 7.1 4.97 11.48
1/2/2022 8:45:00 AM 6.76 44.168 0.052 7.11 6.73 11.5
1/2/2022 9:00:00 AM 6.74 44.132 0.054 7.14 4.86 11.54
1/2/2022 9:15:00 AM 6.73 44.114 0.054 7.12 4.51 11.58
1/2/2022 9:30:00 AM 6.71 44.078 0.054 7.14 4.36 11.62
1/2/2022 9:45:00 AM 6.7 44.06 0.054 7.14 4.41 11.66
1/2/2022 10:00:00 AM 6.68 44.024 0.054 7.15 4.31 11.7
1/2/2022 10:15:00 AM 6.66 43.988 0.053 7.17 5.82 11.76
1/2/2022 10:30:00 AM 6.65 43.97 0.054 7.18 4.24 11.81
1/2/2022 10:45:00 AM 6.63 43.934 0.054 7.18 4.22 11.85
1/2/2022 11:00:00 AM 6.62 43.916 0.054 7.19 4.01 11.89
1/2/2022 11:15:00 AM 6.61 43.898 0.051 7.21 5.61 11.95
1/2/2022 11:30:00 AM 6.6 43.88 0.054 7.26 3.94 11.98
1/2/2022 11:45:00 AM 6.6 43.88 0.054 7.23 3.91 12
1/2/2022 12:00:00 PM 6.59 43.862 0.054 7.24 3.87 12.02
1/2/2022 12:15:00 PM 6.58 43.844 0.054 7.25 3.81 12.03
1/2/2022 12:30:00 PM 6.57 43.826 0.054 7.26 3.72 12.04
1/2/2022 12:45:00 PM 6.56 43.808 0.054 7.27 3.56 12.05
1/2/2022 1:00:00 PM 6.54 43.772 0.054 7.28 3.46 12.06
1/2/2022 1:15:00 PM 6.52 43.736 0.051 7.28 5.71 12.07
1/2/2022 1:30:00 PM 6.49 43.682 0.054 7.31 3.41 12.05
1/2/2022 1:45:00 PM 6.47 43.646 0.054 7.27 3.47 12.08
1/2/2022 2:00:00 PM 6.44 43.592 0.054 7.28 3.49 12.09
1/2/2022 2:15:00 PM 6.41 43.538 0.054 7.29 3.4 12.08
1/2/2022 2:30:00 PM 6.39 43.502 0.054 7.28 3.4 12.09
1/2/2022 2:45:00 PM 6.35 43.43 0.054 7.28 3.49 12.08
1/2/2022 3:00:00 PM 6.32 43.376 0.054 7.28 3.35 12.07
1/2/2022 3:15:00 PM 6.28 43.304 0.054 7.26 3.36 12.05
1/2/2022 3:30:00 PM 6.24 43.232 0.054 7.24 3.42 12.03
1/2/2022 3:45:00 PM 6.19 43.142 0.054 7.22 3.23 12
1/2/2022 4:00:00 PM 6.16 43.088 0.054 7.21 3.24 11.97
1/2/2022 4:15:00 PM 6.11 42.998 0.054 7.18 3.37 11.94
1/2/2022 4:30:00 PM 6.06 42.908 0.054 7.18 3.26 11.92
1/2/2022 4:45:00 PM 6.01 42.818 0.054 7.16 3.28 11.9
1/2/2022 5:00:00 PM 5.96 42.728 0.053 7.17 5.05 11.9
1/2/2022 5:15:00 PM 5.91 42.638 0.054 7.15 3.23 11.89
1/2/2022 5:30:00 PM 5.86 42.548 0.054 7.14 3.3 11.89
1/2/2022 5:45:00 PM 5.8 42.44 0.054 7.13 3.32 11.9
1/2/2022 6:00:00 PM 5.76 42.368 0.054 7.13 3.23 11.91
1/2/2022 6:15:00 PM 5.71 42.278 0.054 7.12 3.26 11.92
1/2/2022 6:30:00 PM 5.66 42.188 0.054 7.11 3.35 11.94
1/2/2022 6:45:00 PM 5.61 42.098 0.054 7.11 3.24 11.95
1/2/2022 7:00:00 PM 5.57 42.026 0.054 7.12 3.3 11.97
1/2/2022 7:15:00 PM 5.52 41.936 0.054 7.1 3.28 11.99
1/2/2022 7:30:00 PM 5.48 41.864 0.054 7.1 3.27 12.01
1/2/2022 7:45:00 PM 5.43 41.774 0.054 7.1 3.3 12.03
1/2/2022 8:00:00 PM 5.38 41.684 0.054 7.1 3.16 12.05
1/2/2022 8:15:00 PM 5.34 41.612 0.054 7.1 3.22 12.07
1/2/2022 8:30:00 PM 5.28 41.504 0.054 7.11 3.26 12.09
1/2/2022 8:45:00 PM 5.24 41.432 0.054 7.1 3.38 12.1
1/2/2022 9:00:00 PM 5.19 41.342 0.054 7.1 3.19 12.12
1/2/2022 9:15:00 PM 5.15 41.27 0.054 7.1 3.1 12.13
1/2/2022 9:30:00 PM 5.1 41.18 0.054 7.1 3.32 12.14
1/2/2022 9:45:00 PM 5.06 41.108 0.054 7.1 3.21 12.15
1/2/2022 10:00:00 PM 5 41 0.054 7.09 3.25 12.16
1/2/2022 10:15:00 PM 4.95 40.91 0.054 7.1 3.25 12.17
1/2/2022 10:30:00 PM 4.9 40.82 0.054 7.09 3.16 12.18
1/2/2022 10:45:00 PM 4.86 40.748 0.054 7.1 3.15 12.2
1/2/2022 11:00:00 PM 4.82 40.676 0.054 7.09 3.1 12.22
1/2/2022 11:15:00 PM 4.78 40.604 0.054 7.09 3.2 12.24
1/2/2022 11:30:00 PM 4.74 40.532 0.054 7.1 3.02 12.26
1/2/2022 11:45:00 PM 4.69 40.442 0.054 7.09 3.03 12.28
1/3/2022 12:00:00 AM 4.64 40.352 0.054 7.09 3.08 12.31
1/3/2022 12:15:00 AM 4.6 40.28 0.054 7.09 3.11 12.33
1/3/2022 12:30:00 AM 4.56 40.208 0.054 7.09 3.05 12.35
1/3/2022 12:45:00 AM 4.51 40.118 0.054 7.09 3.16 12.37
1/3/2022 1:00:00 AM 4.47 40.046 0.054 7.09 3.03 12.38
1/3/2022 1:15:00 AM 4.43 39.974 0.054 7.09 3.16 12.4
1/3/2022 1:30:00 AM 4.38 39.884 0.054 7.09 3.04 12.42
1/3/2022 1:45:00 AM 4.34 39.812 0.054 7.09 3.13 12.44
1/3/2022 2:00:00 AM 4.29 39.722 0.054 7.09 2.92 12.46
1/3/2022 2:15:00 AM 4.25 39.65 0.054 7.1 2.89 12.46
1/3/2022 2:30:00 AM 4.21 39.578 0.054 7.1 3.08 12.48
1/3/2022 2:45:00 AM 4.16 39.488 0.054 7.09 2.92 12.49
1/3/2022 3:00:00 AM 4.12 39.416 0.054 7.09 2.92 12.51
1/3/2022 3:15:00 AM 4.07 39.326 0.054 7.09 2.84 12.53
1/3/2022 3:30:00 AM 4.01 39.218 0.054 7.09 2.87 12.54
1/3/2022 3:45:00 AM 3.96 39.128 0.054 7.09 2.83 12.55
1/3/2022 4:00:00 AM 3.91 39.038 0.054 7.09 2.84 12.56
1/3/2022 4:15:00 AM 3.86 38.948 0.054 7.09 2.98 12.58
1/3/2022 4:30:00 AM 3.81 38.858 0.054 7.09 2.83 12.59
1/3/2022 4:45:00 AM 3.77 38.786 0.054 7.09 2.8 12.6
1/3/2022 5:00:00 AM 3.73 38.714 0.054 7.1 2.9 12.63
1/3/2022 5:15:00 AM 3.69 38.642 0.054 7.09 2.85 12.64
1/3/2022 5:30:00 AM 3.65 38.57 0.054 7.11 2.79 12.65
1/3/2022 5:45:00 AM 3.61 38.498 0.054 7.08 2.69 12.67
1/3/2022 6:00:00 AM 3.57 38.426 0.054 7.09 2.77 12.69
1/3/2022 6:15:00 AM 3.51 38.318 0.054 7.09 2.68 12.71
1/3/2022 6:30:00 AM 3.46 38.228 0.054 7.09 2.77 12.74
1/3/2022 6:45:00 AM 3.42 38.156 0.054 7.09 2.78 12.76
1/3/2022 7:00:00 AM 3.36 38.048 0.054 7.08 2.69 12.78
1/3/2022 7:15:00 AM 3.31 37.958 0.054 7.09 2.79 12.8
1/3/2022 7:30:00 AM 3.27 37.886 0.054 7.1 2.79 12.81
1/3/2022 7:45:00 AM 3.22 37.796 0.054 7.09 2.8 12.84
1/3/2022 8:00:00 AM 3.18 37.724 0.054 7.09 2.68 12.87
1/3/2022 8:15:00 AM 3.15 37.67 0.054 7.09 2.66 12.9
1/3/2022 8:30:00 AM 3.13 37.634 0.054 7.1 2.74 12.94
1/3/2022 8:45:00 AM 3.11 37.598 0.054 7.11 2.7 12.99
1/3/2022 9:00:00 AM 3.07 37.526 0.053 7.12 2.67 13.06
1/3/2022 9:15:00 AM 3.04 37.472 0.053 7.14 2.56 13.11
1/3/2022 9:30:00 AM 3.01 37.418 0.053 7.15 2.5 13.17
1/3/2022 9:45:00 AM 2.98 37.364 0.053 7.16 2.63 13.22
1/3/2022 10:00:00 AM 2.96 37.328 0.053 7.18 2.57 13.26
1/3/2022 10:15:00 AM 2.96 37.328 0.053 7.19 2.48 13.29
1/3/2022 10:30:00 AM 2.96 37.328 0.053 7.2 2.45 13.32
1/3/2022 10:45:00 AM 2.95 37.31 0.053 7.21 2.4 13.34
1/3/2022 11:00:00 AM 2.95 37.31 0.053 7.22 2.48 13.36
1/3/2022 11:15:00 AM 2.96 37.328 0.053 7.22 2.47 13.37
1/3/2022 11:30:00 AM 2.98 37.364 0.053 7.23 2.36 13.38
1/3/2022 11:45:00 AM 3.02 37.436 0.053 7.24 2.58 13.38
1/3/2022 12:00:00 PM 3.05 37.49 0.053 7.24 2.32 13.37
1/3/2022 12:15:00 PM 3.09 37.562 0.053 7.25 2.37 13.37
1/3/2022 12:30:00 PM 3.15 37.67 0.053 7.26 2.36 13.36
1/3/2022 12:45:00 PM 3.21 37.778 0.053 7.24 2.34 13.35
1/3/2022 1:00:00 PM 3.26 37.868 0.053 7.24 2.33 13.33
1/3/2022 1:15:00 PM 3.3 37.94 0.053 7.26 2.32 13.32
1/3/2022 1:30:00 PM 3.33 37.994 0.053 7.25 2.33 13.31
1/3/2022 1:45:00 PM 3.35 38.03 0.053 7.24 2.23 13.29
1/3/2022 2:00:00 PM 3.36 38.048 0.053 7.25 2.36 13.29
1/3/2022 2:15:00 PM 3.36 38.048 0.053 7.25 2.3 13.27
1/3/2022 2:30:00 PM 3.35 38.03 0.053 7.25 2.4 13.25
1/3/2022 2:45:00 PM 3.34 38.012 0.053 7.24 2.24 13.23
1/3/2022 3:00:00 PM 3.32 37.976 0.053 7.24 2.29 13.21
1/3/2022 3:15:00 PM 3.3 37.94 0.053 7.24 2.23 13.19
1/3/2022 3:30:00 PM 3.27 37.886 0.053 7.23 2.23 13.17
1/3/2022 3:45:00 PM 3.25 37.85 0.053 7.23 2.29 13.15
1/3/2022 4:00:00 PM 3.2 37.76 0.053 7.22 2.24 13.14
1/3/2022 4:15:00 PM 3.14 37.652 0.053 7.21 2.17 13.12
1/3/2022 4:30:00 PM 3.07 37.526 0.053 7.2 2.24 13.12
1/3/2022 4:45:00 PM 3 37.4 0.053 7.19 2.41 13.11
1/3/2022 5:00:00 PM 2.92 37.256 0.053 7.19 2.24 13.11
1/3/2022 5:15:00 PM 2.84 37.112 0.053 7.16 2.32 13.11
1/3/2022 5:30:00 PM 2.76 36.968 0.053 7.15 2.43 13.12
1/3/2022 5:45:00 PM 2.68 36.824 0.053 7.13 2.33 13.12
1/3/2022 6:00:00 PM 2.61 36.698 0.053 7.12 2.26 13.14
1/3/2022 6:15:00 PM 2.54 36.572 0.053 7.12 2.35 13.15
1/3/2022 6:30:00 PM 2.48 36.464 0.053 7.12 2.33 13.17
1/3/2022 6:45:00 PM 2.42 36.356 0.053 7.11 2.26 13.18
1/3/2022 7:00:00 PM 2.37 36.266 0.053 7.11 2.43 13.19
1/3/2022 7:15:00 PM 2.32 36.176 0.053 7.11 2.23 13.21
1/3/2022 7:30:00 PM 2.28 36.104 0.053 7.11 2.31 13.22
1/3/2022 7:45:00 PM 2.23 36.014 0.053 7.1 2.36 13.24
1/3/2022 8:00:00 PM 2.18 35.924 0.053 7.1 2.36 13.25
1/3/2022 8:15:00 PM 2.14 35.852 0.053 7.1 2.39 13.27
1/3/2022 8:30:00 PM 2.1 35.78 0.053 7.04 2.41 13.28
1/3/2022 8:45:00 PM 2.05 35.69 0.053 7.03 2.35 13.29
1/3/2022 9:00:00 PM 2.01 35.618 0.053 7.03 2.39 13.31
1/3/2022 9:15:00 PM 1.97 35.546 0.053 7.02 2.34 13.32
1/3/2022 9:30:00 PM 1.93 35.474 0.053 7.02 2.41 13.33
1/3/2022 9:45:00 PM 1.89 35.402 0.053 7.01 2.4 13.35
1/3/2022 10:00:00 PM 1.85 35.33 0.053 7 2.43 13.36
1/3/2022 10:15:00 PM 1.81 35.258 0.053 7.01 2.41 13.38
1/3/2022 10:30:00 PM 1.77 35.186 0.053 7.01 2.41 13.4
1/3/2022 10:45:00 PM 1.73 35.114 0.053 7 2.36 13.42
1/3/2022 11:00:00 PM 1.69 35.042 0.053 7.01 2.39 13.43
1/3/2022 11:15:00 PM 1.65 34.97 0.053 7 2.48 13.46
1/3/2022 11:30:00 PM 1.62 34.916 0.053 7 2.37 13.48
1/3/2022 11:45:00 PM 1.58 34.844 0.053 7 2.42 13.5
1/4/2022 12:00:00 AM 1.54 34.772 0.053 6.99 2.38 13.53
1/4/2022 12:15:00 AM 1.51 34.718 0.053 6.98 2.42 13.54
1/4/2022 12:30:00 AM 1.49 34.682 0.053 6.98 2.37 13.56
1/4/2022 12:45:00 AM 1.46 34.628 0.053 6.98 2.44 13.57
1/4/2022 1:00:00 AM 1.44 34.592 0.053 6.98 2.4 13.59
1/4/2022 1:15:00 AM 1.43 34.574 0.053 6.98 2.41 13.59
1/4/2022 1:30:00 AM 1.41 34.538 0.053 6.98 2.36 13.6
1/4/2022 1:45:00 AM 1.39 34.502 0.053 6.99 2.4 13.61
1/4/2022 2:00:00 AM 1.36 34.448 0.053 6.98 2.53 13.62
1/4/2022 2:15:00 AM 1.33 34.394 0.053 6.98 2.37 13.62
1/4/2022 2:30:00 AM 1.31 34.358 0.053 7 2.42 13.62
1/4/2022 2:45:00 AM 1.28 34.304 0.053 6.99 2.39 13.63
1/4/2022 3:00:00 AM 1.26 34.268 0.053 6.99 2.34 13.64
1/4/2022 3:15:00 AM 1.23 34.214 0.053 7 2.51 13.64
1/4/2022 3:30:00 AM 1.21 34.178 0.053 6.99 2.38 13.65
1/4/2022 3:45:00 AM 1.18 34.124 0.053 7 2.5 13.65
1/4/2022 4:00:00 AM 1.15 34.07 0.053 7 2.54 13.66
1/4/2022 4:15:00 AM 1.13 34.034 0.053 7.01 2.41 13.66
1/4/2022 4:30:00 AM 1.1 33.98 0.053 7.03 2.41 13.67
1/4/2022 4:45:00 AM 1.07 33.926 0.053 7.01 2.32 13.67
1/4/2022 5:00:00 AM 1.05 33.89 0.053 7.02 2.27 13.68
1/4/2022 5:15:00 AM 1.02 33.836 0.053 7.02 2.35 13.69
1/4/2022 5:30:00 AM 0.99 33.782 0.053 7.02 2.26 13.7
1/4/2022 5:45:00 AM 0.97 33.746 0.053 7.02 2.43 13.72
1/4/2022 6:00:00 AM 0.94 33.692 0.053 7.01 2.35 13.73
1/4/2022 6:15:00 AM 0.91 33.638 0.053 7.01 2.42 13.74
1/4/2022 6:30:00 AM 0.89 33.602 0.053 7 2.43 13.76
1/4/2022 6:45:00 AM 0.86 33.548 0.053 7 2.36 13.78
1/4/2022 7:00:00 AM 0.83 33.494 0.053 7 2.34 13.79
1/4/2022 7:15:00 AM 0.81 33.458 0.053 7 2.29 13.81
1/4/2022 7:30:00 AM 0.78 33.404 0.053 7 2.44 13.83
1/4/2022 7:45:00 AM 0.76 33.368 0.053 7.01 2.28 13.84
1/4/2022 8:00:00 AM 0.74 33.332 0.053 7.01 2.31 13.87
1/4/2022 8:15:00 AM 0.73 33.314 0.053 7.01 2.33 13.92
1/4/2022 8:30:00 AM 0.72 33.296 0.053 7.02 2.33 13.97
1/4/2022 8:45:00 AM 0.71 33.278 0.053 7.03 2.42 14
1/4/2022 9:00:00 AM 0.72 33.296 0.053 7.05 2.28 14.04
1/4/2022 9:15:00 AM 0.73 33.314 0.053 7.06 2.38 14.07
1/4